<?xml version="1.0" encoding="UTF-8" standalone="no" ?>
<gpx xmlns="http://www.topografix.com/GPX/1/1" xmlns:xsi="http://www.w3.org/2001/XMLSchema-instance" xsi:schemaLocation="http://www.topografix.com/GPX/1/1 http://www.topografix.com/GPX/1/1/gpx.xsd" version="1.1" creator="VisuGPX - https://www.visugpx.com">
  <metadata>
    <name>2022-07-21 Aston - Etang de l'Estagnole-Aller</name>
    <desc><![CDATA[Bivouaque à l'étang de l'estagnole. On est partis avec des nuages un jour de canicule!]]></desc>
  </metadata>
  <trk>
    <name><![CDATA[2022-07-21 08:51:09]]></name>
    <trkseg>
      <trkpt lat="42.64921" lon="1.70374">
        <ele>1710.32</ele>
        <time>2022-07-20T09:18:55Z</time>
      </trkpt>
      <trkpt lat="42.64909" lon="1.70367">
        <ele>1710.8</ele>
        <time>2022-07-20T09:19:11Z</time>
      </trkpt>
      <trkpt lat="42.6492" lon="1.70358">
        <ele>1708.88</ele>
        <time>2022-07-20T09:19:25Z</time>
      </trkpt>
      <trkpt lat="42.64934" lon="1.70352">
        <ele>1707.44</ele>
        <time>2022-07-20T09:19:40Z</time>
      </trkpt>
      <trkpt lat="42.64933" lon="1.70347">
        <ele>1707.44</ele>
        <time>2022-07-20T09:19:57Z</time>
      </trkpt>
      <trkpt lat="42.64933" lon="1.70346">
        <ele>1707.44</ele>
        <time>2022-07-20T09:20:16Z</time>
      </trkpt>
      <trkpt lat="42.64937" lon="1.70345">
        <ele>1707.44</ele>
        <time>2022-07-20T09:20:42Z</time>
      </trkpt>
      <trkpt lat="42.64933" lon="1.70345">
        <ele>1708.4</ele>
        <time>2022-07-20T09:21:09Z</time>
      </trkpt>
      <trkpt lat="42.64929" lon="1.70342">
        <ele>1707.44</ele>
        <time>2022-07-20T09:21:39Z</time>
      </trkpt>
      <trkpt lat="42.64923" lon="1.70344">
        <ele>1706</ele>
        <time>2022-07-20T09:21:50Z</time>
      </trkpt>
      <trkpt lat="42.64919" lon="1.70344">
        <ele>1706</ele>
        <time>2022-07-20T09:22:05Z</time>
      </trkpt>
      <trkpt lat="42.64917" lon="1.70343">
        <ele>1706</ele>
        <time>2022-07-20T09:22:11Z</time>
      </trkpt>
      <trkpt lat="42.64904" lon="1.70349">
        <ele>1706.96</ele>
        <time>2022-07-20T09:22:26Z</time>
      </trkpt>
      <trkpt lat="42.6489" lon="1.70352">
        <ele>1708.4</ele>
        <time>2022-07-20T09:22:43Z</time>
      </trkpt>
      <trkpt lat="42.64884" lon="1.70358">
        <ele>1708.88</ele>
        <time>2022-07-20T09:22:56Z</time>
      </trkpt>
      <trkpt lat="42.6488" lon="1.70355">
        <ele>1708.88</ele>
        <time>2022-07-20T09:23:11Z</time>
      </trkpt>
      <trkpt lat="42.64877" lon="1.70357">
        <ele>1708.88</ele>
        <time>2022-07-20T09:23:26Z</time>
      </trkpt>
      <trkpt lat="42.6487" lon="1.70349">
        <ele>1708.88</ele>
        <time>2022-07-20T09:23:38Z</time>
      </trkpt>
      <trkpt lat="42.64869" lon="1.70349">
        <ele>1708.88</ele>
        <time>2022-07-20T09:23:40Z</time>
      </trkpt>
      <trkpt lat="42.64856" lon="1.70353">
        <ele>1708.88</ele>
        <time>2022-07-20T09:23:51Z</time>
      </trkpt>
      <trkpt lat="42.64854" lon="1.70353">
        <ele>1707.44</ele>
        <time>2022-07-20T09:23:54Z</time>
      </trkpt>
      <trkpt lat="42.64845" lon="1.70358">
        <ele>1707.44</ele>
        <time>2022-07-20T09:24:06Z</time>
      </trkpt>
      <trkpt lat="42.64841" lon="1.7036">
        <ele>1707.44</ele>
        <time>2022-07-20T09:24:12Z</time>
      </trkpt>
      <trkpt lat="42.64832" lon="1.70361">
        <ele>1707.44</ele>
        <time>2022-07-20T09:24:25Z</time>
      </trkpt>
      <trkpt lat="42.64822" lon="1.70359">
        <ele>1707.44</ele>
        <time>2022-07-20T09:24:37Z</time>
      </trkpt>
      <trkpt lat="42.64818" lon="1.70361">
        <ele>1707.44</ele>
        <time>2022-07-20T09:24:41Z</time>
      </trkpt>
      <trkpt lat="42.64812" lon="1.7035">
        <ele>1706.48</ele>
        <time>2022-07-20T09:24:54Z</time>
      </trkpt>
      <trkpt lat="42.64814" lon="1.70336">
        <ele>1703.59</ele>
        <time>2022-07-20T09:25:07Z</time>
      </trkpt>
      <trkpt lat="42.64812" lon="1.70331">
        <ele>1704.55</ele>
        <time>2022-07-20T09:25:12Z</time>
      </trkpt>
      <trkpt lat="42.64808" lon="1.70323">
        <ele>1704.55</ele>
        <time>2022-07-20T09:25:17Z</time>
      </trkpt>
      <trkpt lat="42.64802" lon="1.70311">
        <ele>1704.55</ele>
        <time>2022-07-20T09:25:26Z</time>
      </trkpt>
      <trkpt lat="42.64798" lon="1.70308">
        <ele>1706</ele>
        <time>2022-07-20T09:25:30Z</time>
      </trkpt>
      <trkpt lat="42.64783" lon="1.70301">
        <ele>1706.96</ele>
        <time>2022-07-20T09:25:46Z</time>
      </trkpt>
      <trkpt lat="42.64782" lon="1.703">
        <ele>1706.96</ele>
        <time>2022-07-20T09:25:48Z</time>
      </trkpt>
      <trkpt lat="42.64767" lon="1.70294">
        <ele>1708.4</ele>
        <time>2022-07-20T09:26:04Z</time>
      </trkpt>
      <trkpt lat="42.64754" lon="1.70286">
        <ele>1708.4</ele>
        <time>2022-07-20T09:26:21Z</time>
      </trkpt>
      <trkpt lat="42.64752" lon="1.70282">
        <ele>1708.88</ele>
        <time>2022-07-20T09:26:26Z</time>
      </trkpt>
      <trkpt lat="42.64744" lon="1.70286">
        <ele>1708.88</ele>
        <time>2022-07-20T09:26:33Z</time>
      </trkpt>
      <trkpt lat="42.64732" lon="1.70287">
        <ele>1709.84</ele>
        <time>2022-07-20T09:26:45Z</time>
      </trkpt>
      <trkpt lat="42.64714" lon="1.70286">
        <ele>1710.8</ele>
        <time>2022-07-20T09:27:03Z</time>
      </trkpt>
      <trkpt lat="42.647" lon="1.70295">
        <ele>1712.73</ele>
        <time>2022-07-20T09:27:20Z</time>
      </trkpt>
      <trkpt lat="42.64692" lon="1.70303">
        <ele>1714.65</ele>
        <time>2022-07-20T09:27:34Z</time>
      </trkpt>
      <trkpt lat="42.64684" lon="1.703">
        <ele>1716.09</ele>
        <time>2022-07-20T09:27:49Z</time>
      </trkpt>
      <trkpt lat="42.64675" lon="1.70294">
        <ele>1718.97</ele>
        <time>2022-07-20T09:28:03Z</time>
      </trkpt>
      <trkpt lat="42.6467" lon="1.70288">
        <ele>1721.38</ele>
        <time>2022-07-20T09:28:16Z</time>
      </trkpt>
      <trkpt lat="42.6466" lon="1.70291">
        <ele>1723.3</ele>
        <time>2022-07-20T09:28:28Z</time>
      </trkpt>
      <trkpt lat="42.64657" lon="1.7029">
        <ele>1723.78</ele>
        <time>2022-07-20T09:28:33Z</time>
      </trkpt>
      <trkpt lat="42.64646" lon="1.70282">
        <ele>1724.26</ele>
        <time>2022-07-20T09:28:49Z</time>
      </trkpt>
      <trkpt lat="42.64637" lon="1.70278">
        <ele>1724.26</ele>
        <time>2022-07-20T09:29:02Z</time>
      </trkpt>
      <trkpt lat="42.64629" lon="1.70274">
        <ele>1724.26</ele>
        <time>2022-07-20T09:29:10Z</time>
      </trkpt>
      <trkpt lat="42.64627" lon="1.70273">
        <ele>1723.3</ele>
        <time>2022-07-20T09:29:12Z</time>
      </trkpt>
      <trkpt lat="42.64624" lon="1.70274">
        <ele>1725.7</ele>
        <time>2022-07-20T09:29:15Z</time>
      </trkpt>
      <trkpt lat="42.64619" lon="1.70273">
        <ele>1724.26</ele>
        <time>2022-07-20T09:29:19Z</time>
      </trkpt>
      <trkpt lat="42.646" lon="1.70271">
        <ele>1724.26</ele>
        <time>2022-07-20T09:29:37Z</time>
      </trkpt>
      <trkpt lat="42.6458" lon="1.70271">
        <ele>1724.26</ele>
        <time>2022-07-20T09:29:55Z</time>
      </trkpt>
      <trkpt lat="42.64563" lon="1.70267">
        <ele>1722.82</ele>
        <time>2022-07-20T09:30:15Z</time>
      </trkpt>
      <trkpt lat="42.64555" lon="1.70268">
        <ele>1720.9</ele>
        <time>2022-07-20T09:30:28Z</time>
      </trkpt>
      <trkpt lat="42.64553" lon="1.70268">
        <ele>1720.9</ele>
        <time>2022-07-20T09:30:30Z</time>
      </trkpt>
      <trkpt lat="42.64543" lon="1.70264">
        <ele>1720.42</ele>
        <time>2022-07-20T09:30:42Z</time>
      </trkpt>
      <trkpt lat="42.64536" lon="1.70262">
        <ele>1719.94</ele>
        <time>2022-07-20T09:30:54Z</time>
      </trkpt>
      <trkpt lat="42.64522" lon="1.70261">
        <ele>1719.94</ele>
        <time>2022-07-20T09:31:10Z</time>
      </trkpt>
      <trkpt lat="42.64505" lon="1.7026">
        <ele>1719.94</ele>
        <time>2022-07-20T09:31:28Z</time>
      </trkpt>
      <trkpt lat="42.64496" lon="1.70264">
        <ele>1719.94</ele>
        <time>2022-07-20T09:31:40Z</time>
      </trkpt>
      <trkpt lat="42.64492" lon="1.70266">
        <ele>1721.38</ele>
        <time>2022-07-20T09:31:46Z</time>
      </trkpt>
      <trkpt lat="42.64479" lon="1.70264">
        <ele>1721.38</ele>
        <time>2022-07-20T09:32:00Z</time>
      </trkpt>
      <trkpt lat="42.64465" lon="1.70264">
        <ele>1721.86</ele>
        <time>2022-07-20T09:32:16Z</time>
      </trkpt>
      <trkpt lat="42.64452" lon="1.70261">
        <ele>1722.34</ele>
        <time>2022-07-20T09:32:29Z</time>
      </trkpt>
      <trkpt lat="42.64436" lon="1.70267">
        <ele>1722.82</ele>
        <time>2022-07-20T09:32:44Z</time>
      </trkpt>
      <trkpt lat="42.64429" lon="1.70271">
        <ele>1722.82</ele>
        <time>2022-07-20T09:32:52Z</time>
      </trkpt>
      <trkpt lat="42.64427" lon="1.70272">
        <ele>1722.82</ele>
        <time>2022-07-20T09:32:54Z</time>
      </trkpt>
      <trkpt lat="42.64422" lon="1.70275">
        <ele>1722.82</ele>
        <time>2022-07-20T09:33:00Z</time>
      </trkpt>
      <trkpt lat="42.64418" lon="1.70277">
        <ele>1722.82</ele>
        <time>2022-07-20T09:33:04Z</time>
      </trkpt>
      <trkpt lat="42.64407" lon="1.70276">
        <ele>1723.3</ele>
        <time>2022-07-20T09:33:19Z</time>
      </trkpt>
      <trkpt lat="42.64406" lon="1.70275">
        <ele>1723.3</ele>
        <time>2022-07-20T09:33:21Z</time>
      </trkpt>
      <trkpt lat="42.64404" lon="1.70274">
        <ele>1723.3</ele>
        <time>2022-07-20T09:33:23Z</time>
      </trkpt>
      <trkpt lat="42.64397" lon="1.70272">
        <ele>1723.78</ele>
        <time>2022-07-20T09:33:31Z</time>
      </trkpt>
      <trkpt lat="42.6439" lon="1.70274">
        <ele>1724.26</ele>
        <time>2022-07-20T09:33:38Z</time>
      </trkpt>
      <trkpt lat="42.64375" lon="1.70276">
        <ele>1725.7</ele>
        <time>2022-07-20T09:33:55Z</time>
      </trkpt>
      <trkpt lat="42.64362" lon="1.7028">
        <ele>1727.63</ele>
        <time>2022-07-20T09:34:12Z</time>
      </trkpt>
      <trkpt lat="42.6435" lon="1.70286">
        <ele>1730.51</ele>
        <time>2022-07-20T09:34:27Z</time>
      </trkpt>
      <trkpt lat="42.64342" lon="1.70289">
        <ele>1731.95</ele>
        <time>2022-07-20T09:34:40Z</time>
      </trkpt>
      <trkpt lat="42.64332" lon="1.70299">
        <ele>1733.88</ele>
        <time>2022-07-20T09:34:55Z</time>
      </trkpt>
      <trkpt lat="42.64321" lon="1.70306">
        <ele>1735.32</ele>
        <time>2022-07-20T09:35:11Z</time>
      </trkpt>
      <trkpt lat="42.64314" lon="1.70312">
        <ele>1736.76</ele>
        <time>2022-07-20T09:35:22Z</time>
      </trkpt>
      <trkpt lat="42.64306" lon="1.7032">
        <ele>1738.68</ele>
        <time>2022-07-20T09:35:38Z</time>
      </trkpt>
      <trkpt lat="42.64299" lon="1.70317">
        <ele>1739.16</ele>
        <time>2022-07-20T09:35:50Z</time>
      </trkpt>
      <trkpt lat="42.64288" lon="1.70317">
        <ele>1740.6</ele>
        <time>2022-07-20T09:36:03Z</time>
      </trkpt>
      <trkpt lat="42.64281" lon="1.70319">
        <ele>1742.05</ele>
        <time>2022-07-20T09:36:15Z</time>
      </trkpt>
      <trkpt lat="42.64272" lon="1.70324">
        <ele>1743.49</ele>
        <time>2022-07-20T09:36:28Z</time>
      </trkpt>
      <trkpt lat="42.6427" lon="1.70321">
        <ele>1744.45</ele>
        <time>2022-07-20T09:36:33Z</time>
      </trkpt>
      <trkpt lat="42.64262" lon="1.70319">
        <ele>1744.45</ele>
        <time>2022-07-20T09:36:43Z</time>
      </trkpt>
      <trkpt lat="42.6425" lon="1.70323">
        <ele>1745.89</ele>
        <time>2022-07-20T09:36:58Z</time>
      </trkpt>
      <trkpt lat="42.64242" lon="1.7033">
        <ele>1748.78</ele>
        <time>2022-07-20T09:37:12Z</time>
      </trkpt>
      <trkpt lat="42.64233" lon="1.70337">
        <ele>1750.22</ele>
        <time>2022-07-20T09:37:26Z</time>
      </trkpt>
      <trkpt lat="42.64222" lon="1.70345">
        <ele>1751.66</ele>
        <time>2022-07-20T09:37:43Z</time>
      </trkpt>
      <trkpt lat="42.64213" lon="1.70356">
        <ele>1754.06</ele>
        <time>2022-07-20T09:37:59Z</time>
      </trkpt>
      <trkpt lat="42.64205" lon="1.70367">
        <ele>1755.99</ele>
        <time>2022-07-20T09:38:15Z</time>
      </trkpt>
      <trkpt lat="42.642" lon="1.7038">
        <ele>1758.39</ele>
        <time>2022-07-20T09:38:31Z</time>
      </trkpt>
      <trkpt lat="42.64197" lon="1.7039">
        <ele>1760.31</ele>
        <time>2022-07-20T09:38:45Z</time>
      </trkpt>
      <trkpt lat="42.64191" lon="1.70399">
        <ele>1762.23</ele>
        <time>2022-07-20T09:38:59Z</time>
      </trkpt>
      <trkpt lat="42.64185" lon="1.70408">
        <ele>1764.64</ele>
        <time>2022-07-20T09:39:14Z</time>
      </trkpt>
      <trkpt lat="42.64182" lon="1.70411">
        <ele>1766.56</ele>
        <time>2022-07-20T09:39:20Z</time>
      </trkpt>
      <trkpt lat="42.64175" lon="1.70416">
        <ele>1767.52</ele>
        <time>2022-07-20T09:39:34Z</time>
      </trkpt>
      <trkpt lat="42.64178" lon="1.70418">
        <ele>1768</ele>
        <time>2022-07-20T09:39:51Z</time>
      </trkpt>
      <trkpt lat="42.6418" lon="1.7042">
        <ele>1769.44</ele>
        <time>2022-07-20T09:40:06Z</time>
      </trkpt>
      <trkpt lat="42.64176" lon="1.70417">
        <ele>1769.44</ele>
        <time>2022-07-20T09:40:36Z</time>
      </trkpt>
      <trkpt lat="42.64178" lon="1.70414">
        <ele>1769.44</ele>
        <time>2022-07-20T09:40:56Z</time>
      </trkpt>
      <trkpt lat="42.64177" lon="1.70412">
        <ele>1769.44</ele>
        <time>2022-07-20T09:41:24Z</time>
      </trkpt>
      <trkpt lat="42.64176" lon="1.70417">
        <ele>1769.92</ele>
        <time>2022-07-20T09:41:54Z</time>
      </trkpt>
      <trkpt lat="42.64183" lon="1.70427">
        <ele>1771.85</ele>
        <time>2022-07-20T09:42:09Z</time>
      </trkpt>
      <trkpt lat="42.64178" lon="1.70435">
        <ele>1774.25</ele>
        <time>2022-07-20T09:42:22Z</time>
      </trkpt>
      <trkpt lat="42.64172" lon="1.70441">
        <ele>1777.13</ele>
        <time>2022-07-20T09:42:38Z</time>
      </trkpt>
      <trkpt lat="42.64168" lon="1.70449">
        <ele>1779.06</ele>
        <time>2022-07-20T09:42:51Z</time>
      </trkpt>
      <trkpt lat="42.64164" lon="1.70456">
        <ele>1780.98</ele>
        <time>2022-07-20T09:43:05Z</time>
      </trkpt>
      <trkpt lat="42.64162" lon="1.70459">
        <ele>1781.46</ele>
        <time>2022-07-20T09:43:21Z</time>
      </trkpt>
      <trkpt lat="42.64163" lon="1.7046">
        <ele>1781.46</ele>
        <time>2022-07-20T09:43:45Z</time>
      </trkpt>
      <trkpt lat="42.6416" lon="1.70464">
        <ele>1780.02</ele>
        <time>2022-07-20T09:43:59Z</time>
      </trkpt>
      <trkpt lat="42.64158" lon="1.7047">
        <ele>1780.02</ele>
        <time>2022-07-20T09:44:08Z</time>
      </trkpt>
      <trkpt lat="42.64151" lon="1.70481">
        <ele>1781.94</ele>
        <time>2022-07-20T09:44:25Z</time>
      </trkpt>
      <trkpt lat="42.64146" lon="1.70487">
        <ele>1784.82</ele>
        <time>2022-07-20T09:44:38Z</time>
      </trkpt>
      <trkpt lat="42.64138" lon="1.70488">
        <ele>1785.79</ele>
        <time>2022-07-20T09:44:52Z</time>
      </trkpt>
      <trkpt lat="42.64135" lon="1.70497">
        <ele>1786.75</ele>
        <time>2022-07-20T09:45:09Z</time>
      </trkpt>
      <trkpt lat="42.64133" lon="1.70501">
        <ele>1788.67</ele>
        <time>2022-07-20T09:45:21Z</time>
      </trkpt>
      <trkpt lat="42.64129" lon="1.70503">
        <ele>1790.59</ele>
        <time>2022-07-20T09:45:36Z</time>
      </trkpt>
      <trkpt lat="42.64124" lon="1.7051">
        <ele>1792.52</ele>
        <time>2022-07-20T09:45:51Z</time>
      </trkpt>
      <trkpt lat="42.64125" lon="1.70511">
        <ele>1793</ele>
        <time>2022-07-20T09:46:01Z</time>
      </trkpt>
      <trkpt lat="42.64122" lon="1.70517">
        <ele>1793.96</ele>
        <time>2022-07-20T09:46:12Z</time>
      </trkpt>
      <trkpt lat="42.64115" lon="1.70521">
        <ele>1795.88</ele>
        <time>2022-07-20T09:46:27Z</time>
      </trkpt>
      <trkpt lat="42.64111" lon="1.7053">
        <ele>1798.28</ele>
        <time>2022-07-20T09:46:43Z</time>
      </trkpt>
      <trkpt lat="42.64108" lon="1.70534">
        <ele>1799.73</ele>
        <time>2022-07-20T09:46:56Z</time>
      </trkpt>
      <trkpt lat="42.64108" lon="1.70534">
        <ele>1800.21</ele>
        <time>2022-07-20T09:47:11Z</time>
      </trkpt>
      <trkpt lat="42.64108" lon="1.70543">
        <ele>1801.17</ele>
        <time>2022-07-20T09:47:33Z</time>
      </trkpt>
      <trkpt lat="42.64108" lon="1.70557">
        <ele>1803.09</ele>
        <time>2022-07-20T09:47:47Z</time>
      </trkpt>
      <trkpt lat="42.64106" lon="1.70564">
        <ele>1804.53</ele>
        <time>2022-07-20T09:47:59Z</time>
      </trkpt>
      <trkpt lat="42.64101" lon="1.70571">
        <ele>1806.45</ele>
        <time>2022-07-20T09:48:11Z</time>
      </trkpt>
      <trkpt lat="42.64099" lon="1.70578">
        <ele>1808.38</ele>
        <time>2022-07-20T09:48:26Z</time>
      </trkpt>
      <trkpt lat="42.64097" lon="1.70583">
        <ele>1810.3</ele>
        <time>2022-07-20T09:48:40Z</time>
      </trkpt>
      <trkpt lat="42.64098" lon="1.70589">
        <ele>1812.22</ele>
        <time>2022-07-20T09:48:50Z</time>
      </trkpt>
      <trkpt lat="42.64098" lon="1.70594">
        <ele>1813.66</ele>
        <time>2022-07-20T09:49:02Z</time>
      </trkpt>
      <trkpt lat="42.64098" lon="1.70602">
        <ele>1815.59</ele>
        <time>2022-07-20T09:49:15Z</time>
      </trkpt>
      <trkpt lat="42.64098" lon="1.7061">
        <ele>1816.55</ele>
        <time>2022-07-20T09:49:27Z</time>
      </trkpt>
      <trkpt lat="42.64098" lon="1.70614">
        <ele>1817.99</ele>
        <time>2022-07-20T09:49:39Z</time>
      </trkpt>
      <trkpt lat="42.64099" lon="1.7062">
        <ele>1819.91</ele>
        <time>2022-07-20T09:49:53Z</time>
      </trkpt>
      <trkpt lat="42.64102" lon="1.70621">
        <ele>1820.87</ele>
        <time>2022-07-20T09:50:06Z</time>
      </trkpt>
      <trkpt lat="42.64104" lon="1.70626">
        <ele>1822.32</ele>
        <time>2022-07-20T09:50:20Z</time>
      </trkpt>
      <trkpt lat="42.64103" lon="1.7063">
        <ele>1823.28</ele>
        <time>2022-07-20T09:50:31Z</time>
      </trkpt>
      <trkpt lat="42.64104" lon="1.70626">
        <ele>1823.28</ele>
        <time>2022-07-20T09:50:44Z</time>
      </trkpt>
      <trkpt lat="42.64102" lon="1.70621">
        <ele>1823.28</ele>
        <time>2022-07-20T09:51:07Z</time>
      </trkpt>
      <trkpt lat="42.64101" lon="1.70622">
        <ele>1823.28</ele>
        <time>2022-07-20T09:51:34Z</time>
      </trkpt>
      <trkpt lat="42.64099" lon="1.70629">
        <ele>1824.72</ele>
        <time>2022-07-20T09:51:54Z</time>
      </trkpt>
      <trkpt lat="42.64095" lon="1.70641">
        <ele>1825.68</ele>
        <time>2022-07-20T09:52:08Z</time>
      </trkpt>
      <trkpt lat="42.64094" lon="1.70648">
        <ele>1827.6</ele>
        <time>2022-07-20T09:52:18Z</time>
      </trkpt>
      <trkpt lat="42.64091" lon="1.70659">
        <ele>1829.53</ele>
        <time>2022-07-20T09:52:32Z</time>
      </trkpt>
      <trkpt lat="42.64088" lon="1.70667">
        <ele>1830.97</ele>
        <time>2022-07-20T09:52:46Z</time>
      </trkpt>
      <trkpt lat="42.64085" lon="1.7068">
        <ele>1832.89</ele>
        <time>2022-07-20T09:53:01Z</time>
      </trkpt>
      <trkpt lat="42.64085" lon="1.70694">
        <ele>1833.85</ele>
        <time>2022-07-20T09:53:14Z</time>
      </trkpt>
      <trkpt lat="42.64082" lon="1.70703">
        <ele>1834.81</ele>
        <time>2022-07-20T09:53:27Z</time>
      </trkpt>
      <trkpt lat="42.6408" lon="1.70712">
        <ele>1836.74</ele>
        <time>2022-07-20T09:53:41Z</time>
      </trkpt>
      <trkpt lat="42.64077" lon="1.70719">
        <ele>1837.7</ele>
        <time>2022-07-20T09:53:54Z</time>
      </trkpt>
      <trkpt lat="42.64073" lon="1.70721">
        <ele>1839.62</ele>
        <time>2022-07-20T09:54:08Z</time>
      </trkpt>
      <trkpt lat="42.6407" lon="1.70731">
        <ele>1841.06</ele>
        <time>2022-07-20T09:54:21Z</time>
      </trkpt>
      <trkpt lat="42.64065" lon="1.7074">
        <ele>1841.54</ele>
        <time>2022-07-20T09:54:36Z</time>
      </trkpt>
      <trkpt lat="42.64065" lon="1.70741">
        <ele>1842.02</ele>
        <time>2022-07-20T09:54:48Z</time>
      </trkpt>
      <trkpt lat="42.64066" lon="1.7074">
        <ele>1842.02</ele>
        <time>2022-07-20T09:55:03Z</time>
      </trkpt>
      <trkpt lat="42.64066" lon="1.70739">
        <ele>1841.06</ele>
        <time>2022-07-20T09:55:33Z</time>
      </trkpt>
      <trkpt lat="42.64064" lon="1.70737">
        <ele>1841.06</ele>
        <time>2022-07-20T09:56:03Z</time>
      </trkpt>
      <trkpt lat="42.64063" lon="1.70739">
        <ele>1841.06</ele>
        <time>2022-07-20T09:56:41Z</time>
      </trkpt>
      <trkpt lat="42.64065" lon="1.70742">
        <ele>1842.5</ele>
        <time>2022-07-20T09:56:48Z</time>
      </trkpt>
      <trkpt lat="42.64064" lon="1.70745">
        <ele>1842.98</ele>
        <time>2022-07-20T09:57:06Z</time>
      </trkpt>
      <trkpt lat="42.64063" lon="1.70741">
        <ele>1842.98</ele>
        <time>2022-07-20T09:57:21Z</time>
      </trkpt>
      <trkpt lat="42.64062" lon="1.70738">
        <ele>1842.98</ele>
        <time>2022-07-20T09:57:39Z</time>
      </trkpt>
      <trkpt lat="42.64061" lon="1.7074">
        <ele>1842.98</ele>
        <time>2022-07-20T09:57:56Z</time>
      </trkpt>
      <trkpt lat="42.64062" lon="1.70739">
        <ele>1842.5</ele>
        <time>2022-07-20T09:58:01Z</time>
      </trkpt>
      <trkpt lat="42.64064" lon="1.70738">
        <ele>1843.95</ele>
        <time>2022-07-20T09:58:23Z</time>
      </trkpt>
      <trkpt lat="42.64057" lon="1.70746">
        <ele>1842.5</ele>
        <time>2022-07-20T09:58:49Z</time>
      </trkpt>
      <trkpt lat="42.64055" lon="1.70748">
        <ele>1842.5</ele>
        <time>2022-07-20T09:58:51Z</time>
      </trkpt>
      <trkpt lat="42.64048" lon="1.70765">
        <ele>1842.5</ele>
        <time>2022-07-20T09:59:07Z</time>
      </trkpt>
      <trkpt lat="42.64041" lon="1.70772">
        <ele>1842.98</ele>
        <time>2022-07-20T09:59:16Z</time>
      </trkpt>
      <trkpt lat="42.64034" lon="1.70779">
        <ele>1843.95</ele>
        <time>2022-07-20T09:59:31Z</time>
      </trkpt>
      <trkpt lat="42.64031" lon="1.70783">
        <ele>1843.95</ele>
        <time>2022-07-20T09:59:48Z</time>
      </trkpt>
      <trkpt lat="42.64027" lon="1.70791">
        <ele>1844.91</ele>
        <time>2022-07-20T10:00:02Z</time>
      </trkpt>
      <trkpt lat="42.64025" lon="1.70796">
        <ele>1845.39</ele>
        <time>2022-07-20T10:00:14Z</time>
      </trkpt>
      <trkpt lat="42.64021" lon="1.70802">
        <ele>1846.83</ele>
        <time>2022-07-20T10:00:25Z</time>
      </trkpt>
      <trkpt lat="42.64014" lon="1.70809">
        <ele>1847.31</ele>
        <time>2022-07-20T10:00:38Z</time>
      </trkpt>
      <trkpt lat="42.64009" lon="1.70817">
        <ele>1849.23</ele>
        <time>2022-07-20T10:00:52Z</time>
      </trkpt>
      <trkpt lat="42.64005" lon="1.70824">
        <ele>1850.68</ele>
        <time>2022-07-20T10:01:04Z</time>
      </trkpt>
      <trkpt lat="42.64002" lon="1.70835">
        <ele>1852.12</ele>
        <time>2022-07-20T10:01:18Z</time>
      </trkpt>
      <trkpt lat="42.64" lon="1.70845">
        <ele>1853.56</ele>
        <time>2022-07-20T10:01:32Z</time>
      </trkpt>
      <trkpt lat="42.64" lon="1.70849">
        <ele>1854.04</ele>
        <time>2022-07-20T10:01:43Z</time>
      </trkpt>
      <trkpt lat="42.63998" lon="1.70855">
        <ele>1855</ele>
        <time>2022-07-20T10:01:54Z</time>
      </trkpt>
      <trkpt lat="42.63995" lon="1.70863">
        <ele>1855.96</ele>
        <time>2022-07-20T10:02:07Z</time>
      </trkpt>
      <trkpt lat="42.63995" lon="1.7087">
        <ele>1856.44</ele>
        <time>2022-07-20T10:02:16Z</time>
      </trkpt>
      <trkpt lat="42.63992" lon="1.70874">
        <ele>1856.92</ele>
        <time>2022-07-20T10:02:27Z</time>
      </trkpt>
      <trkpt lat="42.6399" lon="1.70878">
        <ele>1856.92</ele>
        <time>2022-07-20T10:02:31Z</time>
      </trkpt>
      <trkpt lat="42.63988" lon="1.70899">
        <ele>1859.33</ele>
        <time>2022-07-20T10:02:49Z</time>
      </trkpt>
      <trkpt lat="42.63986" lon="1.70907">
        <ele>1860.77</ele>
        <time>2022-07-20T10:03:02Z</time>
      </trkpt>
      <trkpt lat="42.63983" lon="1.70918">
        <ele>1862.21</ele>
        <time>2022-07-20T10:03:16Z</time>
      </trkpt>
      <trkpt lat="42.63985" lon="1.70931">
        <ele>1864.13</ele>
        <time>2022-07-20T10:03:31Z</time>
      </trkpt>
      <trkpt lat="42.63985" lon="1.70935">
        <ele>1864.61</ele>
        <time>2022-07-20T10:03:35Z</time>
      </trkpt>
      <trkpt lat="42.63987" lon="1.70945">
        <ele>1866.06</ele>
        <time>2022-07-20T10:03:48Z</time>
      </trkpt>
      <trkpt lat="42.63987" lon="1.70956">
        <ele>1867.5</ele>
        <time>2022-07-20T10:04:01Z</time>
      </trkpt>
      <trkpt lat="42.63991" lon="1.70969">
        <ele>1868.46</ele>
        <time>2022-07-20T10:04:15Z</time>
      </trkpt>
      <trkpt lat="42.63991" lon="1.70984">
        <ele>1870.38</ele>
        <time>2022-07-20T10:04:30Z</time>
      </trkpt>
      <trkpt lat="42.63989" lon="1.70996">
        <ele>1871.34</ele>
        <time>2022-07-20T10:04:44Z</time>
      </trkpt>
      <trkpt lat="42.63988" lon="1.71012">
        <ele>1873.27</ele>
        <time>2022-07-20T10:05:00Z</time>
      </trkpt>
      <trkpt lat="42.63988" lon="1.71021">
        <ele>1874.71</ele>
        <time>2022-07-20T10:05:14Z</time>
      </trkpt>
      <trkpt lat="42.63987" lon="1.71028">
        <ele>1875.19</ele>
        <time>2022-07-20T10:05:29Z</time>
      </trkpt>
      <trkpt lat="42.63988" lon="1.71028">
        <ele>1875.19</ele>
        <time>2022-07-20T10:05:52Z</time>
      </trkpt>
      <trkpt lat="42.63988" lon="1.7104">
        <ele>1877.11</ele>
        <time>2022-07-20T10:06:05Z</time>
      </trkpt>
      <trkpt lat="42.63986" lon="1.71052">
        <ele>1878.55</ele>
        <time>2022-07-20T10:06:18Z</time>
      </trkpt>
      <trkpt lat="42.63986" lon="1.7106">
        <ele>1880.48</ele>
        <time>2022-07-20T10:06:30Z</time>
      </trkpt>
      <trkpt lat="42.63984" lon="1.71063">
        <ele>1880</ele>
        <time>2022-07-20T10:06:42Z</time>
      </trkpt>
      <trkpt lat="42.63985" lon="1.71057">
        <ele>1880</ele>
        <time>2022-07-20T10:07:09Z</time>
      </trkpt>
      <trkpt lat="42.63985" lon="1.7106">
        <ele>1880.48</ele>
        <time>2022-07-20T10:07:29Z</time>
      </trkpt>
      <trkpt lat="42.6398" lon="1.71071">
        <ele>1880.48</ele>
        <time>2022-07-20T10:07:42Z</time>
      </trkpt>
      <trkpt lat="42.63977" lon="1.71086">
        <ele>1880.96</ele>
        <time>2022-07-20T10:07:55Z</time>
      </trkpt>
      <trkpt lat="42.63981" lon="1.71102">
        <ele>1882.88</ele>
        <time>2022-07-20T10:08:10Z</time>
      </trkpt>
      <trkpt lat="42.6398" lon="1.7112">
        <ele>1884.8</ele>
        <time>2022-07-20T10:08:25Z</time>
      </trkpt>
      <trkpt lat="42.63982" lon="1.71133">
        <ele>1886.72</ele>
        <time>2022-07-20T10:08:39Z</time>
      </trkpt>
      <trkpt lat="42.63985" lon="1.71146">
        <ele>1887.21</ele>
        <time>2022-07-20T10:08:54Z</time>
      </trkpt>
      <trkpt lat="42.63985" lon="1.7116">
        <ele>1887.21</ele>
        <time>2022-07-20T10:09:08Z</time>
      </trkpt>
      <trkpt lat="42.63986" lon="1.71177">
        <ele>1887.69</ele>
        <time>2022-07-20T10:09:24Z</time>
      </trkpt>
      <trkpt lat="42.63978" lon="1.71181">
        <ele>1888.65</ele>
        <time>2022-07-20T10:09:40Z</time>
      </trkpt>
      <trkpt lat="42.63974" lon="1.71181">
        <ele>1888.17</ele>
        <time>2022-07-20T10:09:53Z</time>
      </trkpt>
      <trkpt lat="42.63971" lon="1.71181">
        <ele>1887.21</ele>
        <time>2022-07-20T10:10:21Z</time>
      </trkpt>
      <trkpt lat="42.63972" lon="1.7118">
        <ele>1887.21</ele>
        <time>2022-07-20T10:10:45Z</time>
      </trkpt>
      <trkpt lat="42.6397" lon="1.71177">
        <ele>1888.17</ele>
        <time>2022-07-20T10:10:59Z</time>
      </trkpt>
      <trkpt lat="42.63967" lon="1.71163">
        <ele>1888.17</ele>
        <time>2022-07-20T10:11:12Z</time>
      </trkpt>
      <trkpt lat="42.63964" lon="1.71148">
        <ele>1886.72</ele>
        <time>2022-07-20T10:11:29Z</time>
      </trkpt>
      <trkpt lat="42.63963" lon="1.71146">
        <ele>1886.72</ele>
        <time>2022-07-20T10:11:31Z</time>
      </trkpt>
      <trkpt lat="42.63951" lon="1.7114">
        <ele>1886.24</ele>
        <time>2022-07-20T10:11:46Z</time>
      </trkpt>
      <trkpt lat="42.63943" lon="1.71134">
        <ele>1886.24</ele>
        <time>2022-07-20T10:11:58Z</time>
      </trkpt>
      <trkpt lat="42.63934" lon="1.71135">
        <ele>1886.24</ele>
        <time>2022-07-20T10:12:10Z</time>
      </trkpt>
      <trkpt lat="42.63926" lon="1.7113">
        <ele>1887.69</ele>
        <time>2022-07-20T10:12:23Z</time>
      </trkpt>
      <trkpt lat="42.63919" lon="1.71121">
        <ele>1889.13</ele>
        <time>2022-07-20T10:12:37Z</time>
      </trkpt>
      <trkpt lat="42.6392" lon="1.71115">
        <ele>1889.61</ele>
        <time>2022-07-20T10:12:45Z</time>
      </trkpt>
      <trkpt lat="42.63914" lon="1.71104">
        <ele>1889.61</ele>
        <time>2022-07-20T10:12:59Z</time>
      </trkpt>
      <trkpt lat="42.63909" lon="1.711">
        <ele>1889.61</ele>
        <time>2022-07-20T10:13:18Z</time>
      </trkpt>
      <trkpt lat="42.639" lon="1.71097">
        <ele>1890.57</ele>
        <time>2022-07-20T10:13:31Z</time>
      </trkpt>
      <trkpt lat="42.63891" lon="1.71093">
        <ele>1891.53</ele>
        <time>2022-07-20T10:13:45Z</time>
      </trkpt>
      <trkpt lat="42.6389" lon="1.71086">
        <ele>1891.53</ele>
        <time>2022-07-20T10:13:56Z</time>
      </trkpt>
      <trkpt lat="42.63886" lon="1.71085">
        <ele>1891.53</ele>
        <time>2022-07-20T10:14:10Z</time>
      </trkpt>
      <trkpt lat="42.63881" lon="1.71087">
        <ele>1892.01</ele>
        <time>2022-07-20T10:14:22Z</time>
      </trkpt>
      <trkpt lat="42.63876" lon="1.71086">
        <ele>1892.49</ele>
        <time>2022-07-20T10:14:35Z</time>
      </trkpt>
      <trkpt lat="42.63874" lon="1.7108">
        <ele>1892.49</ele>
        <time>2022-07-20T10:14:46Z</time>
      </trkpt>
      <trkpt lat="42.63869" lon="1.71077">
        <ele>1893.45</ele>
        <time>2022-07-20T10:15:00Z</time>
      </trkpt>
      <trkpt lat="42.63864" lon="1.71073">
        <ele>1894.9</ele>
        <time>2022-07-20T10:15:13Z</time>
      </trkpt>
      <trkpt lat="42.63859" lon="1.71071">
        <ele>1895.86</ele>
        <time>2022-07-20T10:15:24Z</time>
      </trkpt>
      <trkpt lat="42.63854" lon="1.71075">
        <ele>1896.34</ele>
        <time>2022-07-20T10:15:37Z</time>
      </trkpt>
      <trkpt lat="42.63847" lon="1.71078">
        <ele>1896.34</ele>
        <time>2022-07-20T10:15:49Z</time>
      </trkpt>
      <trkpt lat="42.63843" lon="1.71076">
        <ele>1896.82</ele>
        <time>2022-07-20T10:16:02Z</time>
      </trkpt>
      <trkpt lat="42.6384" lon="1.71068">
        <ele>1897.78</ele>
        <time>2022-07-20T10:16:14Z</time>
      </trkpt>
      <trkpt lat="42.63836" lon="1.71068">
        <ele>1899.7</ele>
        <time>2022-07-20T10:16:27Z</time>
      </trkpt>
      <trkpt lat="42.63832" lon="1.71062">
        <ele>1900.66</ele>
        <time>2022-07-20T10:16:43Z</time>
      </trkpt>
      <trkpt lat="42.63829" lon="1.71057">
        <ele>1902.59</ele>
        <time>2022-07-20T10:16:57Z</time>
      </trkpt>
      <trkpt lat="42.63826" lon="1.71049">
        <ele>1904.51</ele>
        <time>2022-07-20T10:17:10Z</time>
      </trkpt>
      <trkpt lat="42.63824" lon="1.71044">
        <ele>1905.47</ele>
        <time>2022-07-20T10:17:22Z</time>
      </trkpt>
      <trkpt lat="42.63823" lon="1.71041">
        <ele>1906.43</ele>
        <time>2022-07-20T10:17:35Z</time>
      </trkpt>
      <trkpt lat="42.63825" lon="1.71042">
        <ele>1906.43</ele>
        <time>2022-07-20T10:17:53Z</time>
      </trkpt>
      <trkpt lat="42.63825" lon="1.71041">
        <ele>1906.43</ele>
        <time>2022-07-20T10:18:07Z</time>
      </trkpt>
      <trkpt lat="42.63826" lon="1.71041">
        <ele>1906.43</ele>
        <time>2022-07-20T10:18:32Z</time>
      </trkpt>
      <trkpt lat="42.63824" lon="1.71041">
        <ele>1906.43</ele>
        <time>2022-07-20T10:18:53Z</time>
      </trkpt>
      <trkpt lat="42.63824" lon="1.71041">
        <ele>1906.91</ele>
        <time>2022-07-20T10:19:11Z</time>
      </trkpt>
      <trkpt lat="42.63824" lon="1.71042">
        <ele>1906.91</ele>
        <time>2022-07-20T10:19:35Z</time>
      </trkpt>
      <trkpt lat="42.63823" lon="1.71043">
        <ele>1906.91</ele>
        <time>2022-07-20T10:19:48Z</time>
      </trkpt>
      <trkpt lat="42.63821" lon="1.71039">
        <ele>1907.87</ele>
        <time>2022-07-20T10:20:05Z</time>
      </trkpt>
      <trkpt lat="42.63819" lon="1.7103">
        <ele>1909.8</ele>
        <time>2022-07-20T10:20:17Z</time>
      </trkpt>
      <trkpt lat="42.63813" lon="1.71029">
        <ele>1911.72</ele>
        <time>2022-07-20T10:20:30Z</time>
      </trkpt>
      <trkpt lat="42.63807" lon="1.71035">
        <ele>1913.64</ele>
        <time>2022-07-20T10:20:44Z</time>
      </trkpt>
      <trkpt lat="42.63802" lon="1.71038">
        <ele>1915.08</ele>
        <time>2022-07-20T10:20:58Z</time>
      </trkpt>
      <trkpt lat="42.63801" lon="1.71046">
        <ele>1917.01</ele>
        <time>2022-07-20T10:21:11Z</time>
      </trkpt>
      <trkpt lat="42.63802" lon="1.71051">
        <ele>1917.49</ele>
        <time>2022-07-20T10:21:23Z</time>
      </trkpt>
      <trkpt lat="42.63804" lon="1.71057">
        <ele>1918.45</ele>
        <time>2022-07-20T10:21:36Z</time>
      </trkpt>
      <trkpt lat="42.63802" lon="1.71057">
        <ele>1918.45</ele>
        <time>2022-07-20T10:21:55Z</time>
      </trkpt>
      <trkpt lat="42.63799" lon="1.71065">
        <ele>1920.37</ele>
        <time>2022-07-20T10:22:07Z</time>
      </trkpt>
      <trkpt lat="42.63796" lon="1.71074">
        <ele>1922.29</ele>
        <time>2022-07-20T10:22:22Z</time>
      </trkpt>
      <trkpt lat="42.63792" lon="1.71079">
        <ele>1924.7</ele>
        <time>2022-07-20T10:22:37Z</time>
      </trkpt>
      <trkpt lat="42.63789" lon="1.71083">
        <ele>1926.14</ele>
        <time>2022-07-20T10:22:51Z</time>
      </trkpt>
      <trkpt lat="42.63785" lon="1.71087">
        <ele>1927.1</ele>
        <time>2022-07-20T10:23:05Z</time>
      </trkpt>
      <trkpt lat="42.6378" lon="1.71095">
        <ele>1929.02</ele>
        <time>2022-07-20T10:23:20Z</time>
      </trkpt>
      <trkpt lat="42.63777" lon="1.71105">
        <ele>1931.43</ele>
        <time>2022-07-20T10:23:34Z</time>
      </trkpt>
      <trkpt lat="42.63776" lon="1.7111">
        <ele>1932.39</ele>
        <time>2022-07-20T10:23:45Z</time>
      </trkpt>
      <trkpt lat="42.63774" lon="1.71118">
        <ele>1934.31</ele>
        <time>2022-07-20T10:23:58Z</time>
      </trkpt>
      <trkpt lat="42.63773" lon="1.7112">
        <ele>1935.27</ele>
        <time>2022-07-20T10:24:11Z</time>
      </trkpt>
      <trkpt lat="42.63773" lon="1.71117">
        <ele>1935.27</ele>
        <time>2022-07-20T10:24:31Z</time>
      </trkpt>
      <trkpt lat="42.63772" lon="1.71118">
        <ele>1935.27</ele>
        <time>2022-07-20T10:24:44Z</time>
      </trkpt>
      <trkpt lat="42.63772" lon="1.71118">
        <ele>1935.27</ele>
        <time>2022-07-20T10:25:05Z</time>
      </trkpt>
      <trkpt lat="42.63769" lon="1.71119">
        <ele>1935.27</ele>
        <time>2022-07-20T10:25:24Z</time>
      </trkpt>
      <trkpt lat="42.63771" lon="1.71121">
        <ele>1935.75</ele>
        <time>2022-07-20T10:25:44Z</time>
      </trkpt>
      <trkpt lat="42.63771" lon="1.71122">
        <ele>1935.75</ele>
        <time>2022-07-20T10:25:58Z</time>
      </trkpt>
      <trkpt lat="42.6377" lon="1.71122">
        <ele>1936.23</ele>
        <time>2022-07-20T10:26:13Z</time>
      </trkpt>
      <trkpt lat="42.63766" lon="1.71122">
        <ele>1936.71</ele>
        <time>2022-07-20T10:26:29Z</time>
      </trkpt>
      <trkpt lat="42.63767" lon="1.71126">
        <ele>1937.67</ele>
        <time>2022-07-20T10:26:43Z</time>
      </trkpt>
      <trkpt lat="42.63766" lon="1.71124">
        <ele>1937.67</ele>
        <time>2022-07-20T10:27:04Z</time>
      </trkpt>
      <trkpt lat="42.63765" lon="1.71128">
        <ele>1938.16</ele>
        <time>2022-07-20T10:27:23Z</time>
      </trkpt>
      <trkpt lat="42.63762" lon="1.71134">
        <ele>1940.08</ele>
        <time>2022-07-20T10:27:37Z</time>
      </trkpt>
      <trkpt lat="42.63756" lon="1.71134">
        <ele>1942</ele>
        <time>2022-07-20T10:27:52Z</time>
      </trkpt>
      <trkpt lat="42.63751" lon="1.71136">
        <ele>1942.96</ele>
        <time>2022-07-20T10:28:06Z</time>
      </trkpt>
      <trkpt lat="42.63749" lon="1.71145">
        <ele>1945.36</ele>
        <time>2022-07-20T10:28:22Z</time>
      </trkpt>
      <trkpt lat="42.63749" lon="1.71148">
        <ele>1946.33</ele>
        <time>2022-07-20T10:28:34Z</time>
      </trkpt>
      <trkpt lat="42.63747" lon="1.71156">
        <ele>1948.25</ele>
        <time>2022-07-20T10:28:52Z</time>
      </trkpt>
      <trkpt lat="42.63744" lon="1.7116">
        <ele>1950.17</ele>
        <time>2022-07-20T10:29:09Z</time>
      </trkpt>
      <trkpt lat="42.63744" lon="1.7117">
        <ele>1952.57</ele>
        <time>2022-07-20T10:29:22Z</time>
      </trkpt>
      <trkpt lat="42.6374" lon="1.71173">
        <ele>1953.54</ele>
        <time>2022-07-20T10:29:34Z</time>
      </trkpt>
      <trkpt lat="42.63738" lon="1.71177">
        <ele>1954.98</ele>
        <time>2022-07-20T10:29:47Z</time>
      </trkpt>
      <trkpt lat="42.63735" lon="1.71181">
        <ele>1956.9</ele>
        <time>2022-07-20T10:30:04Z</time>
      </trkpt>
      <trkpt lat="42.63731" lon="1.71179">
        <ele>1958.34</ele>
        <time>2022-07-20T10:30:17Z</time>
      </trkpt>
      <trkpt lat="42.63724" lon="1.71183">
        <ele>1960.27</ele>
        <time>2022-07-20T10:30:31Z</time>
      </trkpt>
      <trkpt lat="42.6372" lon="1.71191">
        <ele>1962.19</ele>
        <time>2022-07-20T10:30:46Z</time>
      </trkpt>
      <trkpt lat="42.63715" lon="1.71193">
        <ele>1963.15</ele>
        <time>2022-07-20T10:30:59Z</time>
      </trkpt>
      <trkpt lat="42.63713" lon="1.71194">
        <ele>1964.11</ele>
        <time>2022-07-20T10:31:13Z</time>
      </trkpt>
      <trkpt lat="42.63708" lon="1.71201">
        <ele>1965.55</ele>
        <time>2022-07-20T10:31:25Z</time>
      </trkpt>
      <trkpt lat="42.63702" lon="1.71202">
        <ele>1966.99</ele>
        <time>2022-07-20T10:31:38Z</time>
      </trkpt>
      <trkpt lat="42.63698" lon="1.71209">
        <ele>1968.92</ele>
        <time>2022-07-20T10:31:51Z</time>
      </trkpt>
      <trkpt lat="42.63695" lon="1.71214">
        <ele>1970.36</ele>
        <time>2022-07-20T10:32:03Z</time>
      </trkpt>
      <trkpt lat="42.63689" lon="1.71212">
        <ele>1971.8</ele>
        <time>2022-07-20T10:32:17Z</time>
      </trkpt>
      <trkpt lat="42.63682" lon="1.71215">
        <ele>1973.72</ele>
        <time>2022-07-20T10:32:31Z</time>
      </trkpt>
      <trkpt lat="42.63676" lon="1.71218">
        <ele>1975.17</ele>
        <time>2022-07-20T10:32:46Z</time>
      </trkpt>
      <trkpt lat="42.63673" lon="1.71219">
        <ele>1976.13</ele>
        <time>2022-07-20T10:32:59Z</time>
      </trkpt>
      <trkpt lat="42.63669" lon="1.71218">
        <ele>1977.09</ele>
        <time>2022-07-20T10:33:14Z</time>
      </trkpt>
      <trkpt lat="42.63667" lon="1.7122">
        <ele>1978.05</ele>
        <time>2022-07-20T10:33:27Z</time>
      </trkpt>
      <trkpt lat="42.63668" lon="1.71223">
        <ele>1978.05</ele>
        <time>2022-07-20T10:33:48Z</time>
      </trkpt>
      <trkpt lat="42.63665" lon="1.71223">
        <ele>1978.53</ele>
        <time>2022-07-20T10:34:22Z</time>
      </trkpt>
      <trkpt lat="42.63667" lon="1.71221">
        <ele>1978.53</ele>
        <time>2022-07-20T10:34:47Z</time>
      </trkpt>
      <trkpt lat="42.63664" lon="1.71228">
        <ele>1979.97</ele>
        <time>2022-07-20T10:34:59Z</time>
      </trkpt>
      <trkpt lat="42.63659" lon="1.71232">
        <ele>1981.9</ele>
        <time>2022-07-20T10:35:13Z</time>
      </trkpt>
      <trkpt lat="42.63656" lon="1.71233">
        <ele>1983.82</ele>
        <time>2022-07-20T10:35:31Z</time>
      </trkpt>
      <trkpt lat="42.63656" lon="1.71234">
        <ele>1984.3</ele>
        <time>2022-07-20T10:35:54Z</time>
      </trkpt>
      <trkpt lat="42.63653" lon="1.71234">
        <ele>1984.3</ele>
        <time>2022-07-20T10:36:24Z</time>
      </trkpt>
      <trkpt lat="42.63646" lon="1.71236">
        <ele>1985.74</ele>
        <time>2022-07-20T10:36:39Z</time>
      </trkpt>
      <trkpt lat="42.63642" lon="1.71245">
        <ele>1987.66</ele>
        <time>2022-07-20T10:36:52Z</time>
      </trkpt>
      <trkpt lat="42.63639" lon="1.7125">
        <ele>1989.1</ele>
        <time>2022-07-20T10:37:05Z</time>
      </trkpt>
      <trkpt lat="42.63639" lon="1.71255">
        <ele>1991.03</ele>
        <time>2022-07-20T10:37:18Z</time>
      </trkpt>
      <trkpt lat="42.63636" lon="1.71257">
        <ele>1992.47</ele>
        <time>2022-07-20T10:37:31Z</time>
      </trkpt>
      <trkpt lat="42.63634" lon="1.71261">
        <ele>1994.39</ele>
        <time>2022-07-20T10:37:46Z</time>
      </trkpt>
      <trkpt lat="42.63632" lon="1.71265">
        <ele>1995.35</ele>
        <time>2022-07-20T10:38:00Z</time>
      </trkpt>
      <trkpt lat="42.63629" lon="1.7127">
        <ele>1996.32</ele>
        <time>2022-07-20T10:38:13Z</time>
      </trkpt>
      <trkpt lat="42.63626" lon="1.71274">
        <ele>1998.24</ele>
        <time>2022-07-20T10:38:29Z</time>
      </trkpt>
      <trkpt lat="42.63623" lon="1.71277">
        <ele>1999.2</ele>
        <time>2022-07-20T10:38:42Z</time>
      </trkpt>
      <trkpt lat="42.63619" lon="1.71283">
        <ele>2001.12</ele>
        <time>2022-07-20T10:38:56Z</time>
      </trkpt>
      <trkpt lat="42.63617" lon="1.71288">
        <ele>2002.56</ele>
        <time>2022-07-20T10:39:08Z</time>
      </trkpt>
      <trkpt lat="42.63617" lon="1.71294">
        <ele>2004.01</ele>
        <time>2022-07-20T10:39:21Z</time>
      </trkpt>
      <trkpt lat="42.63615" lon="1.71301">
        <ele>2005.93</ele>
        <time>2022-07-20T10:39:37Z</time>
      </trkpt>
      <trkpt lat="42.63611" lon="1.71305">
        <ele>2007.37</ele>
        <time>2022-07-20T10:39:50Z</time>
      </trkpt>
      <trkpt lat="42.6361" lon="1.71314">
        <ele>2008.33</ele>
        <time>2022-07-20T10:40:06Z</time>
      </trkpt>
      <trkpt lat="42.63607" lon="1.71313">
        <ele>2010.25</ele>
        <time>2022-07-20T10:40:19Z</time>
      </trkpt>
      <trkpt lat="42.63606" lon="1.71317">
        <ele>2011.22</ele>
        <time>2022-07-20T10:40:34Z</time>
      </trkpt>
      <trkpt lat="42.63607" lon="1.71323">
        <ele>2012.66</ele>
        <time>2022-07-20T10:40:46Z</time>
      </trkpt>
      <trkpt lat="42.63608" lon="1.71325">
        <ele>2012.66</ele>
        <time>2022-07-20T10:41:01Z</time>
      </trkpt>
      <trkpt lat="42.63608" lon="1.71326">
        <ele>2013.14</ele>
        <time>2022-07-20T10:41:22Z</time>
      </trkpt>
      <trkpt lat="42.63608" lon="1.71325">
        <ele>2013.14</ele>
        <time>2022-07-20T10:41:49Z</time>
      </trkpt>
      <trkpt lat="42.63607" lon="1.71324">
        <ele>2013.14</ele>
        <time>2022-07-20T10:42:20Z</time>
      </trkpt>
      <trkpt lat="42.63607" lon="1.71326">
        <ele>2013.14</ele>
        <time>2022-07-20T10:42:50Z</time>
      </trkpt>
      <trkpt lat="42.63608" lon="1.71324">
        <ele>2013.14</ele>
        <time>2022-07-20T10:43:13Z</time>
      </trkpt>
      <trkpt lat="42.63607" lon="1.71326">
        <ele>2013.62</ele>
        <time>2022-07-20T10:43:32Z</time>
      </trkpt>
      <trkpt lat="42.63608" lon="1.7133">
        <ele>2013.62</ele>
        <time>2022-07-20T10:43:49Z</time>
      </trkpt>
      <trkpt lat="42.63609" lon="1.71328">
        <ele>2013.62</ele>
        <time>2022-07-20T10:44:09Z</time>
      </trkpt>
      <trkpt lat="42.63605" lon="1.71329">
        <ele>2014.1</ele>
        <time>2022-07-20T10:44:24Z</time>
      </trkpt>
      <trkpt lat="42.63605" lon="1.71326">
        <ele>2014.58</ele>
        <time>2022-07-20T10:44:40Z</time>
      </trkpt>
      <trkpt lat="42.63605" lon="1.7133">
        <ele>2014.58</ele>
        <time>2022-07-20T10:44:57Z</time>
      </trkpt>
      <trkpt lat="42.63605" lon="1.71335">
        <ele>2015.54</ele>
        <time>2022-07-20T10:45:11Z</time>
      </trkpt>
      <trkpt lat="42.63603" lon="1.71337">
        <ele>2016.02</ele>
        <time>2022-07-20T10:45:27Z</time>
      </trkpt>
      <trkpt lat="42.63603" lon="1.71336">
        <ele>2016.5</ele>
        <time>2022-07-20T10:45:46Z</time>
      </trkpt>
      <trkpt lat="42.63603" lon="1.71336">
        <ele>2016.5</ele>
        <time>2022-07-20T10:46:06Z</time>
      </trkpt>
      <trkpt lat="42.63602" lon="1.71337">
        <ele>2016.5</ele>
        <time>2022-07-20T10:46:25Z</time>
      </trkpt>
      <trkpt lat="42.63603" lon="1.71339">
        <ele>2016.5</ele>
        <time>2022-07-20T10:46:49Z</time>
      </trkpt>
      <trkpt lat="42.63604" lon="1.71338">
        <ele>2016.5</ele>
        <time>2022-07-20T10:47:09Z</time>
      </trkpt>
      <trkpt lat="42.63599" lon="1.71341">
        <ele>2016.98</ele>
        <time>2022-07-20T10:47:22Z</time>
      </trkpt>
      <trkpt lat="42.63597" lon="1.7134">
        <ele>2017.46</ele>
        <time>2022-07-20T10:47:37Z</time>
      </trkpt>
      <trkpt lat="42.63596" lon="1.71346">
        <ele>2018.91</ele>
        <time>2022-07-20T10:47:52Z</time>
      </trkpt>
      <trkpt lat="42.63593" lon="1.71351">
        <ele>2020.35</ele>
        <time>2022-07-20T10:48:03Z</time>
      </trkpt>
      <trkpt lat="42.63589" lon="1.71355">
        <ele>2022.75</ele>
        <time>2022-07-20T10:48:15Z</time>
      </trkpt>
      <trkpt lat="42.63585" lon="1.71358">
        <ele>2023.71</ele>
        <time>2022-07-20T10:48:29Z</time>
      </trkpt>
      <trkpt lat="42.63581" lon="1.71361">
        <ele>2025.64</ele>
        <time>2022-07-20T10:48:42Z</time>
      </trkpt>
      <trkpt lat="42.63581" lon="1.71366">
        <ele>2027.56</ele>
        <time>2022-07-20T10:48:56Z</time>
      </trkpt>
      <trkpt lat="42.63578" lon="1.7137">
        <ele>2029.48</ele>
        <time>2022-07-20T10:49:10Z</time>
      </trkpt>
      <trkpt lat="42.63574" lon="1.71374">
        <ele>2030.92</ele>
        <time>2022-07-20T10:49:23Z</time>
      </trkpt>
      <trkpt lat="42.63572" lon="1.71378">
        <ele>2032.36</ele>
        <time>2022-07-20T10:49:36Z</time>
      </trkpt>
      <trkpt lat="42.6357" lon="1.71382">
        <ele>2033.33</ele>
        <time>2022-07-20T10:49:48Z</time>
      </trkpt>
      <trkpt lat="42.63568" lon="1.71391">
        <ele>2034.29</ele>
        <time>2022-07-20T10:50:00Z</time>
      </trkpt>
      <trkpt lat="42.63564" lon="1.71393">
        <ele>2035.73</ele>
        <time>2022-07-20T10:50:11Z</time>
      </trkpt>
      <trkpt lat="42.63559" lon="1.71397">
        <ele>2036.21</ele>
        <time>2022-07-20T10:50:26Z</time>
      </trkpt>
      <trkpt lat="42.63553" lon="1.71406">
        <ele>2037.65</ele>
        <time>2022-07-20T10:50:41Z</time>
      </trkpt>
      <trkpt lat="42.63554" lon="1.71406">
        <ele>2038.13</ele>
        <time>2022-07-20T10:50:57Z</time>
      </trkpt>
      <trkpt lat="42.63555" lon="1.71408">
        <ele>2038.13</ele>
        <time>2022-07-20T10:51:25Z</time>
      </trkpt>
      <trkpt lat="42.63556" lon="1.71409">
        <ele>2038.13</ele>
        <time>2022-07-20T10:51:54Z</time>
      </trkpt>
      <trkpt lat="42.63556" lon="1.71407">
        <ele>2038.13</ele>
        <time>2022-07-20T10:52:21Z</time>
      </trkpt>
      <trkpt lat="42.63555" lon="1.7141">
        <ele>2038.61</ele>
        <time>2022-07-20T10:52:51Z</time>
      </trkpt>
      <trkpt lat="42.63555" lon="1.7141">
        <ele>2039.09</ele>
        <time>2022-07-20T10:53:15Z</time>
      </trkpt>
      <trkpt lat="42.63554" lon="1.71409">
        <ele>2039.09</ele>
        <time>2022-07-20T10:53:36Z</time>
      </trkpt>
      <trkpt lat="42.63554" lon="1.71407">
        <ele>2039.09</ele>
        <time>2022-07-20T10:54:00Z</time>
      </trkpt>
      <trkpt lat="42.63557" lon="1.71408">
        <ele>2039.09</ele>
        <time>2022-07-20T10:54:35Z</time>
      </trkpt>
      <trkpt lat="42.63554" lon="1.71409">
        <ele>2039.57</ele>
        <time>2022-07-20T10:55:07Z</time>
      </trkpt>
      <trkpt lat="42.63554" lon="1.71408">
        <ele>2038.13</ele>
        <time>2022-07-20T10:55:27Z</time>
      </trkpt>
      <trkpt lat="42.63549" lon="1.71415">
        <ele>2039.57</ele>
        <time>2022-07-20T10:55:42Z</time>
      </trkpt>
      <trkpt lat="42.63542" lon="1.71423">
        <ele>2041.98</ele>
        <time>2022-07-20T10:55:58Z</time>
      </trkpt>
      <trkpt lat="42.63535" lon="1.71426">
        <ele>2043.9</ele>
        <time>2022-07-20T10:56:12Z</time>
      </trkpt>
      <trkpt lat="42.63529" lon="1.7143">
        <ele>2045.34</ele>
        <time>2022-07-20T10:56:26Z</time>
      </trkpt>
      <trkpt lat="42.63527" lon="1.71428">
        <ele>2047.26</ele>
        <time>2022-07-20T10:56:36Z</time>
      </trkpt>
      <trkpt lat="42.63522" lon="1.71427">
        <ele>2048.71</ele>
        <time>2022-07-20T10:56:50Z</time>
      </trkpt>
      <trkpt lat="42.63522" lon="1.71433">
        <ele>2050.15</ele>
        <time>2022-07-20T10:57:04Z</time>
      </trkpt>
      <trkpt lat="42.63519" lon="1.71434">
        <ele>2051.11</ele>
        <time>2022-07-20T10:57:20Z</time>
      </trkpt>
      <trkpt lat="42.63516" lon="1.71438">
        <ele>2053.51</ele>
        <time>2022-07-20T10:57:34Z</time>
      </trkpt>
      <trkpt lat="42.63511" lon="1.71441">
        <ele>2054.96</ele>
        <time>2022-07-20T10:57:49Z</time>
      </trkpt>
      <trkpt lat="42.6351" lon="1.7144">
        <ele>2055.44</ele>
        <time>2022-07-20T10:58:09Z</time>
      </trkpt>
      <trkpt lat="42.63507" lon="1.71441">
        <ele>2056.88</ele>
        <time>2022-07-20T10:58:24Z</time>
      </trkpt>
      <trkpt lat="42.63506" lon="1.71445">
        <ele>2058.32</ele>
        <time>2022-07-20T10:58:38Z</time>
      </trkpt>
      <trkpt lat="42.63503" lon="1.71445">
        <ele>2059.76</ele>
        <time>2022-07-20T10:58:53Z</time>
      </trkpt>
      <trkpt lat="42.635" lon="1.71446">
        <ele>2061.2</ele>
        <time>2022-07-20T10:59:07Z</time>
      </trkpt>
      <trkpt lat="42.63496" lon="1.71448">
        <ele>2062.65</ele>
        <time>2022-07-20T10:59:21Z</time>
      </trkpt>
      <trkpt lat="42.63494" lon="1.71449">
        <ele>2064.57</ele>
        <time>2022-07-20T10:59:37Z</time>
      </trkpt>
      <trkpt lat="42.63491" lon="1.71451">
        <ele>2066.01</ele>
        <time>2022-07-20T10:59:50Z</time>
      </trkpt>
      <trkpt lat="42.6349" lon="1.71455">
        <ele>2068.41</ele>
        <time>2022-07-20T11:00:05Z</time>
      </trkpt>
      <trkpt lat="42.63488" lon="1.71458">
        <ele>2069.86</ele>
        <time>2022-07-20T11:00:19Z</time>
      </trkpt>
      <trkpt lat="42.63484" lon="1.71461">
        <ele>2069.86</ele>
        <time>2022-07-20T11:00:36Z</time>
      </trkpt>
      <trkpt lat="42.63484" lon="1.7146">
        <ele>2070.82</ele>
        <time>2022-07-20T11:00:52Z</time>
      </trkpt>
      <trkpt lat="42.63479" lon="1.71456">
        <ele>2070.82</ele>
        <time>2022-07-20T11:01:10Z</time>
      </trkpt>
      <trkpt lat="42.63479" lon="1.71459">
        <ele>2071.3</ele>
        <time>2022-07-20T11:01:27Z</time>
      </trkpt>
      <trkpt lat="42.6348" lon="1.71458">
        <ele>2072.74</ele>
        <time>2022-07-20T11:01:33Z</time>
      </trkpt>
      <trkpt lat="42.63479" lon="1.71458">
        <ele>2071.3</ele>
        <time>2022-07-20T11:01:35Z</time>
      </trkpt>
      <trkpt lat="42.63471" lon="1.71457">
        <ele>2072.74</ele>
        <time>2022-07-20T11:01:46Z</time>
      </trkpt>
      <trkpt lat="42.63464" lon="1.7146">
        <ele>2073.22</ele>
        <time>2022-07-20T11:02:00Z</time>
      </trkpt>
      <trkpt lat="42.63458" lon="1.71464">
        <ele>2073.7</ele>
        <time>2022-07-20T11:02:15Z</time>
      </trkpt>
      <trkpt lat="42.63455" lon="1.71466">
        <ele>2073.7</ele>
        <time>2022-07-20T11:02:35Z</time>
      </trkpt>
      <trkpt lat="42.63442" lon="1.7147">
        <ele>2076.1</ele>
        <time>2022-07-20T11:02:51Z</time>
      </trkpt>
      <trkpt lat="42.63427" lon="1.71481">
        <ele>2077.07</ele>
        <time>2022-07-20T11:03:09Z</time>
      </trkpt>
      <trkpt lat="42.63417" lon="1.71489">
        <ele>2079.47</ele>
        <time>2022-07-20T11:03:24Z</time>
      </trkpt>
      <trkpt lat="42.6341" lon="1.71491">
        <ele>2080.91</ele>
        <time>2022-07-20T11:03:37Z</time>
      </trkpt>
      <trkpt lat="42.63401" lon="1.71492">
        <ele>2080.91</ele>
        <time>2022-07-20T11:03:54Z</time>
      </trkpt>
      <trkpt lat="42.634" lon="1.71492">
        <ele>2081.39</ele>
        <time>2022-07-20T11:04:17Z</time>
      </trkpt>
      <trkpt lat="42.63394" lon="1.71487">
        <ele>2081.87</ele>
        <time>2022-07-20T11:04:31Z</time>
      </trkpt>
      <trkpt lat="42.63388" lon="1.71479">
        <ele>2083.31</ele>
        <time>2022-07-20T11:04:40Z</time>
      </trkpt>
      <trkpt lat="42.63376" lon="1.71474">
        <ele>2084.28</ele>
        <time>2022-07-20T11:04:56Z</time>
      </trkpt>
      <trkpt lat="42.63361" lon="1.71476">
        <ele>2086.2</ele>
        <time>2022-07-20T11:05:13Z</time>
      </trkpt>
      <trkpt lat="42.63349" lon="1.71484">
        <ele>2087.64</ele>
        <time>2022-07-20T11:05:30Z</time>
      </trkpt>
      <trkpt lat="42.63343" lon="1.71488">
        <ele>2089.56</ele>
        <time>2022-07-20T11:05:44Z</time>
      </trkpt>
      <trkpt lat="42.6334" lon="1.71491">
        <ele>2091.49</ele>
        <time>2022-07-20T11:06:00Z</time>
      </trkpt>
      <trkpt lat="42.63336" lon="1.71495">
        <ele>2092.93</ele>
        <time>2022-07-20T11:06:16Z</time>
      </trkpt>
      <trkpt lat="42.63336" lon="1.715">
        <ele>2094.37</ele>
        <time>2022-07-20T11:06:42Z</time>
      </trkpt>
      <trkpt lat="42.63335" lon="1.71502">
        <ele>2094.37</ele>
        <time>2022-07-20T11:07:06Z</time>
      </trkpt>
      <trkpt lat="42.63337" lon="1.71503">
        <ele>2094.85</ele>
        <time>2022-07-20T11:07:32Z</time>
      </trkpt>
      <trkpt lat="42.63336" lon="1.71501">
        <ele>2094.85</ele>
        <time>2022-07-20T11:08:01Z</time>
      </trkpt>
      <trkpt lat="42.63335" lon="1.71499">
        <ele>2095.81</ele>
        <time>2022-07-20T11:08:23Z</time>
      </trkpt>
      <trkpt lat="42.63331" lon="1.71495">
        <ele>2096.77</ele>
        <time>2022-07-20T11:08:38Z</time>
      </trkpt>
      <trkpt lat="42.6333" lon="1.71492">
        <ele>2098.7</ele>
        <time>2022-07-20T11:08:55Z</time>
      </trkpt>
      <trkpt lat="42.6333" lon="1.71483">
        <ele>2101.1</ele>
        <time>2022-07-20T11:09:09Z</time>
      </trkpt>
      <trkpt lat="42.63326" lon="1.71483">
        <ele>2101.58</ele>
        <time>2022-07-20T11:09:20Z</time>
      </trkpt>
      <trkpt lat="42.63323" lon="1.71487">
        <ele>2103.02</ele>
        <time>2022-07-20T11:09:36Z</time>
      </trkpt>
      <trkpt lat="42.63324" lon="1.71489">
        <ele>2104.46</ele>
        <time>2022-07-20T11:09:57Z</time>
      </trkpt>
      <trkpt lat="42.63321" lon="1.7149">
        <ele>2104.94</ele>
        <time>2022-07-20T11:10:15Z</time>
      </trkpt>
      <trkpt lat="42.63315" lon="1.71492">
        <ele>2106.39</ele>
        <time>2022-07-20T11:10:30Z</time>
      </trkpt>
      <trkpt lat="42.6331" lon="1.71495">
        <ele>2108.79</ele>
        <time>2022-07-20T11:10:44Z</time>
      </trkpt>
      <trkpt lat="42.63302" lon="1.71497">
        <ele>2111.19</ele>
        <time>2022-07-20T11:11:00Z</time>
      </trkpt>
      <trkpt lat="42.63297" lon="1.715">
        <ele>2110.23</ele>
        <time>2022-07-20T11:11:15Z</time>
      </trkpt>
      <trkpt lat="42.63291" lon="1.71501">
        <ele>2111.19</ele>
        <time>2022-07-20T11:11:31Z</time>
      </trkpt>
      <trkpt lat="42.63287" lon="1.71504">
        <ele>2112.63</ele>
        <time>2022-07-20T11:11:42Z</time>
      </trkpt>
      <trkpt lat="42.63285" lon="1.71503">
        <ele>2113.6</ele>
        <time>2022-07-20T11:11:53Z</time>
      </trkpt>
      <trkpt lat="42.63283" lon="1.71505">
        <ele>2114.56</ele>
        <time>2022-07-20T11:12:06Z</time>
      </trkpt>
      <trkpt lat="42.63282" lon="1.71504">
        <ele>2115.04</ele>
        <time>2022-07-20T11:12:29Z</time>
      </trkpt>
      <trkpt lat="42.63279" lon="1.71497">
        <ele>2116</ele>
        <time>2022-07-20T11:12:42Z</time>
      </trkpt>
      <trkpt lat="42.63277" lon="1.71499">
        <ele>2116.96</ele>
        <time>2022-07-20T11:12:55Z</time>
      </trkpt>
      <trkpt lat="42.63272" lon="1.71497">
        <ele>2118.88</ele>
        <time>2022-07-20T11:13:10Z</time>
      </trkpt>
      <trkpt lat="42.63269" lon="1.71501">
        <ele>2119.84</ele>
        <time>2022-07-20T11:13:25Z</time>
      </trkpt>
      <trkpt lat="42.63266" lon="1.71503">
        <ele>2119.84</ele>
        <time>2022-07-20T11:13:42Z</time>
      </trkpt>
      <trkpt lat="42.63258" lon="1.71498">
        <ele>2120.32</ele>
        <time>2022-07-20T11:13:57Z</time>
      </trkpt>
      <trkpt lat="42.63251" lon="1.71495">
        <ele>2121.77</ele>
        <time>2022-07-20T11:14:12Z</time>
      </trkpt>
      <trkpt lat="42.63243" lon="1.71493">
        <ele>2122.73</ele>
        <time>2022-07-20T11:14:27Z</time>
      </trkpt>
      <trkpt lat="42.63234" lon="1.71488">
        <ele>2124.17</ele>
        <time>2022-07-20T11:14:42Z</time>
      </trkpt>
      <trkpt lat="42.63233" lon="1.7149">
        <ele>2124.65</ele>
        <time>2022-07-20T11:15:06Z</time>
      </trkpt>
      <trkpt lat="42.63233" lon="1.71491">
        <ele>2123.69</ele>
        <time>2022-07-20T11:15:11Z</time>
      </trkpt>
      <trkpt lat="42.63234" lon="1.71492">
        <ele>2123.21</ele>
        <time>2022-07-20T11:15:37Z</time>
      </trkpt>
      <trkpt lat="42.63235" lon="1.71489">
        <ele>2123.21</ele>
        <time>2022-07-20T11:16:00Z</time>
      </trkpt>
      <trkpt lat="42.63235" lon="1.71489">
        <ele>2125.13</ele>
        <time>2022-07-20T11:16:06Z</time>
      </trkpt>
      <trkpt lat="42.63234" lon="1.7149">
        <ele>2123.21</ele>
        <time>2022-07-20T11:16:09Z</time>
      </trkpt>
      <trkpt lat="42.63233" lon="1.71492">
        <ele>2123.69</ele>
        <time>2022-07-20T11:16:34Z</time>
      </trkpt>
      <trkpt lat="42.63227" lon="1.71485">
        <ele>2125.61</ele>
        <time>2022-07-20T11:16:49Z</time>
      </trkpt>
      <trkpt lat="42.63215" lon="1.71478">
        <ele>2126.09</ele>
        <time>2022-07-20T11:17:04Z</time>
      </trkpt>
      <trkpt lat="42.63206" lon="1.71469">
        <ele>2127.05</ele>
        <time>2022-07-20T11:17:18Z</time>
      </trkpt>
      <trkpt lat="42.63199" lon="1.71462">
        <ele>2128.5</ele>
        <time>2022-07-20T11:17:32Z</time>
      </trkpt>
      <trkpt lat="42.63191" lon="1.71452">
        <ele>2129.94</ele>
        <time>2022-07-20T11:17:47Z</time>
      </trkpt>
      <trkpt lat="42.63185" lon="1.71447">
        <ele>2130.9</ele>
        <time>2022-07-20T11:18:00Z</time>
      </trkpt>
      <trkpt lat="42.63179" lon="1.7144">
        <ele>2131.38</ele>
        <time>2022-07-20T11:18:13Z</time>
      </trkpt>
      <trkpt lat="42.63172" lon="1.71434">
        <ele>2132.34</ele>
        <time>2022-07-20T11:18:28Z</time>
      </trkpt>
      <trkpt lat="42.63165" lon="1.71422">
        <ele>2133.78</ele>
        <time>2022-07-20T11:18:42Z</time>
      </trkpt>
      <trkpt lat="42.63157" lon="1.71412">
        <ele>2135.23</ele>
        <time>2022-07-20T11:18:56Z</time>
      </trkpt>
      <trkpt lat="42.6315" lon="1.71401">
        <ele>2136.19</ele>
        <time>2022-07-20T11:19:11Z</time>
      </trkpt>
      <trkpt lat="42.63141" lon="1.71392">
        <ele>2136.19</ele>
        <time>2022-07-20T11:19:25Z</time>
      </trkpt>
      <trkpt lat="42.6313" lon="1.71384">
        <ele>2137.15</ele>
        <time>2022-07-20T11:19:40Z</time>
      </trkpt>
      <trkpt lat="42.63129" lon="1.71383">
        <ele>2137.15</ele>
        <time>2022-07-20T11:19:41Z</time>
      </trkpt>
      <trkpt lat="42.63124" lon="1.71377">
        <ele>2137.63</ele>
        <time>2022-07-20T11:19:55Z</time>
      </trkpt>
      <trkpt lat="42.63119" lon="1.71373">
        <ele>2139.55</ele>
        <time>2022-07-20T11:20:20Z</time>
      </trkpt>
      <trkpt lat="42.63108" lon="1.71364">
        <ele>2140.03</ele>
        <time>2022-07-20T11:20:34Z</time>
      </trkpt>
      <trkpt lat="42.63096" lon="1.71355">
        <ele>2140.99</ele>
        <time>2022-07-20T11:20:50Z</time>
      </trkpt>
      <trkpt lat="42.63083" lon="1.71346">
        <ele>2140.99</ele>
        <time>2022-07-20T11:21:06Z</time>
      </trkpt>
      <trkpt lat="42.63076" lon="1.71344">
        <ele>2141.47</ele>
        <time>2022-07-20T11:21:18Z</time>
      </trkpt>
      <trkpt lat="42.6307" lon="1.71331">
        <ele>2141.95</ele>
        <time>2022-07-20T11:21:30Z</time>
      </trkpt>
      <trkpt lat="42.63068" lon="1.71326">
        <ele>2140.51</ele>
        <time>2022-07-20T11:21:36Z</time>
      </trkpt>
      <trkpt lat="42.63066" lon="1.71318">
        <ele>2139.55</ele>
        <time>2022-07-20T11:21:51Z</time>
      </trkpt>
      <trkpt lat="42.63067" lon="1.71317">
        <ele>2140.51</ele>
        <time>2022-07-20T11:21:57Z</time>
      </trkpt>
      <trkpt lat="42.63059" lon="1.71292">
        <ele>2140.99</ele>
        <time>2022-07-20T11:22:16Z</time>
      </trkpt>
      <trkpt lat="42.63054" lon="1.71271">
        <ele>2141.95</ele>
        <time>2022-07-20T11:22:33Z</time>
      </trkpt>
      <trkpt lat="42.63057" lon="1.71259">
        <ele>2143.4</ele>
        <time>2022-07-20T11:22:46Z</time>
      </trkpt>
      <trkpt lat="42.6305" lon="1.71255">
        <ele>2143.88</ele>
        <time>2022-07-20T11:22:59Z</time>
      </trkpt>
      <trkpt lat="42.63049" lon="1.71255">
        <ele>2143.88</ele>
        <time>2022-07-20T11:23:00Z</time>
      </trkpt>
      <trkpt lat="42.63045" lon="1.71255">
        <ele>2144.36</ele>
        <time>2022-07-20T11:23:03Z</time>
      </trkpt>
      <trkpt lat="42.63025" lon="1.71239">
        <ele>2145.32</ele>
        <time>2022-07-20T11:23:25Z</time>
      </trkpt>
      <trkpt lat="42.63017" lon="1.71233">
        <ele>2147.72</ele>
        <time>2022-07-20T11:23:43Z</time>
      </trkpt>
      <trkpt lat="42.63017" lon="1.71234">
        <ele>2144.84</ele>
        <time>2022-07-20T11:23:52Z</time>
      </trkpt>
      <trkpt lat="42.63017" lon="1.71234">
        <ele>2146.76</ele>
        <time>2022-07-20T11:23:56Z</time>
      </trkpt>
      <trkpt lat="42.63008" lon="1.71229">
        <ele>2146.76</ele>
        <time>2022-07-20T11:24:09Z</time>
      </trkpt>
      <trkpt lat="42.63005" lon="1.71227">
        <ele>2145.8</ele>
        <time>2022-07-20T11:24:13Z</time>
      </trkpt>
      <trkpt lat="42.63001" lon="1.71224">
        <ele>2146.76</ele>
        <time>2022-07-20T11:24:18Z</time>
      </trkpt>
      <trkpt lat="42.62993" lon="1.71209">
        <ele>2146.76</ele>
        <time>2022-07-20T11:24:34Z</time>
      </trkpt>
      <trkpt lat="42.62991" lon="1.71206">
        <ele>2145.8</ele>
        <time>2022-07-20T11:24:42Z</time>
      </trkpt>
      <trkpt lat="42.62985" lon="1.71198">
        <ele>2145.8</ele>
        <time>2022-07-20T11:25:02Z</time>
      </trkpt>
      <trkpt lat="42.62981" lon="1.71198">
        <ele>2145.32</ele>
        <time>2022-07-20T11:25:17Z</time>
      </trkpt>
      <trkpt lat="42.62977" lon="1.71193">
        <ele>2145.8</ele>
        <time>2022-07-20T11:25:26Z</time>
      </trkpt>
      <trkpt lat="42.62975" lon="1.71192">
        <ele>2145.8</ele>
        <time>2022-07-20T11:25:28Z</time>
      </trkpt>
      <trkpt lat="42.62964" lon="1.7118">
        <ele>2145.8</ele>
        <time>2022-07-20T11:25:43Z</time>
      </trkpt>
      <trkpt lat="42.62953" lon="1.71168">
        <ele>2145.8</ele>
        <time>2022-07-20T11:25:58Z</time>
      </trkpt>
      <trkpt lat="42.6294" lon="1.71155">
        <ele>2144.84</ele>
        <time>2022-07-20T11:26:16Z</time>
      </trkpt>
      <trkpt lat="42.62928" lon="1.7115">
        <ele>2142.92</ele>
        <time>2022-07-20T11:26:34Z</time>
      </trkpt>
      <trkpt lat="42.62923" lon="1.71148">
        <ele>2145.8</ele>
        <time>2022-07-20T11:26:42Z</time>
      </trkpt>
      <trkpt lat="42.62922" lon="1.71147">
        <ele>2144.84</ele>
        <time>2022-07-20T11:26:45Z</time>
      </trkpt>
      <trkpt lat="42.62915" lon="1.71145">
        <ele>2143.4</ele>
        <time>2022-07-20T11:27:02Z</time>
      </trkpt>
      <trkpt lat="42.6291" lon="1.71145">
        <ele>2143.88</ele>
        <time>2022-07-20T11:27:15Z</time>
      </trkpt>
      <trkpt lat="42.62906" lon="1.71148">
        <ele>2141.95</ele>
        <time>2022-07-20T11:27:29Z</time>
      </trkpt>
      <trkpt lat="42.62906" lon="1.71148">
        <ele>2142.44</ele>
        <time>2022-07-20T11:27:42Z</time>
      </trkpt>
      <trkpt lat="42.62907" lon="1.71148">
        <ele>2143.4</ele>
        <time>2022-07-20T11:27:46Z</time>
      </trkpt>
      <trkpt lat="42.62907" lon="1.71148">
        <ele>2142.92</ele>
        <time>2022-07-20T11:28:28Z</time>
      </trkpt>
      <trkpt lat="42.62907" lon="1.71149">
        <ele>2141.47</ele>
        <time>2022-07-20T11:29:06Z</time>
      </trkpt>
      <trkpt lat="42.62906" lon="1.71148">
        <ele>2141.47</ele>
        <time>2022-07-20T11:29:38Z</time>
      </trkpt>
      <trkpt lat="42.62907" lon="1.71148">
        <ele>2143.4</ele>
        <time>2022-07-20T11:30:13Z</time>
      </trkpt>
      <trkpt lat="42.62907" lon="1.71149">
        <ele>2142.44</ele>
        <time>2022-07-20T11:30:52Z</time>
      </trkpt>
      <trkpt lat="42.62905" lon="1.71148">
        <ele>2142.44</ele>
        <time>2022-07-20T11:31:17Z</time>
      </trkpt>
      <trkpt lat="42.62909" lon="1.71147">
        <ele>2142.44</ele>
        <time>2022-07-20T11:31:44Z</time>
      </trkpt>
      <trkpt lat="42.62909" lon="1.7115">
        <ele>2142.44</ele>
        <time>2022-07-20T11:32:18Z</time>
      </trkpt>
      <trkpt lat="42.62908" lon="1.71146">
        <ele>2142.44</ele>
        <time>2022-07-20T11:32:46Z</time>
      </trkpt>
      <trkpt lat="42.62908" lon="1.71147">
        <ele>2141.47</ele>
        <time>2022-07-20T11:33:29Z</time>
      </trkpt>
      <trkpt lat="42.62907" lon="1.71146">
        <ele>2143.4</ele>
        <time>2022-07-20T11:34:15Z</time>
      </trkpt>
      <trkpt lat="42.62909" lon="1.71149">
        <ele>2144.36</ele>
        <time>2022-07-20T11:34:56Z</time>
      </trkpt>
      <trkpt lat="42.6291" lon="1.71149">
        <ele>2145.32</ele>
        <time>2022-07-20T11:35:35Z</time>
      </trkpt>
      <trkpt lat="42.62907" lon="1.71149">
        <ele>2146.76</ele>
        <time>2022-07-20T11:36:11Z</time>
      </trkpt>
      <trkpt lat="42.62907" lon="1.71148">
        <ele>2146.76</ele>
        <time>2022-07-20T11:36:43Z</time>
      </trkpt>
      <trkpt lat="42.62907" lon="1.71149">
        <ele>2146.76</ele>
        <time>2022-07-20T11:36:59Z</time>
      </trkpt>
      <trkpt lat="42.62907" lon="1.71146">
        <ele>2145.32</ele>
        <time>2022-07-20T11:37:40Z</time>
      </trkpt>
      <trkpt lat="42.62907" lon="1.71147">
        <ele>2145.8</ele>
        <time>2022-07-20T11:38:09Z</time>
      </trkpt>
      <trkpt lat="42.62906" lon="1.71147">
        <ele>2145.32</ele>
        <time>2022-07-20T11:38:47Z</time>
      </trkpt>
      <trkpt lat="42.62909" lon="1.71149">
        <ele>2145.32</ele>
        <time>2022-07-20T11:39:25Z</time>
      </trkpt>
      <trkpt lat="42.62906" lon="1.71147">
        <ele>2144.36</ele>
        <time>2022-07-20T11:40:09Z</time>
      </trkpt>
      <trkpt lat="42.62908" lon="1.71147">
        <ele>2145.8</ele>
        <time>2022-07-20T11:40:59Z</time>
      </trkpt>
      <trkpt lat="42.62908" lon="1.71147">
        <ele>2144.84</ele>
        <time>2022-07-20T11:41:17Z</time>
      </trkpt>
      <trkpt lat="42.62907" lon="1.71146">
        <ele>2142.92</ele>
        <time>2022-07-20T11:42:06Z</time>
      </trkpt>
      <trkpt lat="42.62907" lon="1.71146">
        <ele>2142.92</ele>
        <time>2022-07-20T11:42:17Z</time>
      </trkpt>
      <trkpt lat="42.62907" lon="1.71147">
        <ele>2143.88</ele>
        <time>2022-07-20T11:42:53Z</time>
      </trkpt>
      <trkpt lat="42.62908" lon="1.71148">
        <ele>2144.36</ele>
        <time>2022-07-20T11:43:23Z</time>
      </trkpt>
      <trkpt lat="42.6291" lon="1.71148">
        <ele>2146.76</ele>
        <time>2022-07-20T11:44:06Z</time>
      </trkpt>
      <trkpt lat="42.6291" lon="1.71148">
        <ele>2145.32</ele>
        <time>2022-07-20T11:44:47Z</time>
      </trkpt>
      <trkpt lat="42.62909" lon="1.71149">
        <ele>2146.28</ele>
        <time>2022-07-20T11:45:28Z</time>
      </trkpt>
      <trkpt lat="42.62907" lon="1.71149">
        <ele>2148.68</ele>
        <time>2022-07-20T11:46:15Z</time>
      </trkpt>
      <trkpt lat="42.62907" lon="1.71148">
        <ele>2147.72</ele>
        <time>2022-07-20T11:46:28Z</time>
      </trkpt>
      <trkpt lat="42.62907" lon="1.71148">
        <ele>2145.8</ele>
        <time>2022-07-20T11:47:14Z</time>
      </trkpt>
      <trkpt lat="42.62908" lon="1.71147">
        <ele>2147.24</ele>
        <time>2022-07-20T11:47:31Z</time>
      </trkpt>
      <trkpt lat="42.62908" lon="1.71149">
        <ele>2148.2</ele>
        <time>2022-07-20T11:48:12Z</time>
      </trkpt>
      <trkpt lat="42.62908" lon="1.71149">
        <ele>2147.72</ele>
        <time>2022-07-20T11:48:30Z</time>
      </trkpt>
      <trkpt lat="42.62907" lon="1.71148">
        <ele>2147.24</ele>
        <time>2022-07-20T11:49:09Z</time>
      </trkpt>
      <trkpt lat="42.62908" lon="1.71149">
        <ele>2146.76</ele>
        <time>2022-07-20T11:49:51Z</time>
      </trkpt>
      <trkpt lat="42.62907" lon="1.71148">
        <ele>2145.32</ele>
        <time>2022-07-20T11:50:33Z</time>
      </trkpt>
      <trkpt lat="42.62908" lon="1.71149">
        <ele>2143.4</ele>
        <time>2022-07-20T11:51:21Z</time>
      </trkpt>
      <trkpt lat="42.62908" lon="1.71148">
        <ele>2144.84</ele>
        <time>2022-07-20T11:52:00Z</time>
      </trkpt>
      <trkpt lat="42.62907" lon="1.71148">
        <ele>2147.24</ele>
        <time>2022-07-20T11:52:44Z</time>
      </trkpt>
      <trkpt lat="42.62907" lon="1.71147">
        <ele>2147.24</ele>
        <time>2022-07-20T11:53:19Z</time>
      </trkpt>
      <trkpt lat="42.62909" lon="1.71146">
        <ele>2147.72</ele>
        <time>2022-07-20T11:54:02Z</time>
      </trkpt>
      <trkpt lat="42.62909" lon="1.71147">
        <ele>2148.2</ele>
        <time>2022-07-20T11:54:46Z</time>
      </trkpt>
      <trkpt lat="42.62908" lon="1.71149">
        <ele>2145.32</ele>
        <time>2022-07-20T11:55:23Z</time>
      </trkpt>
      <trkpt lat="42.62909" lon="1.71149">
        <ele>2146.76</ele>
        <time>2022-07-20T11:55:27Z</time>
      </trkpt>
      <trkpt lat="42.62909" lon="1.71148">
        <ele>2145.32</ele>
        <time>2022-07-20T11:55:30Z</time>
      </trkpt>
      <trkpt lat="42.62909" lon="1.71148">
        <ele>2147.24</ele>
        <time>2022-07-20T11:55:36Z</time>
      </trkpt>
      <trkpt lat="42.62909" lon="1.71148">
        <ele>2148.68</ele>
        <time>2022-07-20T11:55:51Z</time>
      </trkpt>
      <trkpt lat="42.62908" lon="1.71148">
        <ele>2145.32</ele>
        <time>2022-07-20T11:56:21Z</time>
      </trkpt>
      <trkpt lat="42.62907" lon="1.71149">
        <ele>2146.28</ele>
        <time>2022-07-20T11:56:37Z</time>
      </trkpt>
      <trkpt lat="42.62908" lon="1.7115">
        <ele>2147.24</ele>
        <time>2022-07-20T11:57:12Z</time>
      </trkpt>
      <trkpt lat="42.6291" lon="1.71147">
        <ele>2147.72</ele>
        <time>2022-07-20T11:57:44Z</time>
      </trkpt>
      <trkpt lat="42.62911" lon="1.71147">
        <ele>2148.2</ele>
        <time>2022-07-20T11:58:15Z</time>
      </trkpt>
      <trkpt lat="42.62911" lon="1.71149">
        <ele>2148.2</ele>
        <time>2022-07-20T11:58:57Z</time>
      </trkpt>
      <trkpt lat="42.6291" lon="1.71148">
        <ele>2148.2</ele>
        <time>2022-07-20T11:59:35Z</time>
      </trkpt>
      <trkpt lat="42.6291" lon="1.71147">
        <ele>2149.65</ele>
        <time>2022-07-20T12:00:20Z</time>
      </trkpt>
      <trkpt lat="42.62911" lon="1.71148">
        <ele>2150.13</ele>
        <time>2022-07-20T12:00:48Z</time>
      </trkpt>
      <trkpt lat="42.6291" lon="1.71151">
        <ele>2150.61</ele>
        <time>2022-07-20T12:01:23Z</time>
      </trkpt>
      <trkpt lat="42.62909" lon="1.7115">
        <ele>2147.24</ele>
        <time>2022-07-20T12:02:00Z</time>
      </trkpt>
      <trkpt lat="42.62909" lon="1.7115">
        <ele>2145.8</ele>
        <time>2022-07-20T12:02:04Z</time>
      </trkpt>
      <trkpt lat="42.62909" lon="1.71149">
        <ele>2146.76</ele>
        <time>2022-07-20T12:02:35Z</time>
      </trkpt>
      <trkpt lat="42.62909" lon="1.71149">
        <ele>2147.72</ele>
        <time>2022-07-20T12:03:08Z</time>
      </trkpt>
      <trkpt lat="42.6291" lon="1.7115">
        <ele>2146.28</ele>
        <time>2022-07-20T12:03:47Z</time>
      </trkpt>
      <trkpt lat="42.62909" lon="1.71151">
        <ele>2146.28</ele>
        <time>2022-07-20T12:04:25Z</time>
      </trkpt>
      <trkpt lat="42.62909" lon="1.71149">
        <ele>2147.24</ele>
        <time>2022-07-20T12:04:44Z</time>
      </trkpt>
      <trkpt lat="42.62909" lon="1.71152">
        <ele>2147.24</ele>
        <time>2022-07-20T12:05:22Z</time>
      </trkpt>
      <trkpt lat="42.62909" lon="1.71151">
        <ele>2148.2</ele>
        <time>2022-07-20T12:05:32Z</time>
      </trkpt>
      <trkpt lat="42.6291" lon="1.71151">
        <ele>2149.65</ele>
        <time>2022-07-20T12:06:09Z</time>
      </trkpt>
      <trkpt lat="42.62909" lon="1.71151">
        <ele>2148.2</ele>
        <time>2022-07-20T12:06:44Z</time>
      </trkpt>
      <trkpt lat="42.62908" lon="1.71149">
        <ele>2149.16</ele>
        <time>2022-07-20T12:07:21Z</time>
      </trkpt>
      <trkpt lat="42.6291" lon="1.71151">
        <ele>2147.72</ele>
        <time>2022-07-20T12:07:36Z</time>
      </trkpt>
      <trkpt lat="42.6291" lon="1.71152">
        <ele>2146.28</ele>
        <time>2022-07-20T12:08:12Z</time>
      </trkpt>
      <trkpt lat="42.62909" lon="1.71151">
        <ele>2147.72</ele>
        <time>2022-07-20T12:08:19Z</time>
      </trkpt>
      <trkpt lat="42.62907" lon="1.71149">
        <ele>2149.65</ele>
        <time>2022-07-20T12:08:55Z</time>
      </trkpt>
      <trkpt lat="42.6291" lon="1.7115">
        <ele>2151.57</ele>
        <time>2022-07-20T12:09:35Z</time>
      </trkpt>
      <trkpt lat="42.62909" lon="1.7115">
        <ele>2151.57</ele>
        <time>2022-07-20T12:10:04Z</time>
      </trkpt>
      <trkpt lat="42.62906" lon="1.7115">
        <ele>2151.09</ele>
        <time>2022-07-20T12:10:15Z</time>
      </trkpt>
      <trkpt lat="42.62905" lon="1.7115">
        <ele>2149.16</ele>
        <time>2022-07-20T12:10:22Z</time>
      </trkpt>
      <trkpt lat="42.62906" lon="1.71151">
        <ele>2147.24</ele>
        <time>2022-07-20T12:10:42Z</time>
      </trkpt>
      <trkpt lat="42.62906" lon="1.71151">
        <ele>2147.24</ele>
        <time>2022-07-20T12:11:11Z</time>
      </trkpt>
      <trkpt lat="42.62907" lon="1.71151">
        <ele>2148.68</ele>
        <time>2022-07-20T12:11:41Z</time>
      </trkpt>
      <trkpt lat="42.62907" lon="1.71151">
        <ele>2147.72</ele>
        <time>2022-07-20T12:12:14Z</time>
      </trkpt>
      <trkpt lat="42.62906" lon="1.7115">
        <ele>2147.24</ele>
        <time>2022-07-20T12:12:46Z</time>
      </trkpt>
      <trkpt lat="42.62905" lon="1.7115">
        <ele>2147.24</ele>
        <time>2022-07-20T12:13:16Z</time>
      </trkpt>
      <trkpt lat="42.62905" lon="1.7115">
        <ele>2148.68</ele>
        <time>2022-07-20T12:13:44Z</time>
      </trkpt>
      <trkpt lat="42.62905" lon="1.7115">
        <ele>2148.68</ele>
        <time>2022-07-20T12:14:10Z</time>
      </trkpt>
      <trkpt lat="42.62905" lon="1.7115">
        <ele>2147.24</ele>
        <time>2022-07-20T12:14:32Z</time>
      </trkpt>
      <trkpt lat="42.62906" lon="1.7115">
        <ele>2148.2</ele>
        <time>2022-07-20T12:15:03Z</time>
      </trkpt>
      <trkpt lat="42.62905" lon="1.7115">
        <ele>2148.2</ele>
        <time>2022-07-20T12:15:32Z</time>
      </trkpt>
      <trkpt lat="42.62905" lon="1.7115">
        <ele>2150.13</ele>
        <time>2022-07-20T12:15:59Z</time>
      </trkpt>
      <trkpt lat="42.62906" lon="1.7115">
        <ele>2150.61</ele>
        <time>2022-07-20T12:16:34Z</time>
      </trkpt>
      <trkpt lat="42.62905" lon="1.7115">
        <ele>2149.65</ele>
        <time>2022-07-20T12:17:01Z</time>
      </trkpt>
      <trkpt lat="42.62905" lon="1.71149">
        <ele>2150.61</ele>
        <time>2022-07-20T12:17:35Z</time>
      </trkpt>
      <trkpt lat="42.62905" lon="1.71149">
        <ele>2149.16</ele>
        <time>2022-07-20T12:17:44Z</time>
      </trkpt>
      <trkpt lat="42.62905" lon="1.71151">
        <ele>2146.76</ele>
        <time>2022-07-20T12:18:10Z</time>
      </trkpt>
      <trkpt lat="42.62905" lon="1.7115">
        <ele>2146.28</ele>
        <time>2022-07-20T12:18:41Z</time>
      </trkpt>
      <trkpt lat="42.62905" lon="1.7115">
        <ele>2147.72</ele>
        <time>2022-07-20T12:19:10Z</time>
      </trkpt>
      <trkpt lat="42.62906" lon="1.71151">
        <ele>2146.28</ele>
        <time>2022-07-20T12:19:42Z</time>
      </trkpt>
      <trkpt lat="42.62906" lon="1.7115">
        <ele>2147.24</ele>
        <time>2022-07-20T12:19:53Z</time>
      </trkpt>
      <trkpt lat="42.62905" lon="1.7115">
        <ele>2145.8</ele>
        <time>2022-07-20T12:19:56Z</time>
      </trkpt>
      <trkpt lat="42.62906" lon="1.7115">
        <ele>2146.28</ele>
        <time>2022-07-20T12:20:21Z</time>
      </trkpt>
      <trkpt lat="42.62906" lon="1.7115">
        <ele>2148.68</ele>
        <time>2022-07-20T12:20:50Z</time>
      </trkpt>
      <trkpt lat="42.62906" lon="1.71151">
        <ele>2146.28</ele>
        <time>2022-07-20T12:21:18Z</time>
      </trkpt>
      <trkpt lat="42.62906" lon="1.7115">
        <ele>2148.68</ele>
        <time>2022-07-20T12:21:49Z</time>
      </trkpt>
      <trkpt lat="42.62905" lon="1.71151">
        <ele>2149.65</ele>
        <time>2022-07-20T12:22:14Z</time>
      </trkpt>
      <trkpt lat="42.62906" lon="1.71151">
        <ele>2150.13</ele>
        <time>2022-07-20T12:22:41Z</time>
      </trkpt>
      <trkpt lat="42.62906" lon="1.71151">
        <ele>2148.68</ele>
        <time>2022-07-20T12:22:56Z</time>
      </trkpt>
      <trkpt lat="42.62905" lon="1.71151">
        <ele>2148.68</ele>
        <time>2022-07-20T12:23:20Z</time>
      </trkpt>
      <trkpt lat="42.62905" lon="1.71151">
        <ele>2147.24</ele>
        <time>2022-07-20T12:23:23Z</time>
      </trkpt>
      <trkpt lat="42.62905" lon="1.71151">
        <ele>2145.8</ele>
        <time>2022-07-20T12:23:48Z</time>
      </trkpt>
      <trkpt lat="42.62905" lon="1.71152">
        <ele>2147.24</ele>
        <time>2022-07-20T12:23:52Z</time>
      </trkpt>
      <trkpt lat="42.62905" lon="1.71152">
        <ele>2148.68</ele>
        <time>2022-07-20T12:23:55Z</time>
      </trkpt>
      <trkpt lat="42.62906" lon="1.71152">
        <ele>2146.76</ele>
        <time>2022-07-20T12:24:27Z</time>
      </trkpt>
      <trkpt lat="42.62906" lon="1.71152">
        <ele>2146.76</ele>
        <time>2022-07-20T12:24:55Z</time>
      </trkpt>
      <trkpt lat="42.62906" lon="1.71153">
        <ele>2147.72</ele>
        <time>2022-07-20T12:25:30Z</time>
      </trkpt>
      <trkpt lat="42.62905" lon="1.71151">
        <ele>2147.72</ele>
        <time>2022-07-20T12:26:10Z</time>
      </trkpt>
      <trkpt lat="42.62906" lon="1.71151">
        <ele>2147.72</ele>
        <time>2022-07-20T12:26:46Z</time>
      </trkpt>
      <trkpt lat="42.62906" lon="1.71151">
        <ele>2147.72</ele>
        <time>2022-07-20T12:27:18Z</time>
      </trkpt>
      <trkpt lat="42.62906" lon="1.71152">
        <ele>2148.68</ele>
        <time>2022-07-20T12:27:58Z</time>
      </trkpt>
      <trkpt lat="42.62905" lon="1.71152">
        <ele>2147.24</ele>
        <time>2022-07-20T12:28:04Z</time>
      </trkpt>
      <trkpt lat="42.62906" lon="1.71152">
        <ele>2148.68</ele>
        <time>2022-07-20T12:28:23Z</time>
      </trkpt>
      <trkpt lat="42.62905" lon="1.71151">
        <ele>2148.68</ele>
        <time>2022-07-20T12:29:09Z</time>
      </trkpt>
      <trkpt lat="42.62905" lon="1.71152">
        <ele>2148.2</ele>
        <time>2022-07-20T12:29:45Z</time>
      </trkpt>
      <trkpt lat="42.62905" lon="1.71151">
        <ele>2146.28</ele>
        <time>2022-07-20T12:30:22Z</time>
      </trkpt>
      <trkpt lat="42.62906" lon="1.71151">
        <ele>2145.8</ele>
        <time>2022-07-20T12:30:58Z</time>
      </trkpt>
      <trkpt lat="42.62905" lon="1.71151">
        <ele>2147.24</ele>
        <time>2022-07-20T12:31:36Z</time>
      </trkpt>
      <trkpt lat="42.62905" lon="1.71151">
        <ele>2148.2</ele>
        <time>2022-07-20T12:32:13Z</time>
      </trkpt>
      <trkpt lat="42.62905" lon="1.71151">
        <ele>2147.72</ele>
        <time>2022-07-20T12:32:26Z</time>
      </trkpt>
      <trkpt lat="42.62905" lon="1.71151">
        <ele>2146.76</ele>
        <time>2022-07-20T12:33:05Z</time>
      </trkpt>
      <trkpt lat="42.62905" lon="1.71151">
        <ele>2147.24</ele>
        <time>2022-07-20T12:33:25Z</time>
      </trkpt>
      <trkpt lat="42.62906" lon="1.71151">
        <ele>2146.28</ele>
        <time>2022-07-20T12:33:41Z</time>
      </trkpt>
      <trkpt lat="42.62905" lon="1.7115">
        <ele>2147.72</ele>
        <time>2022-07-20T12:34:22Z</time>
      </trkpt>
      <trkpt lat="42.62905" lon="1.71152">
        <ele>2144.84</ele>
        <time>2022-07-20T12:34:55Z</time>
      </trkpt>
      <trkpt lat="42.62905" lon="1.71152">
        <ele>2147.24</ele>
        <time>2022-07-20T12:35:33Z</time>
      </trkpt>
      <trkpt lat="42.62904" lon="1.71151">
        <ele>2148.2</ele>
        <time>2022-07-20T12:36:06Z</time>
      </trkpt>
      <trkpt lat="42.62905" lon="1.71151">
        <ele>2146.76</ele>
        <time>2022-07-20T12:36:41Z</time>
      </trkpt>
      <trkpt lat="42.62905" lon="1.71151">
        <ele>2148.2</ele>
        <time>2022-07-20T12:37:21Z</time>
      </trkpt>
      <trkpt lat="42.62905" lon="1.7115">
        <ele>2146.76</ele>
        <time>2022-07-20T12:37:57Z</time>
      </trkpt>
      <trkpt lat="42.62906" lon="1.71151">
        <ele>2145.32</ele>
        <time>2022-07-20T12:38:37Z</time>
      </trkpt>
      <trkpt lat="42.62906" lon="1.71151">
        <ele>2145.32</ele>
        <time>2022-07-20T12:39:09Z</time>
      </trkpt>
      <trkpt lat="42.62907" lon="1.71153">
        <ele>2144.84</ele>
        <time>2022-07-20T12:39:38Z</time>
      </trkpt>
      <trkpt lat="42.62906" lon="1.71152">
        <ele>2146.28</ele>
        <time>2022-07-20T12:40:18Z</time>
      </trkpt>
      <trkpt lat="42.62906" lon="1.71152">
        <ele>2149.16</ele>
        <time>2022-07-20T12:40:58Z</time>
      </trkpt>
      <trkpt lat="42.62905" lon="1.71151">
        <ele>2145.8</ele>
        <time>2022-07-20T12:41:39Z</time>
      </trkpt>
      <trkpt lat="42.62906" lon="1.71152">
        <ele>2144.84</ele>
        <time>2022-07-20T12:42:18Z</time>
      </trkpt>
      <trkpt lat="42.62905" lon="1.71152">
        <ele>2144.84</ele>
        <time>2022-07-20T12:42:47Z</time>
      </trkpt>
      <trkpt lat="42.62906" lon="1.71151">
        <ele>2146.28</ele>
        <time>2022-07-20T12:43:18Z</time>
      </trkpt>
      <trkpt lat="42.62906" lon="1.71153">
        <ele>2147.24</ele>
        <time>2022-07-20T12:43:51Z</time>
      </trkpt>
      <trkpt lat="42.62906" lon="1.71151">
        <ele>2145.8</ele>
        <time>2022-07-20T12:44:25Z</time>
      </trkpt>
      <trkpt lat="42.62906" lon="1.71151">
        <ele>2144.36</ele>
        <time>2022-07-20T12:44:55Z</time>
      </trkpt>
      <trkpt lat="42.62906" lon="1.7115">
        <ele>2143.88</ele>
        <time>2022-07-20T12:45:33Z</time>
      </trkpt>
      <trkpt lat="42.62906" lon="1.71151">
        <ele>2143.88</ele>
        <time>2022-07-20T12:46:10Z</time>
      </trkpt>
      <trkpt lat="42.62905" lon="1.71152">
        <ele>2143.88</ele>
        <time>2022-07-20T12:46:49Z</time>
      </trkpt>
      <trkpt lat="42.62905" lon="1.71152">
        <ele>2144.36</ele>
        <time>2022-07-20T12:47:32Z</time>
      </trkpt>
      <trkpt lat="42.62905" lon="1.7115">
        <ele>2144.36</ele>
        <time>2022-07-20T12:48:05Z</time>
      </trkpt>
      <trkpt lat="42.62905" lon="1.71152">
        <ele>2143.88</ele>
        <time>2022-07-20T12:48:43Z</time>
      </trkpt>
      <trkpt lat="42.62906" lon="1.71151">
        <ele>2143.88</ele>
        <time>2022-07-20T12:49:18Z</time>
      </trkpt>
      <trkpt lat="42.62906" lon="1.71152">
        <ele>2143.88</ele>
        <time>2022-07-20T12:49:48Z</time>
      </trkpt>
      <trkpt lat="42.62905" lon="1.71151">
        <ele>2144.36</ele>
        <time>2022-07-20T12:50:17Z</time>
      </trkpt>
      <trkpt lat="42.62905" lon="1.71151">
        <ele>2146.28</ele>
        <time>2022-07-20T12:50:45Z</time>
      </trkpt>
      <trkpt lat="42.62905" lon="1.71151">
        <ele>2145.32</ele>
        <time>2022-07-20T12:51:11Z</time>
      </trkpt>
      <trkpt lat="42.62905" lon="1.71152">
        <ele>2144.84</ele>
        <time>2022-07-20T12:51:40Z</time>
      </trkpt>
      <trkpt lat="42.62905" lon="1.71151">
        <ele>2145.8</ele>
        <time>2022-07-20T12:52:17Z</time>
      </trkpt>
      <trkpt lat="42.62905" lon="1.71151">
        <ele>2143.4</ele>
        <time>2022-07-20T12:52:51Z</time>
      </trkpt>
      <trkpt lat="42.62905" lon="1.71151">
        <ele>2144.36</ele>
        <time>2022-07-20T12:53:20Z</time>
      </trkpt>
      <trkpt lat="42.62905" lon="1.71151">
        <ele>2146.28</ele>
        <time>2022-07-20T12:53:51Z</time>
      </trkpt>
      <trkpt lat="42.62905" lon="1.71151">
        <ele>2146.28</ele>
        <time>2022-07-20T12:54:19Z</time>
      </trkpt>
      <trkpt lat="42.62905" lon="1.7115">
        <ele>2146.28</ele>
        <time>2022-07-20T12:54:43Z</time>
      </trkpt>
      <trkpt lat="42.62905" lon="1.7115">
        <ele>2146.28</ele>
        <time>2022-07-20T12:55:04Z</time>
      </trkpt>
      <trkpt lat="42.62905" lon="1.7115">
        <ele>2146.28</ele>
        <time>2022-07-20T12:55:29Z</time>
      </trkpt>
      <trkpt lat="42.62905" lon="1.71151">
        <ele>2145.32</ele>
        <time>2022-07-20T12:55:42Z</time>
      </trkpt>
      <trkpt lat="42.62905" lon="1.71151">
        <ele>2144.36</ele>
        <time>2022-07-20T12:56:17Z</time>
      </trkpt>
      <trkpt lat="42.62905" lon="1.71151">
        <ele>2144.36</ele>
        <time>2022-07-20T12:56:44Z</time>
      </trkpt>
      <trkpt lat="42.62905" lon="1.71152">
        <ele>2144.36</ele>
        <time>2022-07-20T12:57:19Z</time>
      </trkpt>
      <trkpt lat="42.62905" lon="1.71151">
        <ele>2145.32</ele>
        <time>2022-07-20T12:57:49Z</time>
      </trkpt>
      <trkpt lat="42.62904" lon="1.7115">
        <ele>2145.8</ele>
        <time>2022-07-20T12:58:20Z</time>
      </trkpt>
      <trkpt lat="42.62904" lon="1.71149">
        <ele>2145.8</ele>
        <time>2022-07-20T12:58:44Z</time>
      </trkpt>
      <trkpt lat="42.62904" lon="1.71151">
        <ele>2144.36</ele>
        <time>2022-07-20T12:59:20Z</time>
      </trkpt>
      <trkpt lat="42.62904" lon="1.7115">
        <ele>2144.84</ele>
        <time>2022-07-20T13:00:01Z</time>
      </trkpt>
      <trkpt lat="42.62905" lon="1.71149">
        <ele>2144.36</ele>
        <time>2022-07-20T13:00:37Z</time>
      </trkpt>
      <trkpt lat="42.62905" lon="1.7115">
        <ele>2144.36</ele>
        <time>2022-07-20T13:00:42Z</time>
      </trkpt>
      <trkpt lat="42.62904" lon="1.71151">
        <ele>2146.28</ele>
        <time>2022-07-20T13:00:46Z</time>
      </trkpt>
      <trkpt lat="42.62905" lon="1.71151">
        <ele>2145.32</ele>
        <time>2022-07-20T13:00:48Z</time>
      </trkpt>
      <trkpt lat="42.62905" lon="1.71149">
        <ele>2146.76</ele>
        <time>2022-07-20T13:01:09Z</time>
      </trkpt>
      <trkpt lat="42.62905" lon="1.71152">
        <ele>2146.76</ele>
        <time>2022-07-20T13:01:34Z</time>
      </trkpt>
      <trkpt lat="42.62904" lon="1.71153">
        <ele>2146.76</ele>
        <time>2022-07-20T13:01:54Z</time>
      </trkpt>
      <trkpt lat="42.62906" lon="1.71151">
        <ele>2146.76</ele>
        <time>2022-07-20T13:02:19Z</time>
      </trkpt>
      <trkpt lat="42.62904" lon="1.71151">
        <ele>2146.76</ele>
        <time>2022-07-20T13:02:33Z</time>
      </trkpt>
      <trkpt lat="42.62904" lon="1.71155">
        <ele>2146.76</ele>
        <time>2022-07-20T13:02:55Z</time>
      </trkpt>
      <trkpt lat="42.62904" lon="1.71152">
        <ele>2147.24</ele>
        <time>2022-07-20T13:03:08Z</time>
      </trkpt>
      <trkpt lat="42.62905" lon="1.71152">
        <ele>2145.8</ele>
        <time>2022-07-20T13:03:12Z</time>
      </trkpt>
      <trkpt lat="42.62904" lon="1.71152">
        <ele>2148.2</ele>
        <time>2022-07-20T13:03:40Z</time>
      </trkpt>
      <trkpt lat="42.62904" lon="1.71152">
        <ele>2145.8</ele>
        <time>2022-07-20T13:03:43Z</time>
      </trkpt>
      <trkpt lat="42.62906" lon="1.7115">
        <ele>2146.76</ele>
        <time>2022-07-20T13:04:17Z</time>
      </trkpt>
      <trkpt lat="42.62905" lon="1.71151">
        <ele>2147.24</ele>
        <time>2022-07-20T13:04:50Z</time>
      </trkpt>
      <trkpt lat="42.62905" lon="1.71151">
        <ele>2147.24</ele>
        <time>2022-07-20T13:05:27Z</time>
      </trkpt>
      <trkpt lat="42.62906" lon="1.7115">
        <ele>2147.24</ele>
        <time>2022-07-20T13:05:50Z</time>
      </trkpt>
      <trkpt lat="42.62907" lon="1.7115">
        <ele>2147.24</ele>
        <time>2022-07-20T13:06:15Z</time>
      </trkpt>
      <trkpt lat="42.62904" lon="1.71151">
        <ele>2146.76</ele>
        <time>2022-07-20T13:06:28Z</time>
      </trkpt>
      <trkpt lat="42.62892" lon="1.71165">
        <ele>2146.28</ele>
        <time>2022-07-20T13:06:42Z</time>
      </trkpt>
      <trkpt lat="42.62885" lon="1.71176">
        <ele>2145.8</ele>
        <time>2022-07-20T13:06:57Z</time>
      </trkpt>
      <trkpt lat="42.62885" lon="1.71185">
        <ele>2144.36</ele>
        <time>2022-07-20T13:07:07Z</time>
      </trkpt>
      <trkpt lat="42.62894" lon="1.7119">
        <ele>2143.4</ele>
        <time>2022-07-20T13:07:21Z</time>
      </trkpt>
      <trkpt lat="42.62898" lon="1.71192">
        <ele>2142.92</ele>
        <time>2022-07-20T13:07:26Z</time>
      </trkpt>
      <trkpt lat="42.62903" lon="1.71197">
        <ele>2142.92</ele>
        <time>2022-07-20T13:07:32Z</time>
      </trkpt>
      <trkpt lat="42.62904" lon="1.71221">
        <ele>2144.36</ele>
        <time>2022-07-20T13:07:49Z</time>
      </trkpt>
      <trkpt lat="42.62905" lon="1.71223">
        <ele>2144.36</ele>
        <time>2022-07-20T13:07:51Z</time>
      </trkpt>
      <trkpt lat="42.62911" lon="1.71229">
        <ele>2142.92</ele>
        <time>2022-07-20T13:07:58Z</time>
      </trkpt>
      <trkpt lat="42.62923" lon="1.71239">
        <ele>2141.95</ele>
        <time>2022-07-20T13:08:13Z</time>
      </trkpt>
      <trkpt lat="42.62922" lon="1.71246">
        <ele>2141.95</ele>
        <time>2022-07-20T13:08:28Z</time>
      </trkpt>
      <trkpt lat="42.62924" lon="1.71249">
        <ele>2141.95</ele>
        <time>2022-07-20T13:08:42Z</time>
      </trkpt>
      <trkpt lat="42.62927" lon="1.71252">
        <ele>2143.4</ele>
        <time>2022-07-20T13:08:52Z</time>
      </trkpt>
      <trkpt lat="42.6293" lon="1.71254">
        <ele>2144.36</ele>
        <time>2022-07-20T13:08:56Z</time>
      </trkpt>
      <trkpt lat="42.62939" lon="1.71267">
        <ele>2145.8</ele>
        <time>2022-07-20T13:09:12Z</time>
      </trkpt>
      <trkpt lat="42.62949" lon="1.71276">
        <ele>2146.28</ele>
        <time>2022-07-20T13:09:25Z</time>
      </trkpt>
      <trkpt lat="42.62956" lon="1.71281">
        <ele>2144.84</ele>
        <time>2022-07-20T13:09:33Z</time>
      </trkpt>
      <trkpt lat="42.62962" lon="1.71285">
        <ele>2144.36</ele>
        <time>2022-07-20T13:09:46Z</time>
      </trkpt>
      <trkpt lat="42.62968" lon="1.71289">
        <ele>2144.36</ele>
        <time>2022-07-20T13:09:53Z</time>
      </trkpt>
      <trkpt lat="42.62972" lon="1.71296">
        <ele>2144.36</ele>
        <time>2022-07-20T13:10:00Z</time>
      </trkpt>
      <trkpt lat="42.62979" lon="1.7131">
        <ele>2143.88</ele>
        <time>2022-07-20T13:10:13Z</time>
      </trkpt>
      <trkpt lat="42.62982" lon="1.71313">
        <ele>2143.4</ele>
        <time>2022-07-20T13:10:17Z</time>
      </trkpt>
      <trkpt lat="42.62985" lon="1.71319">
        <ele>2143.4</ele>
        <time>2022-07-20T13:10:22Z</time>
      </trkpt>
      <trkpt lat="42.62998" lon="1.71333">
        <ele>2142.44</ele>
        <time>2022-07-20T13:10:38Z</time>
      </trkpt>
      <trkpt lat="42.63012" lon="1.71347">
        <ele>2141.47</ele>
        <time>2022-07-20T13:10:53Z</time>
      </trkpt>
      <trkpt lat="42.63019" lon="1.71362">
        <ele>2140.51</ele>
        <time>2022-07-20T13:11:07Z</time>
      </trkpt>
      <trkpt lat="42.63024" lon="1.7138">
        <ele>2140.51</ele>
        <time>2022-07-20T13:11:21Z</time>
      </trkpt>
      <trkpt lat="42.6303" lon="1.71397">
        <ele>2140.51</ele>
        <time>2022-07-20T13:11:36Z</time>
      </trkpt>
      <trkpt lat="42.63039" lon="1.71413">
        <ele>2138.59</ele>
        <time>2022-07-20T13:11:52Z</time>
      </trkpt>
      <trkpt lat="42.63048" lon="1.71421">
        <ele>2137.63</ele>
        <time>2022-07-20T13:12:07Z</time>
      </trkpt>
      <trkpt lat="42.63057" lon="1.71427">
        <ele>2136.19</ele>
        <time>2022-07-20T13:12:23Z</time>
      </trkpt>
      <trkpt lat="42.63062" lon="1.71435">
        <ele>2134.74</ele>
        <time>2022-07-20T13:12:36Z</time>
      </trkpt>
      <trkpt lat="42.63071" lon="1.71442">
        <ele>2131.86</ele>
        <time>2022-07-20T13:12:51Z</time>
      </trkpt>
      <trkpt lat="42.63072" lon="1.71442">
        <ele>2131.86</ele>
        <time>2022-07-20T13:12:52Z</time>
      </trkpt>
      <trkpt lat="42.6308" lon="1.71447">
        <ele>2131.38</ele>
        <time>2022-07-20T13:13:02Z</time>
      </trkpt>
      <trkpt lat="42.63091" lon="1.71461">
        <ele>2129.46</ele>
        <time>2022-07-20T13:13:19Z</time>
      </trkpt>
      <trkpt lat="42.63093" lon="1.71471">
        <ele>2128.5</ele>
        <time>2022-07-20T13:13:29Z</time>
      </trkpt>
      <trkpt lat="42.63093" lon="1.71475">
        <ele>2128.02</ele>
        <time>2022-07-20T13:13:44Z</time>
      </trkpt>
      <trkpt lat="42.6309" lon="1.71476">
        <ele>2128.02</ele>
        <time>2022-07-20T13:14:13Z</time>
      </trkpt>
      <trkpt lat="42.63091" lon="1.71483">
        <ele>2128.02</ele>
        <time>2022-07-20T13:14:28Z</time>
      </trkpt>
      <trkpt lat="42.63094" lon="1.71484">
        <ele>2128.02</ele>
        <time>2022-07-20T13:14:31Z</time>
      </trkpt>
      <trkpt lat="42.63098" lon="1.71487">
        <ele>2127.53</ele>
        <time>2022-07-20T13:14:37Z</time>
      </trkpt>
      <trkpt lat="42.63101" lon="1.71496">
        <ele>2125.61</ele>
        <time>2022-07-20T13:14:51Z</time>
      </trkpt>
      <trkpt lat="42.63101" lon="1.71503">
        <ele>2126.57</ele>
        <time>2022-07-20T13:15:05Z</time>
      </trkpt>
      <trkpt lat="42.63102" lon="1.71509">
        <ele>2128.02</ele>
        <time>2022-07-20T13:15:23Z</time>
      </trkpt>
      <trkpt lat="42.63102" lon="1.7151">
        <ele>2128.02</ele>
        <time>2022-07-20T13:15:25Z</time>
      </trkpt>
      <trkpt lat="42.63107" lon="1.7152">
        <ele>2128.5</ele>
        <time>2022-07-20T13:15:37Z</time>
      </trkpt>
      <trkpt lat="42.63111" lon="1.71524">
        <ele>2127.05</ele>
        <time>2022-07-20T13:15:46Z</time>
      </trkpt>
      <trkpt lat="42.63117" lon="1.71532">
        <ele>2124.65</ele>
        <time>2022-07-20T13:15:58Z</time>
      </trkpt>
      <trkpt lat="42.63123" lon="1.71543">
        <ele>2124.17</ele>
        <time>2022-07-20T13:16:13Z</time>
      </trkpt>
      <trkpt lat="42.63124" lon="1.71544">
        <ele>2124.17</ele>
        <time>2022-07-20T13:16:14Z</time>
      </trkpt>
      <trkpt lat="42.63125" lon="1.71548">
        <ele>2125.61</ele>
        <time>2022-07-20T13:16:19Z</time>
      </trkpt>
      <trkpt lat="42.63125" lon="1.71556">
        <ele>2126.09</ele>
        <time>2022-07-20T13:16:31Z</time>
      </trkpt>
      <trkpt lat="42.6313" lon="1.71567">
        <ele>2127.05</ele>
        <time>2022-07-20T13:16:45Z</time>
      </trkpt>
      <trkpt lat="42.63139" lon="1.71582">
        <ele>2127.53</ele>
        <time>2022-07-20T13:17:01Z</time>
      </trkpt>
      <trkpt lat="42.63142" lon="1.71588">
        <ele>2127.53</ele>
        <time>2022-07-20T13:17:07Z</time>
      </trkpt>
      <trkpt lat="42.63144" lon="1.71601">
        <ele>2127.53</ele>
        <time>2022-07-20T13:17:23Z</time>
      </trkpt>
      <trkpt lat="42.63141" lon="1.71616">
        <ele>2128.02</ele>
        <time>2022-07-20T13:17:38Z</time>
      </trkpt>
      <trkpt lat="42.6314" lon="1.71616">
        <ele>2127.53</ele>
        <time>2022-07-20T13:17:52Z</time>
      </trkpt>
      <trkpt lat="42.6314" lon="1.71615">
        <ele>2127.53</ele>
        <time>2022-07-20T13:18:10Z</time>
      </trkpt>
      <trkpt lat="42.6314" lon="1.71615">
        <ele>2130.9</ele>
        <time>2022-07-20T13:18:20Z</time>
      </trkpt>
      <trkpt lat="42.63137" lon="1.71624">
        <ele>2127.53</ele>
        <time>2022-07-20T13:18:30Z</time>
      </trkpt>
      <trkpt lat="42.63135" lon="1.71627">
        <ele>2127.53</ele>
        <time>2022-07-20T13:18:33Z</time>
      </trkpt>
      <trkpt lat="42.63134" lon="1.71635">
        <ele>2125.13</ele>
        <time>2022-07-20T13:18:46Z</time>
      </trkpt>
      <trkpt lat="42.63127" lon="1.71641">
        <ele>2125.13</ele>
        <time>2022-07-20T13:19:00Z</time>
      </trkpt>
      <trkpt lat="42.63127" lon="1.71648">
        <ele>2125.13</ele>
        <time>2022-07-20T13:19:13Z</time>
      </trkpt>
      <trkpt lat="42.63124" lon="1.71653">
        <ele>2126.57</ele>
        <time>2022-07-20T13:19:19Z</time>
      </trkpt>
      <trkpt lat="42.6312" lon="1.71662">
        <ele>2127.53</ele>
        <time>2022-07-20T13:19:32Z</time>
      </trkpt>
      <trkpt lat="42.63115" lon="1.71669">
        <ele>2128.02</ele>
        <time>2022-07-20T13:19:46Z</time>
      </trkpt>
      <trkpt lat="42.63111" lon="1.71677">
        <ele>2128.02</ele>
        <time>2022-07-20T13:19:59Z</time>
      </trkpt>
      <trkpt lat="42.6311" lon="1.71679">
        <ele>2126.57</ele>
        <time>2022-07-20T13:20:01Z</time>
      </trkpt>
      <trkpt lat="42.63099" lon="1.71687">
        <ele>2126.09</ele>
        <time>2022-07-20T13:20:15Z</time>
      </trkpt>
      <trkpt lat="42.63089" lon="1.71695">
        <ele>2125.61</ele>
        <time>2022-07-20T13:20:30Z</time>
      </trkpt>
      <trkpt lat="42.63082" lon="1.71706">
        <ele>2124.17</ele>
        <time>2022-07-20T13:20:43Z</time>
      </trkpt>
      <trkpt lat="42.63077" lon="1.71708">
        <ele>2125.61</ele>
        <time>2022-07-20T13:20:53Z</time>
      </trkpt>
      <trkpt lat="42.63071" lon="1.71708">
        <ele>2127.53</ele>
        <time>2022-07-20T13:21:07Z</time>
      </trkpt>
      <trkpt lat="42.63066" lon="1.7171">
        <ele>2129.94</ele>
        <time>2022-07-20T13:21:21Z</time>
      </trkpt>
      <trkpt lat="42.63063" lon="1.71712">
        <ele>2131.38</ele>
        <time>2022-07-20T13:21:36Z</time>
      </trkpt>
      <trkpt lat="42.63064" lon="1.71714">
        <ele>2132.34</ele>
        <time>2022-07-20T13:21:53Z</time>
      </trkpt>
      <trkpt lat="42.63063" lon="1.71712">
        <ele>2132.34</ele>
        <time>2022-07-20T13:22:12Z</time>
      </trkpt>
      <trkpt lat="42.63057" lon="1.71711">
        <ele>2132.82</ele>
        <time>2022-07-20T13:22:30Z</time>
      </trkpt>
      <trkpt lat="42.63056" lon="1.71711">
        <ele>2133.3</ele>
        <time>2022-07-20T13:22:47Z</time>
      </trkpt>
      <trkpt lat="42.63056" lon="1.71712">
        <ele>2134.26</ele>
        <time>2022-07-20T13:23:05Z</time>
      </trkpt>
      <trkpt lat="42.63055" lon="1.71717">
        <ele>2133.78</ele>
        <time>2022-07-20T13:23:25Z</time>
      </trkpt>
      <trkpt lat="42.63051" lon="1.71726">
        <ele>2133.78</ele>
        <time>2022-07-20T13:23:38Z</time>
      </trkpt>
      <trkpt lat="42.63049" lon="1.7173">
        <ele>2131.86</ele>
        <time>2022-07-20T13:23:52Z</time>
      </trkpt>
      <trkpt lat="42.63044" lon="1.71735">
        <ele>2131.86</ele>
        <time>2022-07-20T13:24:05Z</time>
      </trkpt>
      <trkpt lat="42.63036" lon="1.71745">
        <ele>2132.82</ele>
        <time>2022-07-20T13:24:21Z</time>
      </trkpt>
      <trkpt lat="42.63031" lon="1.71752">
        <ele>2134.26</ele>
        <time>2022-07-20T13:24:36Z</time>
      </trkpt>
      <trkpt lat="42.63029" lon="1.71757">
        <ele>2134.26</ele>
        <time>2022-07-20T13:24:58Z</time>
      </trkpt>
      <trkpt lat="42.63029" lon="1.71759">
        <ele>2133.3</ele>
        <time>2022-07-20T13:25:04Z</time>
      </trkpt>
      <trkpt lat="42.63027" lon="1.71765">
        <ele>2131.38</ele>
        <time>2022-07-20T13:25:20Z</time>
      </trkpt>
      <trkpt lat="42.63023" lon="1.71776">
        <ele>2129.94</ele>
        <time>2022-07-20T13:25:34Z</time>
      </trkpt>
      <trkpt lat="42.63015" lon="1.71789">
        <ele>2127.53</ele>
        <time>2022-07-20T13:25:52Z</time>
      </trkpt>
      <trkpt lat="42.63014" lon="1.71792">
        <ele>2126.09</ele>
        <time>2022-07-20T13:26:07Z</time>
      </trkpt>
      <trkpt lat="42.63011" lon="1.718">
        <ele>2125.61</ele>
        <time>2022-07-20T13:26:25Z</time>
      </trkpt>
      <trkpt lat="42.63003" lon="1.71814">
        <ele>2124.17</ele>
        <time>2022-07-20T13:26:43Z</time>
      </trkpt>
      <trkpt lat="42.63002" lon="1.71824">
        <ele>2123.21</ele>
        <time>2022-07-20T13:26:57Z</time>
      </trkpt>
      <trkpt lat="42.6299" lon="1.71834">
        <ele>2123.21</ele>
        <time>2022-07-20T13:27:12Z</time>
      </trkpt>
      <trkpt lat="42.62983" lon="1.71847">
        <ele>2122.73</ele>
        <time>2022-07-20T13:27:28Z</time>
      </trkpt>
      <trkpt lat="42.62979" lon="1.7186">
        <ele>2122.73</ele>
        <time>2022-07-20T13:27:44Z</time>
      </trkpt>
      <trkpt lat="42.62976" lon="1.71871">
        <ele>2121.77</ele>
        <time>2022-07-20T13:27:57Z</time>
      </trkpt>
      <trkpt lat="42.62972" lon="1.71881">
        <ele>2121.29</ele>
        <time>2022-07-20T13:28:12Z</time>
      </trkpt>
      <trkpt lat="42.62974" lon="1.71885">
        <ele>2120.81</ele>
        <time>2022-07-20T13:28:27Z</time>
      </trkpt>
      <trkpt lat="42.62971" lon="1.71895">
        <ele>2119.36</ele>
        <time>2022-07-20T13:28:47Z</time>
      </trkpt>
      <trkpt lat="42.62966" lon="1.71905">
        <ele>2118.88</ele>
        <time>2022-07-20T13:29:02Z</time>
      </trkpt>
      <trkpt lat="42.62966" lon="1.7191">
        <ele>2118.4</ele>
        <time>2022-07-20T13:29:16Z</time>
      </trkpt>
      <trkpt lat="42.62967" lon="1.71915">
        <ele>2117.92</ele>
        <time>2022-07-20T13:29:37Z</time>
      </trkpt>
      <trkpt lat="42.62965" lon="1.71919">
        <ele>2116.96</ele>
        <time>2022-07-20T13:29:55Z</time>
      </trkpt>
      <trkpt lat="42.62962" lon="1.71922">
        <ele>2116.48</ele>
        <time>2022-07-20T13:30:08Z</time>
      </trkpt>
      <trkpt lat="42.6296" lon="1.71925">
        <ele>2115.52</ele>
        <time>2022-07-20T13:30:23Z</time>
      </trkpt>
      <trkpt lat="42.62965" lon="1.71934">
        <ele>2112.63</ele>
        <time>2022-07-20T13:30:37Z</time>
      </trkpt>
      <trkpt lat="42.62965" lon="1.7194">
        <ele>2111.19</ele>
        <time>2022-07-20T13:30:50Z</time>
      </trkpt>
      <trkpt lat="42.62965" lon="1.71945">
        <ele>2110.23</ele>
        <time>2022-07-20T13:31:03Z</time>
      </trkpt>
      <trkpt lat="42.62967" lon="1.71951">
        <ele>2108.79</ele>
        <time>2022-07-20T13:31:18Z</time>
      </trkpt>
      <trkpt lat="42.6297" lon="1.71958">
        <ele>2108.31</ele>
        <time>2022-07-20T13:31:34Z</time>
      </trkpt>
      <trkpt lat="42.62974" lon="1.71968">
        <ele>2106.39</ele>
        <time>2022-07-20T13:31:46Z</time>
      </trkpt>
      <trkpt lat="42.62978" lon="1.71971">
        <ele>2105.42</ele>
        <time>2022-07-20T13:31:59Z</time>
      </trkpt>
      <trkpt lat="42.62981" lon="1.71965">
        <ele>2103.98</ele>
        <time>2022-07-20T13:32:08Z</time>
      </trkpt>
      <trkpt lat="42.62985" lon="1.71961">
        <ele>2102.06</ele>
        <time>2022-07-20T13:32:19Z</time>
      </trkpt>
      <trkpt lat="42.62986" lon="1.71969">
        <ele>2100.62</ele>
        <time>2022-07-20T13:32:32Z</time>
      </trkpt>
      <trkpt lat="42.62979" lon="1.71983">
        <ele>2099.66</ele>
        <time>2022-07-20T13:32:48Z</time>
      </trkpt>
      <trkpt lat="42.62976" lon="1.7199">
        <ele>2098.21</ele>
        <time>2022-07-20T13:33:02Z</time>
      </trkpt>
      <trkpt lat="42.62971" lon="1.71998">
        <ele>2096.77</ele>
        <time>2022-07-20T13:33:16Z</time>
      </trkpt>
      <trkpt lat="42.62967" lon="1.72002">
        <ele>2095.81</ele>
        <time>2022-07-20T13:33:33Z</time>
      </trkpt>
      <trkpt lat="42.62968" lon="1.72007">
        <ele>2094.85</ele>
        <time>2022-07-20T13:33:46Z</time>
      </trkpt>
      <trkpt lat="42.62968" lon="1.72015">
        <ele>2092.93</ele>
        <time>2022-07-20T13:34:01Z</time>
      </trkpt>
      <trkpt lat="42.62968" lon="1.72018">
        <ele>2091.97</ele>
        <time>2022-07-20T13:34:13Z</time>
      </trkpt>
      <trkpt lat="42.62968" lon="1.72025">
        <ele>2091</ele>
        <time>2022-07-20T13:34:27Z</time>
      </trkpt>
      <trkpt lat="42.62967" lon="1.72032">
        <ele>2090.04</ele>
        <time>2022-07-20T13:34:42Z</time>
      </trkpt>
      <trkpt lat="42.62968" lon="1.72036">
        <ele>2090.04</ele>
        <time>2022-07-20T13:34:55Z</time>
      </trkpt>
      <trkpt lat="42.62971" lon="1.72042">
        <ele>2088.12</ele>
        <time>2022-07-20T13:35:10Z</time>
      </trkpt>
      <trkpt lat="42.62972" lon="1.72049">
        <ele>2087.16</ele>
        <time>2022-07-20T13:35:23Z</time>
      </trkpt>
      <trkpt lat="42.62973" lon="1.72057">
        <ele>2086.68</ele>
        <time>2022-07-20T13:35:35Z</time>
      </trkpt>
      <trkpt lat="42.62976" lon="1.72062">
        <ele>2085.24</ele>
        <time>2022-07-20T13:35:47Z</time>
      </trkpt>
      <trkpt lat="42.62979" lon="1.72063">
        <ele>2083.79</ele>
        <time>2022-07-20T13:36:01Z</time>
      </trkpt>
      <trkpt lat="42.62982" lon="1.72067">
        <ele>2081.87</ele>
        <time>2022-07-20T13:36:15Z</time>
      </trkpt>
      <trkpt lat="42.62984" lon="1.72078">
        <ele>2080.43</ele>
        <time>2022-07-20T13:36:29Z</time>
      </trkpt>
      <trkpt lat="42.62984" lon="1.7208">
        <ele>2080.43</ele>
        <time>2022-07-20T13:36:43Z</time>
      </trkpt>
      <trkpt lat="42.62988" lon="1.72077">
        <ele>2079.47</ele>
        <time>2022-07-20T13:36:55Z</time>
      </trkpt>
      <trkpt lat="42.62993" lon="1.72082">
        <ele>2077.55</ele>
        <time>2022-07-20T13:37:06Z</time>
      </trkpt>
      <trkpt lat="42.62997" lon="1.7209">
        <ele>2077.55</ele>
        <time>2022-07-20T13:37:20Z</time>
      </trkpt>
      <trkpt lat="42.63001" lon="1.72097">
        <ele>2077.55</ele>
        <time>2022-07-20T13:37:32Z</time>
      </trkpt>
      <trkpt lat="42.63004" lon="1.72105">
        <ele>2077.55</ele>
        <time>2022-07-20T13:37:47Z</time>
      </trkpt>
      <trkpt lat="42.63003" lon="1.72109">
        <ele>2077.55</ele>
        <time>2022-07-20T13:38:00Z</time>
      </trkpt>
      <trkpt lat="42.63003" lon="1.72117">
        <ele>2077.55</ele>
        <time>2022-07-20T13:38:13Z</time>
      </trkpt>
      <trkpt lat="42.63003" lon="1.72127">
        <ele>2078.51</ele>
        <time>2022-07-20T13:38:29Z</time>
      </trkpt>
      <trkpt lat="42.63003" lon="1.72137">
        <ele>2079.95</ele>
        <time>2022-07-20T13:38:42Z</time>
      </trkpt>
      <trkpt lat="42.63002" lon="1.72148">
        <ele>2079.95</ele>
        <time>2022-07-20T13:38:55Z</time>
      </trkpt>
      <trkpt lat="42.63001" lon="1.7215">
        <ele>2082.35</ele>
        <time>2022-07-20T13:38:58Z</time>
      </trkpt>
      <trkpt lat="42.63002" lon="1.72153">
        <ele>2080.91</ele>
        <time>2022-07-20T13:39:01Z</time>
      </trkpt>
      <trkpt lat="42.63002" lon="1.72163">
        <ele>2081.87</ele>
        <time>2022-07-20T13:39:14Z</time>
      </trkpt>
      <trkpt lat="42.62999" lon="1.7217">
        <ele>2083.31</ele>
        <time>2022-07-20T13:39:27Z</time>
      </trkpt>
      <trkpt lat="42.63002" lon="1.72171">
        <ele>2083.31</ele>
        <time>2022-07-20T13:39:47Z</time>
      </trkpt>
      <trkpt lat="42.63006" lon="1.72172">
        <ele>2083.31</ele>
        <time>2022-07-20T13:40:05Z</time>
      </trkpt>
      <trkpt lat="42.63003" lon="1.72173">
        <ele>2082.35</ele>
        <time>2022-07-20T13:40:15Z</time>
      </trkpt>
      <trkpt lat="42.63001" lon="1.72176">
        <ele>2083.79</ele>
        <time>2022-07-20T13:40:22Z</time>
      </trkpt>
      <trkpt lat="42.63001" lon="1.72184">
        <ele>2085.72</ele>
        <time>2022-07-20T13:40:35Z</time>
      </trkpt>
      <trkpt lat="42.63004" lon="1.72192">
        <ele>2086.68</ele>
        <time>2022-07-20T13:40:49Z</time>
      </trkpt>
      <trkpt lat="42.63007" lon="1.72204">
        <ele>2087.64</ele>
        <time>2022-07-20T13:41:03Z</time>
      </trkpt>
      <trkpt lat="42.63007" lon="1.72212">
        <ele>2088.6</ele>
        <time>2022-07-20T13:41:14Z</time>
      </trkpt>
      <trkpt lat="42.63007" lon="1.72217">
        <ele>2088.6</ele>
        <time>2022-07-20T13:41:29Z</time>
      </trkpt>
      <trkpt lat="42.63008" lon="1.7222">
        <ele>2089.08</ele>
        <time>2022-07-20T13:41:45Z</time>
      </trkpt>
      <trkpt lat="42.63012" lon="1.72226">
        <ele>2089.08</ele>
        <time>2022-07-20T13:41:57Z</time>
      </trkpt>
      <trkpt lat="42.63012" lon="1.72235">
        <ele>2089.56</ele>
        <time>2022-07-20T13:42:10Z</time>
      </trkpt>
      <trkpt lat="42.63014" lon="1.72243">
        <ele>2090.52</ele>
        <time>2022-07-20T13:42:22Z</time>
      </trkpt>
      <trkpt lat="42.6301" lon="1.72248">
        <ele>2091.97</ele>
        <time>2022-07-20T13:42:35Z</time>
      </trkpt>
      <trkpt lat="42.63004" lon="1.72263">
        <ele>2091.97</ele>
        <time>2022-07-20T13:42:52Z</time>
      </trkpt>
      <trkpt lat="42.62998" lon="1.72273">
        <ele>2092.45</ele>
        <time>2022-07-20T13:43:09Z</time>
      </trkpt>
      <trkpt lat="42.62997" lon="1.72278">
        <ele>2092.45</ele>
        <time>2022-07-20T13:43:22Z</time>
      </trkpt>
      <trkpt lat="42.62993" lon="1.72281">
        <ele>2093.41</ele>
        <time>2022-07-20T13:43:36Z</time>
      </trkpt>
      <trkpt lat="42.62989" lon="1.72285">
        <ele>2094.85</ele>
        <time>2022-07-20T13:43:48Z</time>
      </trkpt>
      <trkpt lat="42.62987" lon="1.72295">
        <ele>2096.29</ele>
        <time>2022-07-20T13:44:02Z</time>
      </trkpt>
      <trkpt lat="42.62985" lon="1.72302">
        <ele>2097.25</ele>
        <time>2022-07-20T13:44:16Z</time>
      </trkpt>
      <trkpt lat="42.62986" lon="1.7231">
        <ele>2097.25</ele>
        <time>2022-07-20T13:44:31Z</time>
      </trkpt>
      <trkpt lat="42.62984" lon="1.7232">
        <ele>2097.25</ele>
        <time>2022-07-20T13:44:45Z</time>
      </trkpt>
      <trkpt lat="42.62981" lon="1.72328">
        <ele>2097.25</ele>
        <time>2022-07-20T13:44:58Z</time>
      </trkpt>
      <trkpt lat="42.62981" lon="1.72329">
        <ele>2097.25</ele>
        <time>2022-07-20T13:44:59Z</time>
      </trkpt>
      <trkpt lat="42.62978" lon="1.72332">
        <ele>2097.25</ele>
        <time>2022-07-20T13:45:14Z</time>
      </trkpt>
      <trkpt lat="42.62979" lon="1.72329">
        <ele>2097.25</ele>
        <time>2022-07-20T13:45:44Z</time>
      </trkpt>
      <trkpt lat="42.62971" lon="1.72339">
        <ele>2095.81</ele>
        <time>2022-07-20T13:45:57Z</time>
      </trkpt>
      <trkpt lat="42.62966" lon="1.72344">
        <ele>2095.81</ele>
        <time>2022-07-20T13:46:09Z</time>
      </trkpt>
      <trkpt lat="42.62962" lon="1.72352">
        <ele>2097.73</ele>
        <time>2022-07-20T13:46:20Z</time>
      </trkpt>
      <trkpt lat="42.62964" lon="1.72354">
        <ele>2098.21</ele>
        <time>2022-07-20T13:46:37Z</time>
      </trkpt>
      <trkpt lat="42.62964" lon="1.72363">
        <ele>2098.21</ele>
        <time>2022-07-20T13:46:51Z</time>
      </trkpt>
      <trkpt lat="42.62963" lon="1.7237">
        <ele>2098.21</ele>
        <time>2022-07-20T13:47:05Z</time>
      </trkpt>
      <trkpt lat="42.62963" lon="1.72373">
        <ele>2096.77</ele>
        <time>2022-07-20T13:47:10Z</time>
      </trkpt>
      <trkpt lat="42.62961" lon="1.7238">
        <ele>2096.77</ele>
        <time>2022-07-20T13:47:24Z</time>
      </trkpt>
      <trkpt lat="42.62962" lon="1.72387">
        <ele>2098.21</ele>
        <time>2022-07-20T13:47:38Z</time>
      </trkpt>
      <trkpt lat="42.62962" lon="1.72388">
        <ele>2098.21</ele>
        <time>2022-07-20T13:47:40Z</time>
      </trkpt>
      <trkpt lat="42.62966" lon="1.72391">
        <ele>2100.14</ele>
        <time>2022-07-20T13:47:53Z</time>
      </trkpt>
      <trkpt lat="42.62972" lon="1.72392">
        <ele>2101.1</ele>
        <time>2022-07-20T13:48:05Z</time>
      </trkpt>
      <trkpt lat="42.62973" lon="1.72396">
        <ele>2102.06</ele>
        <time>2022-07-20T13:48:16Z</time>
      </trkpt>
      <trkpt lat="42.62973" lon="1.724">
        <ele>2103.02</ele>
        <time>2022-07-20T13:48:36Z</time>
      </trkpt>
      <trkpt lat="42.62971" lon="1.72405">
        <ele>2103.98</ele>
        <time>2022-07-20T13:48:48Z</time>
      </trkpt>
      <trkpt lat="42.62972" lon="1.72411">
        <ele>2104.94</ele>
        <time>2022-07-20T13:49:04Z</time>
      </trkpt>
      <trkpt lat="42.6297" lon="1.72418">
        <ele>2106.39</ele>
        <time>2022-07-20T13:49:16Z</time>
      </trkpt>
      <trkpt lat="42.62968" lon="1.7242">
        <ele>2106.39</ele>
        <time>2022-07-20T13:49:30Z</time>
      </trkpt>
      <trkpt lat="42.62962" lon="1.72432">
        <ele>2106.39</ele>
        <time>2022-07-20T13:49:46Z</time>
      </trkpt>
      <trkpt lat="42.62955" lon="1.72449">
        <ele>2106.87</ele>
        <time>2022-07-20T13:50:03Z</time>
      </trkpt>
      <trkpt lat="42.62955" lon="1.72453">
        <ele>2106.87</ele>
        <time>2022-07-20T13:50:06Z</time>
      </trkpt>
      <trkpt lat="42.62953" lon="1.72465">
        <ele>2107.83</ele>
        <time>2022-07-20T13:50:20Z</time>
      </trkpt>
      <trkpt lat="42.62954" lon="1.72467">
        <ele>2107.83</ele>
        <time>2022-07-20T13:50:22Z</time>
      </trkpt>
      <trkpt lat="42.62959" lon="1.72475">
        <ele>2108.79</ele>
        <time>2022-07-20T13:50:36Z</time>
      </trkpt>
      <trkpt lat="42.62961" lon="1.72483">
        <ele>2108.79</ele>
        <time>2022-07-20T13:50:48Z</time>
      </trkpt>
      <trkpt lat="42.62967" lon="1.7249">
        <ele>2108.79</ele>
        <time>2022-07-20T13:51:01Z</time>
      </trkpt>
      <trkpt lat="42.6297" lon="1.72496">
        <ele>2107.83</ele>
        <time>2022-07-20T13:51:14Z</time>
      </trkpt>
      <trkpt lat="42.62971" lon="1.72505">
        <ele>2107.35</ele>
        <time>2022-07-20T13:51:26Z</time>
      </trkpt>
      <trkpt lat="42.62972" lon="1.72506">
        <ele>2107.35</ele>
        <time>2022-07-20T13:51:52Z</time>
      </trkpt>
      <trkpt lat="42.62972" lon="1.72505">
        <ele>2107.35</ele>
        <time>2022-07-20T13:52:16Z</time>
      </trkpt>
      <trkpt lat="42.6297" lon="1.72503">
        <ele>2112.63</ele>
        <time>2022-07-20T13:52:31Z</time>
      </trkpt>
      <trkpt lat="42.6297" lon="1.72504">
        <ele>2108.31</ele>
        <time>2022-07-20T13:52:32Z</time>
      </trkpt>
      <trkpt lat="42.62971" lon="1.72504">
        <ele>2107.35</ele>
        <time>2022-07-20T13:52:56Z</time>
      </trkpt>
      <trkpt lat="42.6297" lon="1.72505">
        <ele>2107.35</ele>
        <time>2022-07-20T13:53:12Z</time>
      </trkpt>
      <trkpt lat="42.62971" lon="1.72507">
        <ele>2106.87</ele>
        <time>2022-07-20T13:53:41Z</time>
      </trkpt>
      <trkpt lat="42.62969" lon="1.72507">
        <ele>2106.39</ele>
        <time>2022-07-20T13:54:13Z</time>
      </trkpt>
      <trkpt lat="42.62967" lon="1.72506">
        <ele>2106.39</ele>
        <time>2022-07-20T13:54:48Z</time>
      </trkpt>
      <trkpt lat="42.62967" lon="1.72505">
        <ele>2106.39</ele>
        <time>2022-07-20T13:55:21Z</time>
      </trkpt>
      <trkpt lat="42.6297" lon="1.72506">
        <ele>2106.39</ele>
        <time>2022-07-20T13:55:53Z</time>
      </trkpt>
      <trkpt lat="42.62974" lon="1.7251">
        <ele>2106.39</ele>
        <time>2022-07-20T13:56:07Z</time>
      </trkpt>
      <trkpt lat="42.62979" lon="1.72516">
        <ele>2104.46</ele>
        <time>2022-07-20T13:56:20Z</time>
      </trkpt>
      <trkpt lat="42.62982" lon="1.7252">
        <ele>2102.54</ele>
        <time>2022-07-20T13:56:35Z</time>
      </trkpt>
      <trkpt lat="42.62987" lon="1.72527">
        <ele>2100.14</ele>
        <time>2022-07-20T13:56:53Z</time>
      </trkpt>
      <trkpt lat="42.62989" lon="1.72535">
        <ele>2099.66</ele>
        <time>2022-07-20T13:57:01Z</time>
      </trkpt>
      <trkpt lat="42.62989" lon="1.72538">
        <ele>2099.18</ele>
        <time>2022-07-20T13:57:03Z</time>
      </trkpt>
      <trkpt lat="42.62991" lon="1.72552">
        <ele>2099.18</ele>
        <time>2022-07-20T13:57:15Z</time>
      </trkpt>
      <trkpt lat="42.6299" lon="1.7256">
        <ele>2098.7</ele>
        <time>2022-07-20T13:57:29Z</time>
      </trkpt>
      <trkpt lat="42.62988" lon="1.7257">
        <ele>2097.25</ele>
        <time>2022-07-20T13:57:41Z</time>
      </trkpt>
      <trkpt lat="42.62986" lon="1.72574">
        <ele>2096.29</ele>
        <time>2022-07-20T13:57:48Z</time>
      </trkpt>
      <trkpt lat="42.62982" lon="1.72584">
        <ele>2095.81</ele>
        <time>2022-07-20T13:58:02Z</time>
      </trkpt>
      <trkpt lat="42.62983" lon="1.72585">
        <ele>2095.81</ele>
        <time>2022-07-20T13:58:13Z</time>
      </trkpt>
      <trkpt lat="42.62983" lon="1.72588">
        <ele>2095.81</ele>
        <time>2022-07-20T13:58:24Z</time>
      </trkpt>
      <trkpt lat="42.62984" lon="1.72594">
        <ele>2095.81</ele>
        <time>2022-07-20T13:58:35Z</time>
      </trkpt>
      <trkpt lat="42.62984" lon="1.7259">
        <ele>2095.81</ele>
        <time>2022-07-20T13:58:48Z</time>
      </trkpt>
      <trkpt lat="42.62983" lon="1.72593">
        <ele>2095.81</ele>
        <time>2022-07-20T13:59:06Z</time>
      </trkpt>
      <trkpt lat="42.6298" lon="1.72592">
        <ele>2097.73</ele>
        <time>2022-07-20T13:59:22Z</time>
      </trkpt>
      <trkpt lat="42.62976" lon="1.72596">
        <ele>2097.73</ele>
        <time>2022-07-20T13:59:34Z</time>
      </trkpt>
      <trkpt lat="42.6297" lon="1.72588">
        <ele>2096.29</ele>
        <time>2022-07-20T13:59:47Z</time>
      </trkpt>
      <trkpt lat="42.62969" lon="1.7259">
        <ele>2096.29</ele>
        <time>2022-07-20T14:00:06Z</time>
      </trkpt>
      <trkpt lat="42.62962" lon="1.7259">
        <ele>2096.29</ele>
        <time>2022-07-20T14:00:18Z</time>
      </trkpt>
      <trkpt lat="42.62957" lon="1.72584">
        <ele>2096.29</ele>
        <time>2022-07-20T14:00:32Z</time>
      </trkpt>
      <trkpt lat="42.62954" lon="1.7258">
        <ele>2096.29</ele>
        <time>2022-07-20T14:00:45Z</time>
      </trkpt>
      <trkpt lat="42.62946" lon="1.7258">
        <ele>2096.29</ele>
        <time>2022-07-20T14:00:57Z</time>
      </trkpt>
      <trkpt lat="42.62936" lon="1.72582">
        <ele>2096.29</ele>
        <time>2022-07-20T14:01:11Z</time>
      </trkpt>
      <trkpt lat="42.6293" lon="1.72588">
        <ele>2097.73</ele>
        <time>2022-07-20T14:01:20Z</time>
      </trkpt>
      <trkpt lat="42.62917" lon="1.7259">
        <ele>2098.21</ele>
        <time>2022-07-20T14:01:36Z</time>
      </trkpt>
      <trkpt lat="42.62909" lon="1.72596">
        <ele>2099.18</ele>
        <time>2022-07-20T14:01:49Z</time>
      </trkpt>
      <trkpt lat="42.62906" lon="1.72598">
        <ele>2099.66</ele>
        <time>2022-07-20T14:01:53Z</time>
      </trkpt>
      <trkpt lat="42.62903" lon="1.72599">
        <ele>2099.66</ele>
        <time>2022-07-20T14:01:56Z</time>
      </trkpt>
      <trkpt lat="42.62892" lon="1.72608">
        <ele>2100.62</ele>
        <time>2022-07-20T14:02:10Z</time>
      </trkpt>
      <trkpt lat="42.6289" lon="1.72611">
        <ele>2100.62</ele>
        <time>2022-07-20T14:02:23Z</time>
      </trkpt>
      <trkpt lat="42.62885" lon="1.72617">
        <ele>2099.18</ele>
        <time>2022-07-20T14:02:30Z</time>
      </trkpt>
      <trkpt lat="42.62881" lon="1.72619">
        <ele>2098.7</ele>
        <time>2022-07-20T14:02:36Z</time>
      </trkpt>
      <trkpt lat="42.62867" lon="1.72626">
        <ele>2097.25</ele>
        <time>2022-07-20T14:02:52Z</time>
      </trkpt>
      <trkpt lat="42.62856" lon="1.72634">
        <ele>2098.7</ele>
        <time>2022-07-20T14:03:07Z</time>
      </trkpt>
      <trkpt lat="42.62849" lon="1.72642">
        <ele>2099.18</ele>
        <time>2022-07-20T14:03:20Z</time>
      </trkpt>
      <trkpt lat="42.62847" lon="1.72643">
        <ele>2099.18</ele>
        <time>2022-07-20T14:03:22Z</time>
      </trkpt>
      <trkpt lat="42.62841" lon="1.72649">
        <ele>2100.14</ele>
        <time>2022-07-20T14:03:42Z</time>
      </trkpt>
      <trkpt lat="42.62841" lon="1.72648">
        <ele>2098.7</ele>
        <time>2022-07-20T14:03:45Z</time>
      </trkpt>
      <trkpt lat="42.62843" lon="1.72647">
        <ele>2100.62</ele>
        <time>2022-07-20T14:04:05Z</time>
      </trkpt>
      <trkpt lat="42.62841" lon="1.72644">
        <ele>2100.62</ele>
        <time>2022-07-20T14:04:26Z</time>
      </trkpt>
      <trkpt lat="42.62837" lon="1.72652">
        <ele>2100.62</ele>
        <time>2022-07-20T14:04:38Z</time>
      </trkpt>
      <trkpt lat="42.6283" lon="1.72664">
        <ele>2101.58</ele>
        <time>2022-07-20T14:04:54Z</time>
      </trkpt>
      <trkpt lat="42.62828" lon="1.72665">
        <ele>2102.54</ele>
        <time>2022-07-20T14:04:58Z</time>
      </trkpt>
      <trkpt lat="42.62826" lon="1.72663">
        <ele>2101.58</ele>
        <time>2022-07-20T14:05:10Z</time>
      </trkpt>
      <trkpt lat="42.6282" lon="1.72672">
        <ele>2101.58</ele>
        <time>2022-07-20T14:05:25Z</time>
      </trkpt>
      <trkpt lat="42.62816" lon="1.72681">
        <ele>2103.02</ele>
        <time>2022-07-20T14:05:35Z</time>
      </trkpt>
      <trkpt lat="42.6281" lon="1.72689">
        <ele>2104.46</ele>
        <time>2022-07-20T14:05:49Z</time>
      </trkpt>
      <trkpt lat="42.62804" lon="1.72692">
        <ele>2105.91</ele>
        <time>2022-07-20T14:06:02Z</time>
      </trkpt>
      <trkpt lat="42.62801" lon="1.72695">
        <ele>2106.87</ele>
        <time>2022-07-20T14:06:14Z</time>
      </trkpt>
      <trkpt lat="42.62798" lon="1.72698">
        <ele>2108.31</ele>
        <time>2022-07-20T14:06:26Z</time>
      </trkpt>
      <trkpt lat="42.62793" lon="1.727">
        <ele>2108.79</ele>
        <time>2022-07-20T14:06:39Z</time>
      </trkpt>
      <trkpt lat="42.62787" lon="1.72696">
        <ele>2109.75</ele>
        <time>2022-07-20T14:06:52Z</time>
      </trkpt>
      <trkpt lat="42.62785" lon="1.72691">
        <ele>2110.23</ele>
        <time>2022-07-20T14:07:00Z</time>
      </trkpt>
      <trkpt lat="42.62782" lon="1.72692">
        <ele>2112.15</ele>
        <time>2022-07-20T14:07:12Z</time>
      </trkpt>
      <trkpt lat="42.62779" lon="1.72688">
        <ele>2112.63</ele>
        <time>2022-07-20T14:07:25Z</time>
      </trkpt>
      <trkpt lat="42.62778" lon="1.72685">
        <ele>2113.6</ele>
        <time>2022-07-20T14:07:36Z</time>
      </trkpt>
      <trkpt lat="42.62776" lon="1.72683">
        <ele>2114.56</ele>
        <time>2022-07-20T14:07:51Z</time>
      </trkpt>
      <trkpt lat="42.62774" lon="1.72687">
        <ele>2114.56</ele>
        <time>2022-07-20T14:08:11Z</time>
      </trkpt>
      <trkpt lat="42.62767" lon="1.72689">
        <ele>2116.48</ele>
        <time>2022-07-20T14:08:25Z</time>
      </trkpt>
      <trkpt lat="42.62766" lon="1.72691">
        <ele>2116.48</ele>
        <time>2022-07-20T14:08:44Z</time>
      </trkpt>
      <trkpt lat="42.62762" lon="1.72692">
        <ele>2116.96</ele>
        <time>2022-07-20T14:09:00Z</time>
      </trkpt>
      <trkpt lat="42.62752" lon="1.72694">
        <ele>2116.96</ele>
        <time>2022-07-20T14:09:14Z</time>
      </trkpt>
      <trkpt lat="42.62747" lon="1.72695">
        <ele>2116.96</ele>
        <time>2022-07-20T14:09:28Z</time>
      </trkpt>
      <trkpt lat="42.62741" lon="1.72694">
        <ele>2118.4</ele>
        <time>2022-07-20T14:09:40Z</time>
      </trkpt>
      <trkpt lat="42.62734" lon="1.72693">
        <ele>2119.84</ele>
        <time>2022-07-20T14:09:54Z</time>
      </trkpt>
      <trkpt lat="42.62734" lon="1.72693">
        <ele>2120.81</ele>
        <time>2022-07-20T14:10:18Z</time>
      </trkpt>
      <trkpt lat="42.62734" lon="1.72694">
        <ele>2120.81</ele>
        <time>2022-07-20T14:10:39Z</time>
      </trkpt>
      <trkpt lat="42.62732" lon="1.72694">
        <ele>2120.81</ele>
        <time>2022-07-20T14:11:03Z</time>
      </trkpt>
      <trkpt lat="42.62731" lon="1.72691">
        <ele>2121.29</ele>
        <time>2022-07-20T14:11:35Z</time>
      </trkpt>
      <trkpt lat="42.62737" lon="1.72683">
        <ele>2121.29</ele>
        <time>2022-07-20T14:11:49Z</time>
      </trkpt>
      <trkpt lat="42.62738" lon="1.72679">
        <ele>2121.77</ele>
        <time>2022-07-20T14:12:01Z</time>
      </trkpt>
      <trkpt lat="42.62737" lon="1.72681">
        <ele>2121.77</ele>
        <time>2022-07-20T14:12:19Z</time>
      </trkpt>
      <trkpt lat="42.62735" lon="1.7268">
        <ele>2121.77</ele>
        <time>2022-07-20T14:12:35Z</time>
      </trkpt>
      <trkpt lat="42.62735" lon="1.72681">
        <ele>2120.81</ele>
        <time>2022-07-20T14:12:45Z</time>
      </trkpt>
      <trkpt lat="42.62735" lon="1.72683">
        <ele>2120.32</ele>
        <time>2022-07-20T14:13:00Z</time>
      </trkpt>
      <trkpt lat="42.62738" lon="1.72682">
        <ele>2120.32</ele>
        <time>2022-07-20T14:13:38Z</time>
      </trkpt>
      <trkpt lat="42.62738" lon="1.72679">
        <ele>2120.32</ele>
        <time>2022-07-20T14:14:28Z</time>
      </trkpt>
      <trkpt lat="42.62739" lon="1.72682">
        <ele>2119.84</ele>
        <time>2022-07-20T14:15:09Z</time>
      </trkpt>
      <trkpt lat="42.62739" lon="1.72685">
        <ele>2119.84</ele>
        <time>2022-07-20T14:15:53Z</time>
      </trkpt>
      <trkpt lat="42.62738" lon="1.72686">
        <ele>2119.84</ele>
        <time>2022-07-20T14:16:25Z</time>
      </trkpt>
      <trkpt lat="42.62736" lon="1.72685">
        <ele>2119.84</ele>
        <time>2022-07-20T14:16:51Z</time>
      </trkpt>
      <trkpt lat="42.62735" lon="1.72682">
        <ele>2119.36</ele>
        <time>2022-07-20T14:17:41Z</time>
      </trkpt>
      <trkpt lat="42.62737" lon="1.72683">
        <ele>2119.36</ele>
        <time>2022-07-20T14:18:26Z</time>
      </trkpt>
      <trkpt lat="42.62738" lon="1.72683">
        <ele>2118.88</ele>
        <time>2022-07-20T14:19:05Z</time>
      </trkpt>
      <trkpt lat="42.62734" lon="1.72684">
        <ele>2118.4</ele>
        <time>2022-07-20T14:20:05Z</time>
      </trkpt>
      <trkpt lat="42.62736" lon="1.72681">
        <ele>2118.4</ele>
        <time>2022-07-20T14:20:51Z</time>
      </trkpt>
      <trkpt lat="42.62733" lon="1.72681">
        <ele>2118.4</ele>
        <time>2022-07-20T14:21:28Z</time>
      </trkpt>
      <trkpt lat="42.62735" lon="1.7268">
        <ele>2119.36</ele>
        <time>2022-07-20T14:21:56Z</time>
      </trkpt>
      <trkpt lat="42.62731" lon="1.72681">
        <ele>2119.36</ele>
        <time>2022-07-20T14:22:47Z</time>
      </trkpt>
      <trkpt lat="42.62731" lon="1.72682">
        <ele>2118.88</ele>
        <time>2022-07-20T14:23:27Z</time>
      </trkpt>
      <trkpt lat="42.62731" lon="1.72679">
        <ele>2119.84</ele>
        <time>2022-07-20T14:23:59Z</time>
      </trkpt>
      <trkpt lat="42.6273" lon="1.72683">
        <ele>2119.84</ele>
        <time>2022-07-20T14:24:43Z</time>
      </trkpt>
      <trkpt lat="42.62731" lon="1.72679">
        <ele>2118.4</ele>
        <time>2022-07-20T14:25:20Z</time>
      </trkpt>
      <trkpt lat="42.62735" lon="1.72687">
        <ele>2118.88</ele>
        <time>2022-07-20T14:25:56Z</time>
      </trkpt>
      <trkpt lat="42.62732" lon="1.72687">
        <ele>2118.4</ele>
        <time>2022-07-20T14:26:31Z</time>
      </trkpt>
      <trkpt lat="42.62728" lon="1.72687">
        <ele>2118.4</ele>
        <time>2022-07-20T14:27:07Z</time>
      </trkpt>
      <trkpt lat="42.62733" lon="1.72684">
        <ele>2119.36</ele>
        <time>2022-07-20T14:27:34Z</time>
      </trkpt>
      <trkpt lat="42.62727" lon="1.72682">
        <ele>2119.36</ele>
        <time>2022-07-20T14:28:06Z</time>
      </trkpt>
      <trkpt lat="42.62727" lon="1.7268">
        <ele>2119.84</ele>
        <time>2022-07-20T14:28:40Z</time>
      </trkpt>
      <trkpt lat="42.62732" lon="1.72682">
        <ele>2120.32</ele>
        <time>2022-07-20T14:29:18Z</time>
      </trkpt>
      <trkpt lat="42.62735" lon="1.72684">
        <ele>2120.32</ele>
        <time>2022-07-20T14:29:52Z</time>
      </trkpt>
      <trkpt lat="42.62737" lon="1.72685">
        <ele>2120.81</ele>
        <time>2022-07-20T14:30:36Z</time>
      </trkpt>
      <trkpt lat="42.62736" lon="1.72688">
        <ele>2119.36</ele>
        <time>2022-07-20T14:31:14Z</time>
      </trkpt>
      <trkpt lat="42.62736" lon="1.72684">
        <ele>2119.36</ele>
        <time>2022-07-20T14:31:48Z</time>
      </trkpt>
      <trkpt lat="42.62732" lon="1.72682">
        <ele>2119.36</ele>
        <time>2022-07-20T14:32:35Z</time>
      </trkpt>
      <trkpt lat="42.62737" lon="1.72682">
        <ele>2118.88</ele>
        <time>2022-07-20T14:33:15Z</time>
      </trkpt>
      <trkpt lat="42.62732" lon="1.72683">
        <ele>2118.88</ele>
        <time>2022-07-20T14:33:49Z</time>
      </trkpt>
      <trkpt lat="42.62739" lon="1.72684">
        <ele>2118.88</ele>
        <time>2022-07-20T14:34:25Z</time>
      </trkpt>
      <trkpt lat="42.62737" lon="1.72682">
        <ele>2118.88</ele>
        <time>2022-07-20T14:34:56Z</time>
      </trkpt>
      <trkpt lat="42.62735" lon="1.72687">
        <ele>2118.88</ele>
        <time>2022-07-20T14:35:28Z</time>
      </trkpt>
      <trkpt lat="42.62735" lon="1.72686">
        <ele>2119.36</ele>
        <time>2022-07-20T14:35:59Z</time>
      </trkpt>
      <trkpt lat="42.62734" lon="1.72687">
        <ele>2119.36</ele>
        <time>2022-07-20T14:36:29Z</time>
      </trkpt>
      <trkpt lat="42.62738" lon="1.72689">
        <ele>2119.36</ele>
        <time>2022-07-20T14:37:05Z</time>
      </trkpt>
      <trkpt lat="42.62738" lon="1.72684">
        <ele>2119.84</ele>
        <time>2022-07-20T14:37:42Z</time>
      </trkpt>
      <trkpt lat="42.62735" lon="1.72683">
        <ele>2119.84</ele>
        <time>2022-07-20T14:38:14Z</time>
      </trkpt>
      <trkpt lat="42.62733" lon="1.72688">
        <ele>2119.84</ele>
        <time>2022-07-20T14:38:48Z</time>
      </trkpt>
      <trkpt lat="42.62732" lon="1.72688">
        <ele>2121.29</ele>
        <time>2022-07-20T14:38:58Z</time>
      </trkpt>
      <trkpt lat="42.62734" lon="1.72682">
        <ele>2121.29</ele>
        <time>2022-07-20T14:39:38Z</time>
      </trkpt>
      <trkpt lat="42.62735" lon="1.72685">
        <ele>2121.77</ele>
        <time>2022-07-20T14:40:20Z</time>
      </trkpt>
      <trkpt lat="42.62734" lon="1.72681">
        <ele>2120.32</ele>
        <time>2022-07-20T14:41:03Z</time>
      </trkpt>
      <trkpt lat="42.62734" lon="1.72687">
        <ele>2120.32</ele>
        <time>2022-07-20T14:41:35Z</time>
      </trkpt>
      <trkpt lat="42.62736" lon="1.72686">
        <ele>2120.32</ele>
        <time>2022-07-20T14:42:05Z</time>
      </trkpt>
      <trkpt lat="42.62738" lon="1.72688">
        <ele>2120.81</ele>
        <time>2022-07-20T14:42:41Z</time>
      </trkpt>
      <trkpt lat="42.62736" lon="1.72683">
        <ele>2120.81</ele>
        <time>2022-07-20T14:43:17Z</time>
      </trkpt>
      <trkpt lat="42.62732" lon="1.72686">
        <ele>2120.81</ele>
        <time>2022-07-20T14:43:49Z</time>
      </trkpt>
      <trkpt lat="42.62732" lon="1.72688">
        <ele>2122.25</ele>
        <time>2022-07-20T14:43:57Z</time>
      </trkpt>
      <trkpt lat="42.62735" lon="1.72683">
        <ele>2122.25</ele>
        <time>2022-07-20T14:44:34Z</time>
      </trkpt>
      <trkpt lat="42.62733" lon="1.72685">
        <ele>2122.73</ele>
        <time>2022-07-20T14:45:17Z</time>
      </trkpt>
      <trkpt lat="42.62732" lon="1.72684">
        <ele>2121.77</ele>
        <time>2022-07-20T14:45:52Z</time>
      </trkpt>
      <trkpt lat="42.62735" lon="1.72687">
        <ele>2121.29</ele>
        <time>2022-07-20T14:46:19Z</time>
      </trkpt>
      <trkpt lat="42.62731" lon="1.72681">
        <ele>2121.29</ele>
        <time>2022-07-20T14:46:57Z</time>
      </trkpt>
      <trkpt lat="42.62729" lon="1.72678">
        <ele>2121.77</ele>
        <time>2022-07-20T14:47:29Z</time>
      </trkpt>
      <trkpt lat="42.62735" lon="1.72683">
        <ele>2121.77</ele>
        <time>2022-07-20T14:48:02Z</time>
      </trkpt>
      <trkpt lat="42.62734" lon="1.7268">
        <ele>2121.77</ele>
        <time>2022-07-20T14:48:30Z</time>
      </trkpt>
      <trkpt lat="42.62736" lon="1.72681">
        <ele>2121.77</ele>
        <time>2022-07-20T14:49:04Z</time>
      </trkpt>
      <trkpt lat="42.62738" lon="1.7268">
        <ele>2123.21</ele>
        <time>2022-07-20T14:49:40Z</time>
      </trkpt>
      <trkpt lat="42.62734" lon="1.72677">
        <ele>2123.21</ele>
        <time>2022-07-20T14:50:12Z</time>
      </trkpt>
      <trkpt lat="42.62732" lon="1.72678">
        <ele>2123.21</ele>
        <time>2022-07-20T14:50:43Z</time>
      </trkpt>
      <trkpt lat="42.62731" lon="1.72676">
        <ele>2123.21</ele>
        <time>2022-07-20T14:51:16Z</time>
      </trkpt>
      <trkpt lat="42.62735" lon="1.72679">
        <ele>2122.73</ele>
        <time>2022-07-20T14:51:55Z</time>
      </trkpt>
      <trkpt lat="42.62733" lon="1.72681">
        <ele>2123.21</ele>
        <time>2022-07-20T14:52:41Z</time>
      </trkpt>
      <trkpt lat="42.62733" lon="1.72682">
        <ele>2123.21</ele>
        <time>2022-07-20T14:53:30Z</time>
      </trkpt>
      <trkpt lat="42.62735" lon="1.72679">
        <ele>2122.25</ele>
        <time>2022-07-20T14:54:12Z</time>
      </trkpt>
      <trkpt lat="42.62734" lon="1.72681">
        <ele>2121.77</ele>
        <time>2022-07-20T14:54:45Z</time>
      </trkpt>
      <trkpt lat="42.62736" lon="1.72676">
        <ele>2121.77</ele>
        <time>2022-07-20T14:55:23Z</time>
      </trkpt>
      <trkpt lat="42.62736" lon="1.72681">
        <ele>2121.77</ele>
        <time>2022-07-20T14:56:03Z</time>
      </trkpt>
      <trkpt lat="42.62736" lon="1.7268">
        <ele>2122.25</ele>
        <time>2022-07-20T14:56:40Z</time>
      </trkpt>
      <trkpt lat="42.62735" lon="1.72683">
        <ele>2122.25</ele>
        <time>2022-07-20T14:57:15Z</time>
      </trkpt>
      <trkpt lat="42.62737" lon="1.7268">
        <ele>2122.25</ele>
        <time>2022-07-20T14:57:50Z</time>
      </trkpt>
      <trkpt lat="42.6274" lon="1.72681">
        <ele>2122.25</ele>
        <time>2022-07-20T14:58:24Z</time>
      </trkpt>
      <trkpt lat="42.62739" lon="1.7268">
        <ele>2122.25</ele>
        <time>2022-07-20T14:58:56Z</time>
      </trkpt>
      <trkpt lat="42.6274" lon="1.72685">
        <ele>2122.25</ele>
        <time>2022-07-20T14:59:32Z</time>
      </trkpt>
      <trkpt lat="42.62737" lon="1.72685">
        <ele>2123.21</ele>
        <time>2022-07-20T15:00:07Z</time>
      </trkpt>
      <trkpt lat="42.62738" lon="1.72684">
        <ele>2123.21</ele>
        <time>2022-07-20T15:00:39Z</time>
      </trkpt>
      <trkpt lat="42.62737" lon="1.72681">
        <ele>2123.21</ele>
        <time>2022-07-20T15:01:04Z</time>
      </trkpt>
      <trkpt lat="42.62737" lon="1.72683">
        <ele>2123.21</ele>
        <time>2022-07-20T15:01:34Z</time>
      </trkpt>
      <trkpt lat="42.62739" lon="1.72686">
        <ele>2123.21</ele>
        <time>2022-07-20T15:02:05Z</time>
      </trkpt>
      <trkpt lat="42.62739" lon="1.72685">
        <ele>2123.21</ele>
        <time>2022-07-20T15:02:35Z</time>
      </trkpt>
      <trkpt lat="42.62736" lon="1.72685">
        <ele>2123.21</ele>
        <time>2022-07-20T15:03:04Z</time>
      </trkpt>
      <trkpt lat="42.62736" lon="1.72686">
        <ele>2123.21</ele>
        <time>2022-07-20T15:03:39Z</time>
      </trkpt>
      <trkpt lat="42.62731" lon="1.72689">
        <ele>2123.21</ele>
        <time>2022-07-20T15:04:06Z</time>
      </trkpt>
      <trkpt lat="42.62733" lon="1.72691">
        <ele>2123.21</ele>
        <time>2022-07-20T15:04:44Z</time>
      </trkpt>
      <trkpt lat="42.62737" lon="1.72688">
        <ele>2122.73</ele>
        <time>2022-07-20T15:05:20Z</time>
      </trkpt>
      <trkpt lat="42.62736" lon="1.72684">
        <ele>2122.73</ele>
        <time>2022-07-20T15:05:52Z</time>
      </trkpt>
      <trkpt lat="42.62736" lon="1.72686">
        <ele>2122.73</ele>
        <time>2022-07-20T15:06:26Z</time>
      </trkpt>
      <trkpt lat="42.62737" lon="1.72685">
        <ele>2122.73</ele>
        <time>2022-07-20T15:06:53Z</time>
      </trkpt>
      <trkpt lat="42.62736" lon="1.72686">
        <ele>2121.29</ele>
        <time>2022-07-20T15:07:20Z</time>
      </trkpt>
      <trkpt lat="42.62739" lon="1.72684">
        <ele>2121.29</ele>
        <time>2022-07-20T15:07:53Z</time>
      </trkpt>
      <trkpt lat="42.62737" lon="1.72682">
        <ele>2121.29</ele>
        <time>2022-07-20T15:08:27Z</time>
      </trkpt>
      <trkpt lat="42.62741" lon="1.72682">
        <ele>2121.29</ele>
        <time>2022-07-20T15:09:04Z</time>
      </trkpt>
      <trkpt lat="42.62741" lon="1.72682">
        <ele>2121.77</ele>
        <time>2022-07-20T15:09:31Z</time>
      </trkpt>
      <trkpt lat="42.62744" lon="1.72679">
        <ele>2121.77</ele>
        <time>2022-07-20T15:10:02Z</time>
      </trkpt>
      <trkpt lat="42.62742" lon="1.72677">
        <ele>2123.21</ele>
        <time>2022-07-20T15:10:45Z</time>
      </trkpt>
      <trkpt lat="42.6274" lon="1.72678">
        <ele>2123.21</ele>
        <time>2022-07-20T15:11:23Z</time>
      </trkpt>
      <trkpt lat="42.62738" lon="1.72682">
        <ele>2123.69</ele>
        <time>2022-07-20T15:11:54Z</time>
      </trkpt>
      <trkpt lat="42.6274" lon="1.72681">
        <ele>2124.17</ele>
        <time>2022-07-20T15:12:22Z</time>
      </trkpt>
      <trkpt lat="42.62741" lon="1.72682">
        <ele>2124.17</ele>
        <time>2022-07-20T15:13:02Z</time>
      </trkpt>
      <trkpt lat="42.62743" lon="1.72682">
        <ele>2124.17</ele>
        <time>2022-07-20T15:13:44Z</time>
      </trkpt>
      <trkpt lat="42.62739" lon="1.72683">
        <ele>2124.65</ele>
        <time>2022-07-20T15:14:18Z</time>
      </trkpt>
      <trkpt lat="42.62741" lon="1.72682">
        <ele>2124.65</ele>
        <time>2022-07-20T15:15:00Z</time>
      </trkpt>
      <trkpt lat="42.62739" lon="1.72683">
        <ele>2124.65</ele>
        <time>2022-07-20T15:15:43Z</time>
      </trkpt>
      <trkpt lat="42.6274" lon="1.72686">
        <ele>2124.65</ele>
        <time>2022-07-20T15:16:24Z</time>
      </trkpt>
      <trkpt lat="42.62739" lon="1.72684">
        <ele>2124.65</ele>
        <time>2022-07-20T15:17:01Z</time>
      </trkpt>
      <trkpt lat="42.62739" lon="1.72684">
        <ele>2124.65</ele>
        <time>2022-07-20T15:17:35Z</time>
      </trkpt>
      <trkpt lat="42.62741" lon="1.72682">
        <ele>2124.65</ele>
        <time>2022-07-20T15:18:08Z</time>
      </trkpt>
      <trkpt lat="42.62737" lon="1.72686">
        <ele>2124.65</ele>
        <time>2022-07-20T15:18:53Z</time>
      </trkpt>
      <trkpt lat="42.62738" lon="1.72684">
        <ele>2124.65</ele>
        <time>2022-07-20T15:19:25Z</time>
      </trkpt>
      <trkpt lat="42.62741" lon="1.7268">
        <ele>2124.65</ele>
        <time>2022-07-20T15:20:04Z</time>
      </trkpt>
      <trkpt lat="42.62743" lon="1.72681">
        <ele>2124.65</ele>
        <time>2022-07-20T15:20:31Z</time>
      </trkpt>
      <trkpt lat="42.62739" lon="1.72681">
        <ele>2124.65</ele>
        <time>2022-07-20T15:21:07Z</time>
      </trkpt>
      <trkpt lat="42.62739" lon="1.7268">
        <ele>2125.13</ele>
        <time>2022-07-20T15:21:40Z</time>
      </trkpt>
      <trkpt lat="42.62742" lon="1.72678">
        <ele>2125.13</ele>
        <time>2022-07-20T15:22:16Z</time>
      </trkpt>
      <trkpt lat="42.62747" lon="1.72681">
        <ele>2125.13</ele>
        <time>2022-07-20T15:22:54Z</time>
      </trkpt>
      <trkpt lat="42.62743" lon="1.72682">
        <ele>2125.13</ele>
        <time>2022-07-20T15:23:30Z</time>
      </trkpt>
      <trkpt lat="42.6274" lon="1.72682">
        <ele>2125.61</ele>
        <time>2022-07-20T15:24:05Z</time>
      </trkpt>
      <trkpt lat="42.62743" lon="1.72682">
        <ele>2125.61</ele>
        <time>2022-07-20T15:24:43Z</time>
      </trkpt>
      <trkpt lat="42.62741" lon="1.7268">
        <ele>2125.61</ele>
        <time>2022-07-20T15:25:18Z</time>
      </trkpt>
      <trkpt lat="42.6274" lon="1.72678">
        <ele>2126.09</ele>
        <time>2022-07-20T15:25:54Z</time>
      </trkpt>
      <trkpt lat="42.62742" lon="1.72679">
        <ele>2126.57</ele>
        <time>2022-07-20T15:26:37Z</time>
      </trkpt>
      <trkpt lat="42.62741" lon="1.72679">
        <ele>2126.57</ele>
        <time>2022-07-20T15:27:12Z</time>
      </trkpt>
      <trkpt lat="42.62743" lon="1.72681">
        <ele>2127.05</ele>
        <time>2022-07-20T15:27:52Z</time>
      </trkpt>
      <trkpt lat="42.62742" lon="1.72679">
        <ele>2127.53</ele>
        <time>2022-07-20T15:28:35Z</time>
      </trkpt>
      <trkpt lat="42.62739" lon="1.72681">
        <ele>2127.53</ele>
        <time>2022-07-20T15:29:05Z</time>
      </trkpt>
      <trkpt lat="42.62745" lon="1.72678">
        <ele>2128.02</ele>
        <time>2022-07-20T15:29:40Z</time>
      </trkpt>
      <trkpt lat="42.62745" lon="1.72678">
        <ele>2127.53</ele>
        <time>2022-07-20T15:30:08Z</time>
      </trkpt>
      <trkpt lat="42.62747" lon="1.72682">
        <ele>2127.53</ele>
        <time>2022-07-20T15:30:38Z</time>
      </trkpt>
      <trkpt lat="42.62743" lon="1.72682">
        <ele>2127.53</ele>
        <time>2022-07-20T15:31:10Z</time>
      </trkpt>
      <trkpt lat="42.62739" lon="1.72678">
        <ele>2128.02</ele>
        <time>2022-07-20T15:31:45Z</time>
      </trkpt>
      <trkpt lat="42.62735" lon="1.7268">
        <ele>2128.02</ele>
        <time>2022-07-20T15:32:31Z</time>
      </trkpt>
      <trkpt lat="42.62739" lon="1.7268">
        <ele>2128.5</ele>
        <time>2022-07-20T15:33:12Z</time>
      </trkpt>
      <trkpt lat="42.62741" lon="1.7268">
        <ele>2128.5</ele>
        <time>2022-07-20T15:33:47Z</time>
      </trkpt>
      <trkpt lat="42.6274" lon="1.72682">
        <ele>2128.5</ele>
        <time>2022-07-20T15:34:21Z</time>
      </trkpt>
      <trkpt lat="42.62735" lon="1.72684">
        <ele>2128.5</ele>
        <time>2022-07-20T15:34:57Z</time>
      </trkpt>
      <trkpt lat="42.62739" lon="1.72682">
        <ele>2128.5</ele>
        <time>2022-07-20T15:35:42Z</time>
      </trkpt>
      <trkpt lat="42.62739" lon="1.72682">
        <ele>2128.5</ele>
        <time>2022-07-20T15:36:18Z</time>
      </trkpt>
      <trkpt lat="42.62739" lon="1.72683">
        <ele>2128.5</ele>
        <time>2022-07-20T15:36:57Z</time>
      </trkpt>
      <trkpt lat="42.6274" lon="1.72683">
        <ele>2129.46</ele>
        <time>2022-07-20T15:37:38Z</time>
      </trkpt>
      <trkpt lat="42.62735" lon="1.72685">
        <ele>2129.46</ele>
        <time>2022-07-20T15:38:17Z</time>
      </trkpt>
      <trkpt lat="42.62737" lon="1.72683">
        <ele>2129.94</ele>
        <time>2022-07-20T15:38:56Z</time>
      </trkpt>
      <trkpt lat="42.62738" lon="1.72683">
        <ele>2129.46</ele>
        <time>2022-07-20T15:39:35Z</time>
      </trkpt>
      <trkpt lat="42.62737" lon="1.72682">
        <ele>2129.46</ele>
        <time>2022-07-20T15:40:19Z</time>
      </trkpt>
      <trkpt lat="42.62741" lon="1.72685">
        <ele>2128.98</ele>
        <time>2022-07-20T15:41:07Z</time>
      </trkpt>
      <trkpt lat="42.6274" lon="1.72683">
        <ele>2127.53</ele>
        <time>2022-07-20T15:41:52Z</time>
      </trkpt>
      <trkpt lat="42.6274" lon="1.72682">
        <ele>2126.57</ele>
        <time>2022-07-20T15:42:32Z</time>
      </trkpt>
      <trkpt lat="42.6274" lon="1.72683">
        <ele>2126.57</ele>
        <time>2022-07-20T15:43:15Z</time>
      </trkpt>
      <trkpt lat="42.62741" lon="1.72685">
        <ele>2126.09</ele>
        <time>2022-07-20T15:43:58Z</time>
      </trkpt>
      <trkpt lat="42.62741" lon="1.72685">
        <ele>2125.13</ele>
        <time>2022-07-20T15:44:44Z</time>
      </trkpt>
      <trkpt lat="42.62741" lon="1.72683">
        <ele>2124.65</ele>
        <time>2022-07-20T15:45:28Z</time>
      </trkpt>
      <trkpt lat="42.62738" lon="1.7268">
        <ele>2124.17</ele>
        <time>2022-07-20T15:46:13Z</time>
      </trkpt>
      <trkpt lat="42.62739" lon="1.72683">
        <ele>2123.69</ele>
        <time>2022-07-20T15:47:01Z</time>
      </trkpt>
      <trkpt lat="42.62741" lon="1.72684">
        <ele>2123.21</ele>
        <time>2022-07-20T15:47:45Z</time>
      </trkpt>
      <trkpt lat="42.6274" lon="1.72682">
        <ele>2123.21</ele>
        <time>2022-07-20T15:48:26Z</time>
      </trkpt>
      <trkpt lat="42.62737" lon="1.72683">
        <ele>2122.73</ele>
        <time>2022-07-20T15:49:11Z</time>
      </trkpt>
      <trkpt lat="42.62735" lon="1.72685">
        <ele>2122.25</ele>
        <time>2022-07-20T15:49:49Z</time>
      </trkpt>
      <trkpt lat="42.62737" lon="1.72682">
        <ele>2123.21</ele>
        <time>2022-07-20T15:50:36Z</time>
      </trkpt>
      <trkpt lat="42.62734" lon="1.72685">
        <ele>2123.21</ele>
        <time>2022-07-20T15:51:22Z</time>
      </trkpt>
      <trkpt lat="42.62733" lon="1.72686">
        <ele>2122.73</ele>
        <time>2022-07-20T15:52:05Z</time>
      </trkpt>
      <trkpt lat="42.62733" lon="1.72683">
        <ele>2122.73</ele>
        <time>2022-07-20T15:52:41Z</time>
      </trkpt>
      <trkpt lat="42.62734" lon="1.72682">
        <ele>2122.73</ele>
        <time>2022-07-20T15:53:20Z</time>
      </trkpt>
      <trkpt lat="42.62738" lon="1.7268">
        <ele>2122.73</ele>
        <time>2022-07-20T15:54:02Z</time>
      </trkpt>
      <trkpt lat="42.62738" lon="1.72681">
        <ele>2122.25</ele>
        <time>2022-07-20T15:54:43Z</time>
      </trkpt>
      <trkpt lat="42.62738" lon="1.72684">
        <ele>2122.25</ele>
        <time>2022-07-20T15:55:20Z</time>
      </trkpt>
      <trkpt lat="42.62738" lon="1.72681">
        <ele>2122.25</ele>
        <time>2022-07-20T15:56:04Z</time>
      </trkpt>
      <trkpt lat="42.62738" lon="1.72684">
        <ele>2122.25</ele>
        <time>2022-07-20T15:56:51Z</time>
      </trkpt>
      <trkpt lat="42.62735" lon="1.7268">
        <ele>2121.77</ele>
        <time>2022-07-20T15:57:30Z</time>
      </trkpt>
      <trkpt lat="42.62734" lon="1.72682">
        <ele>2121.77</ele>
        <time>2022-07-20T15:58:16Z</time>
      </trkpt>
      <trkpt lat="42.62734" lon="1.72684">
        <ele>2121.77</ele>
        <time>2022-07-20T15:58:48Z</time>
      </trkpt>
      <trkpt lat="42.62734" lon="1.72683">
        <ele>2121.29</ele>
        <time>2022-07-20T15:59:16Z</time>
      </trkpt>
      <trkpt lat="42.62741" lon="1.72682">
        <ele>2120.32</ele>
        <time>2022-07-20T15:59:58Z</time>
      </trkpt>
      <trkpt lat="42.62737" lon="1.72684">
        <ele>2119.84</ele>
        <time>2022-07-20T16:00:32Z</time>
      </trkpt>
      <trkpt lat="42.62735" lon="1.72682">
        <ele>2119.84</ele>
        <time>2022-07-20T16:01:11Z</time>
      </trkpt>
      <trkpt lat="42.62737" lon="1.72682">
        <ele>2119.84</ele>
        <time>2022-07-20T16:01:50Z</time>
      </trkpt>
      <trkpt lat="42.62737" lon="1.72682">
        <ele>2119.84</ele>
        <time>2022-07-20T16:02:30Z</time>
      </trkpt>
      <trkpt lat="42.62739" lon="1.72684">
        <ele>2119.84</ele>
        <time>2022-07-20T16:03:11Z</time>
      </trkpt>
      <trkpt lat="42.62738" lon="1.72685">
        <ele>2119.84</ele>
        <time>2022-07-20T16:03:48Z</time>
      </trkpt>
      <trkpt lat="42.62738" lon="1.72683">
        <ele>2119.84</ele>
        <time>2022-07-20T16:04:37Z</time>
      </trkpt>
      <trkpt lat="42.62737" lon="1.72683">
        <ele>2119.84</ele>
        <time>2022-07-20T16:05:22Z</time>
      </trkpt>
      <trkpt lat="42.62735" lon="1.72682">
        <ele>2119.84</ele>
        <time>2022-07-20T16:06:05Z</time>
      </trkpt>
      <trkpt lat="42.62737" lon="1.72683">
        <ele>2119.84</ele>
        <time>2022-07-20T16:06:42Z</time>
      </trkpt>
      <trkpt lat="42.62734" lon="1.72681">
        <ele>2119.84</ele>
        <time>2022-07-20T16:07:22Z</time>
      </trkpt>
      <trkpt lat="42.62738" lon="1.72685">
        <ele>2119.84</ele>
        <time>2022-07-20T16:07:57Z</time>
      </trkpt>
      <trkpt lat="42.62733" lon="1.72681">
        <ele>2119.84</ele>
        <time>2022-07-20T16:08:35Z</time>
      </trkpt>
      <trkpt lat="42.62733" lon="1.72681">
        <ele>2119.36</ele>
        <time>2022-07-20T16:09:15Z</time>
      </trkpt>
      <trkpt lat="42.62734" lon="1.72683">
        <ele>2119.36</ele>
        <time>2022-07-20T16:09:39Z</time>
      </trkpt>
      <trkpt lat="42.62733" lon="1.72682">
        <ele>2119.36</ele>
        <time>2022-07-20T16:10:10Z</time>
      </trkpt>
      <trkpt lat="42.62735" lon="1.72682">
        <ele>2119.36</ele>
        <time>2022-07-20T16:10:51Z</time>
      </trkpt>
      <trkpt lat="42.62736" lon="1.72681">
        <ele>2119.36</ele>
        <time>2022-07-20T16:11:27Z</time>
      </trkpt>
      <trkpt lat="42.62737" lon="1.72685">
        <ele>2119.36</ele>
        <time>2022-07-20T16:12:02Z</time>
      </trkpt>
      <trkpt lat="42.62735" lon="1.72683">
        <ele>2119.36</ele>
        <time>2022-07-20T16:12:38Z</time>
      </trkpt>
      <trkpt lat="42.62736" lon="1.72682">
        <ele>2119.36</ele>
        <time>2022-07-20T16:13:16Z</time>
      </trkpt>
      <trkpt lat="42.62738" lon="1.72681">
        <ele>2119.84</ele>
        <time>2022-07-20T16:13:59Z</time>
      </trkpt>
      <trkpt lat="42.62739" lon="1.72681">
        <ele>2119.84</ele>
        <time>2022-07-20T16:14:35Z</time>
      </trkpt>
      <trkpt lat="42.62737" lon="1.72684">
        <ele>2119.84</ele>
        <time>2022-07-20T16:15:25Z</time>
      </trkpt>
      <trkpt lat="42.62739" lon="1.72683">
        <ele>2119.84</ele>
        <time>2022-07-20T16:16:08Z</time>
      </trkpt>
      <trkpt lat="42.62738" lon="1.72683">
        <ele>2119.84</ele>
        <time>2022-07-20T16:16:41Z</time>
      </trkpt>
      <trkpt lat="42.62738" lon="1.72682">
        <ele>2119.84</ele>
        <time>2022-07-20T16:17:16Z</time>
      </trkpt>
      <trkpt lat="42.62734" lon="1.72681">
        <ele>2119.84</ele>
        <time>2022-07-20T16:17:49Z</time>
      </trkpt>
      <trkpt lat="42.62735" lon="1.72683">
        <ele>2119.84</ele>
        <time>2022-07-20T16:18:29Z</time>
      </trkpt>
      <trkpt lat="42.62738" lon="1.72682">
        <ele>2119.84</ele>
        <time>2022-07-20T16:19:05Z</time>
      </trkpt>
      <trkpt lat="42.62736" lon="1.72683">
        <ele>2120.32</ele>
        <time>2022-07-20T16:19:55Z</time>
      </trkpt>
      <trkpt lat="42.62738" lon="1.72682">
        <ele>2120.32</ele>
        <time>2022-07-20T16:20:41Z</time>
      </trkpt>
      <trkpt lat="42.62738" lon="1.72684">
        <ele>2120.32</ele>
        <time>2022-07-20T16:21:17Z</time>
      </trkpt>
      <trkpt lat="42.62738" lon="1.72684">
        <ele>2120.32</ele>
        <time>2022-07-20T16:21:57Z</time>
      </trkpt>
      <trkpt lat="42.62738" lon="1.72681">
        <ele>2120.32</ele>
        <time>2022-07-20T16:22:30Z</time>
      </trkpt>
      <trkpt lat="42.62736" lon="1.72679">
        <ele>2120.32</ele>
        <time>2022-07-20T16:23:08Z</time>
      </trkpt>
      <trkpt lat="42.62736" lon="1.7268">
        <ele>2120.81</ele>
        <time>2022-07-20T16:23:52Z</time>
      </trkpt>
      <trkpt lat="42.62738" lon="1.72682">
        <ele>2120.81</ele>
        <time>2022-07-20T16:24:27Z</time>
      </trkpt>
      <trkpt lat="42.62735" lon="1.72684">
        <ele>2120.81</ele>
        <time>2022-07-20T16:25:01Z</time>
      </trkpt>
      <trkpt lat="42.62734" lon="1.72683">
        <ele>2120.81</ele>
        <time>2022-07-20T16:25:31Z</time>
      </trkpt>
      <trkpt lat="42.62733" lon="1.72679">
        <ele>2120.81</ele>
        <time>2022-07-20T16:26:11Z</time>
      </trkpt>
      <trkpt lat="42.62733" lon="1.7268">
        <ele>2120.81</ele>
        <time>2022-07-20T16:26:49Z</time>
      </trkpt>
      <trkpt lat="42.62737" lon="1.7268">
        <ele>2120.81</ele>
        <time>2022-07-20T16:27:36Z</time>
      </trkpt>
      <trkpt lat="42.62736" lon="1.72677">
        <ele>2120.81</ele>
        <time>2022-07-20T16:28:16Z</time>
      </trkpt>
      <trkpt lat="42.62737" lon="1.72679">
        <ele>2121.29</ele>
        <time>2022-07-20T16:28:50Z</time>
      </trkpt>
      <trkpt lat="42.62739" lon="1.72678">
        <ele>2121.29</ele>
        <time>2022-07-20T16:29:28Z</time>
      </trkpt>
      <trkpt lat="42.62737" lon="1.7268">
        <ele>2121.29</ele>
        <time>2022-07-20T16:29:57Z</time>
      </trkpt>
      <trkpt lat="42.62738" lon="1.72678">
        <ele>2121.29</ele>
        <time>2022-07-20T16:30:34Z</time>
      </trkpt>
      <trkpt lat="42.62736" lon="1.72679">
        <ele>2121.29</ele>
        <time>2022-07-20T16:31:07Z</time>
      </trkpt>
      <trkpt lat="42.62738" lon="1.72679">
        <ele>2121.77</ele>
        <time>2022-07-20T16:31:47Z</time>
      </trkpt>
      <trkpt lat="42.62735" lon="1.7268">
        <ele>2121.77</ele>
        <time>2022-07-20T16:32:21Z</time>
      </trkpt>
      <trkpt lat="42.62736" lon="1.72678">
        <ele>2121.77</ele>
        <time>2022-07-20T16:33:02Z</time>
      </trkpt>
      <trkpt lat="42.62736" lon="1.72679">
        <ele>2121.77</ele>
        <time>2022-07-20T16:33:39Z</time>
      </trkpt>
      <trkpt lat="42.6274" lon="1.72677">
        <ele>2122.25</ele>
        <time>2022-07-20T16:34:10Z</time>
      </trkpt>
      <trkpt lat="42.62739" lon="1.72682">
        <ele>2122.25</ele>
        <time>2022-07-20T16:34:49Z</time>
      </trkpt>
      <trkpt lat="42.62736" lon="1.72681">
        <ele>2122.25</ele>
        <time>2022-07-20T16:35:28Z</time>
      </trkpt>
      <trkpt lat="42.62737" lon="1.72678">
        <ele>2122.25</ele>
        <time>2022-07-20T16:36:05Z</time>
      </trkpt>
      <trkpt lat="42.62737" lon="1.7268">
        <ele>2122.25</ele>
        <time>2022-07-20T16:36:49Z</time>
      </trkpt>
      <trkpt lat="42.62734" lon="1.72679">
        <ele>2122.25</ele>
        <time>2022-07-20T16:37:24Z</time>
      </trkpt>
      <trkpt lat="42.62734" lon="1.7268">
        <ele>2122.73</ele>
        <time>2022-07-20T16:37:51Z</time>
      </trkpt>
      <trkpt lat="42.62737" lon="1.72679">
        <ele>2122.73</ele>
        <time>2022-07-20T16:38:37Z</time>
      </trkpt>
      <trkpt lat="42.62738" lon="1.72682">
        <ele>2122.73</ele>
        <time>2022-07-20T16:39:13Z</time>
      </trkpt>
      <trkpt lat="42.62738" lon="1.7268">
        <ele>2122.73</ele>
        <time>2022-07-20T16:39:43Z</time>
      </trkpt>
      <trkpt lat="42.62739" lon="1.72684">
        <ele>2124.17</ele>
        <time>2022-07-20T16:40:22Z</time>
      </trkpt>
      <trkpt lat="42.62737" lon="1.7268">
        <ele>2122.73</ele>
        <time>2022-07-20T16:40:43Z</time>
      </trkpt>
      <trkpt lat="42.62738" lon="1.7268">
        <ele>2124.17</ele>
        <time>2022-07-20T16:41:15Z</time>
      </trkpt>
      <trkpt lat="42.62738" lon="1.72679">
        <ele>2124.17</ele>
        <time>2022-07-20T16:41:53Z</time>
      </trkpt>
      <trkpt lat="42.62738" lon="1.72678">
        <ele>2124.17</ele>
        <time>2022-07-20T16:42:30Z</time>
      </trkpt>
      <trkpt lat="42.62738" lon="1.72679">
        <ele>2124.17</ele>
        <time>2022-07-20T16:43:05Z</time>
      </trkpt>
      <trkpt lat="42.62738" lon="1.72679">
        <ele>2124.17</ele>
        <time>2022-07-20T16:43:42Z</time>
      </trkpt>
      <trkpt lat="42.62737" lon="1.72681">
        <ele>2124.17</ele>
        <time>2022-07-20T16:44:30Z</time>
      </trkpt>
      <trkpt lat="42.62739" lon="1.7268">
        <ele>2124.65</ele>
        <time>2022-07-20T16:45:09Z</time>
      </trkpt>
      <trkpt lat="42.62737" lon="1.72679">
        <ele>2124.65</ele>
        <time>2022-07-20T16:45:49Z</time>
      </trkpt>
      <trkpt lat="42.62738" lon="1.7268">
        <ele>2124.65</ele>
        <time>2022-07-20T16:46:21Z</time>
      </trkpt>
      <trkpt lat="42.62738" lon="1.7268">
        <ele>2124.65</ele>
        <time>2022-07-20T16:46:52Z</time>
      </trkpt>
      <trkpt lat="42.62739" lon="1.72679">
        <ele>2124.65</ele>
        <time>2022-07-20T16:47:28Z</time>
      </trkpt>
      <trkpt lat="42.62738" lon="1.72679">
        <ele>2124.65</ele>
        <time>2022-07-20T16:48:13Z</time>
      </trkpt>
      <trkpt lat="42.62738" lon="1.72679">
        <ele>2124.65</ele>
        <time>2022-07-20T16:48:49Z</time>
      </trkpt>
      <trkpt lat="42.62738" lon="1.72678">
        <ele>2125.13</ele>
        <time>2022-07-20T16:49:15Z</time>
      </trkpt>
      <trkpt lat="42.62739" lon="1.72679">
        <ele>2125.13</ele>
        <time>2022-07-20T16:49:55Z</time>
      </trkpt>
      <trkpt lat="42.62739" lon="1.72681">
        <ele>2125.13</ele>
        <time>2022-07-20T16:50:35Z</time>
      </trkpt>
      <trkpt lat="42.62738" lon="1.7268">
        <ele>2125.13</ele>
        <time>2022-07-20T16:51:17Z</time>
      </trkpt>
      <trkpt lat="42.62738" lon="1.7268">
        <ele>2124.17</ele>
        <time>2022-07-20T16:51:51Z</time>
      </trkpt>
      <trkpt lat="42.62738" lon="1.72679">
        <ele>2124.17</ele>
        <time>2022-07-20T16:52:23Z</time>
      </trkpt>
      <trkpt lat="42.62737" lon="1.72681">
        <ele>2124.17</ele>
        <time>2022-07-20T16:52:46Z</time>
      </trkpt>
      <trkpt lat="42.62739" lon="1.72682">
        <ele>2124.65</ele>
        <time>2022-07-20T16:53:28Z</time>
      </trkpt>
      <trkpt lat="42.62738" lon="1.72683">
        <ele>2124.65</ele>
        <time>2022-07-20T16:54:00Z</time>
      </trkpt>
      <trkpt lat="42.62738" lon="1.72682">
        <ele>2124.65</ele>
        <time>2022-07-20T16:54:35Z</time>
      </trkpt>
      <trkpt lat="42.62738" lon="1.72683">
        <ele>2124.65</ele>
        <time>2022-07-20T16:54:57Z</time>
      </trkpt>
      <trkpt lat="42.62737" lon="1.7268">
        <ele>2124.65</ele>
        <time>2022-07-20T16:55:30Z</time>
      </trkpt>
      <trkpt lat="42.62738" lon="1.72679">
        <ele>2124.65</ele>
        <time>2022-07-20T16:55:49Z</time>
      </trkpt>
      <trkpt lat="42.62737" lon="1.72677">
        <ele>2124.65</ele>
        <time>2022-07-20T16:56:01Z</time>
      </trkpt>
      <trkpt lat="42.62743" lon="1.72679">
        <ele>2124.65</ele>
        <time>2022-07-20T16:56:28Z</time>
      </trkpt>
      <trkpt lat="42.62742" lon="1.72684">
        <ele>2125.13</ele>
        <time>2022-07-20T16:56:59Z</time>
      </trkpt>
      <trkpt lat="42.62737" lon="1.72679">
        <ele>2127.05</ele>
        <time>2022-07-20T16:57:12Z</time>
      </trkpt>
      <trkpt lat="42.62737" lon="1.7268">
        <ele>2125.61</ele>
        <time>2022-07-20T16:57:23Z</time>
      </trkpt>
      <trkpt lat="42.62747" lon="1.7268">
        <ele>2027.56</ele>
        <time>2022-07-21T06:53:08Z</time>
      </trkpt>
      <trkpt lat="42.62747" lon="1.72681">
        <ele>2030.92</ele>
        <time>2022-07-21T06:53:09Z</time>
      </trkpt>
      <trkpt lat="42.62747" lon="1.72681">
        <ele>2037.65</ele>
        <time>2022-07-21T06:53:10Z</time>
      </trkpt>
      <trkpt lat="42.62747" lon="1.72681">
        <ele>2041.02</ele>
        <time>2022-07-21T06:53:11Z</time>
      </trkpt>
      <trkpt lat="42.62747" lon="1.72681">
        <ele>2043.9</ele>
        <time>2022-07-21T06:53:12Z</time>
      </trkpt>
      <trkpt lat="42.62746" lon="1.72682">
        <ele>2046.78</ele>
        <time>2022-07-21T06:53:14Z</time>
      </trkpt>
      <trkpt lat="42.62746" lon="1.72682">
        <ele>2052.55</ele>
        <time>2022-07-21T06:53:16Z</time>
      </trkpt>
      <trkpt lat="42.62746" lon="1.72683">
        <ele>2057.36</ele>
        <time>2022-07-21T06:53:18Z</time>
      </trkpt>
      <trkpt lat="42.62745" lon="1.72685">
        <ele>2062.17</ele>
        <time>2022-07-21T06:53:20Z</time>
      </trkpt>
      <trkpt lat="42.62745" lon="1.72685">
        <ele>2066.49</ele>
        <time>2022-07-21T06:53:22Z</time>
      </trkpt>
      <trkpt lat="42.62745" lon="1.72686">
        <ele>2070.34</ele>
        <time>2022-07-21T06:53:24Z</time>
      </trkpt>
      <trkpt lat="42.62744" lon="1.72685">
        <ele>2073.7</ele>
        <time>2022-07-21T06:53:26Z</time>
      </trkpt>
      <trkpt lat="42.62744" lon="1.72685">
        <ele>2077.07</ele>
        <time>2022-07-21T06:53:28Z</time>
      </trkpt>
      <trkpt lat="42.62744" lon="1.72686">
        <ele>2079.95</ele>
        <time>2022-07-21T06:53:30Z</time>
      </trkpt>
      <trkpt lat="42.62743" lon="1.72686">
        <ele>2084.28</ele>
        <time>2022-07-21T06:53:33Z</time>
      </trkpt>
      <trkpt lat="42.62743" lon="1.72685">
        <ele>2088.12</ele>
        <time>2022-07-21T06:53:35Z</time>
      </trkpt>
      <trkpt lat="42.62743" lon="1.72684">
        <ele>2091.49</ele>
        <time>2022-07-21T06:53:38Z</time>
      </trkpt>
      <trkpt lat="42.62743" lon="1.72684">
        <ele>2091.49</ele>
        <time>2022-07-21T06:53:39Z</time>
      </trkpt>
      <trkpt lat="42.62742" lon="1.72684">
        <ele>2094.85</ele>
        <time>2022-07-21T06:53:43Z</time>
      </trkpt>
      <trkpt lat="42.62742" lon="1.72684">
        <ele>2098.21</ele>
        <time>2022-07-21T06:53:47Z</time>
      </trkpt>
      <trkpt lat="42.62742" lon="1.72684">
        <ele>2100.62</ele>
        <time>2022-07-21T06:53:50Z</time>
      </trkpt>
      <trkpt lat="42.62742" lon="1.72685">
        <ele>2102.06</ele>
        <time>2022-07-21T06:53:52Z</time>
      </trkpt>
      <trkpt lat="42.62741" lon="1.72685">
        <ele>2103.98</ele>
        <time>2022-07-21T06:53:55Z</time>
      </trkpt>
      <trkpt lat="42.62741" lon="1.72685">
        <ele>2107.35</ele>
        <time>2022-07-21T06:54:00Z</time>
      </trkpt>
      <trkpt lat="42.62741" lon="1.72685">
        <ele>2107.35</ele>
        <time>2022-07-21T06:54:01Z</time>
      </trkpt>
      <trkpt lat="42.62739" lon="1.72687">
        <ele>2110.71</ele>
        <time>2022-07-21T06:54:08Z</time>
      </trkpt>
      <trkpt lat="42.62741" lon="1.72687">
        <ele>2112.63</ele>
        <time>2022-07-21T06:54:12Z</time>
      </trkpt>
      <trkpt lat="42.62741" lon="1.72687">
        <ele>2116</ele>
        <time>2022-07-21T06:54:20Z</time>
      </trkpt>
      <trkpt lat="42.62742" lon="1.72686">
        <ele>2118.88</ele>
        <time>2022-07-21T06:54:29Z</time>
      </trkpt>
      <trkpt lat="42.62744" lon="1.72687">
        <ele>2122.25</ele>
        <time>2022-07-21T06:54:46Z</time>
      </trkpt>
      <trkpt lat="42.62742" lon="1.72687">
        <ele>2123.69</ele>
        <time>2022-07-21T06:55:11Z</time>
      </trkpt>
      <trkpt lat="42.62741" lon="1.72687">
        <ele>2123.69</ele>
        <time>2022-07-21T06:55:34Z</time>
      </trkpt>
      <trkpt lat="42.62744" lon="1.72685">
        <ele>2124.17</ele>
        <time>2022-07-21T06:55:52Z</time>
      </trkpt>
      <trkpt lat="42.62743" lon="1.72684">
        <ele>2124.17</ele>
        <time>2022-07-21T06:56:21Z</time>
      </trkpt>
      <trkpt lat="42.62743" lon="1.72683">
        <ele>2124.17</ele>
        <time>2022-07-21T06:56:46Z</time>
      </trkpt>
      <trkpt lat="42.62744" lon="1.72686">
        <ele>2124.17</ele>
        <time>2022-07-21T06:57:09Z</time>
      </trkpt>
      <trkpt lat="42.62745" lon="1.72684">
        <ele>2124.17</ele>
        <time>2022-07-21T06:57:29Z</time>
      </trkpt>
      <trkpt lat="42.62744" lon="1.72683">
        <ele>2124.65</ele>
        <time>2022-07-21T06:57:51Z</time>
      </trkpt>
      <trkpt lat="42.62744" lon="1.72683">
        <ele>2122.73</ele>
        <time>2022-07-21T06:57:56Z</time>
      </trkpt>
      <trkpt lat="42.62761" lon="1.72687">
        <ele>2115.52</ele>
        <time>2022-07-21T07:51:06Z</time>
      </trkpt>
    </trkseg>
  </trk>
</gpx>